Temperatur und Luftfeuchte

Temperatur und Luftfeuchte

<
Nummer Datum und Zeit Sensor ID Temperatur in Celsius gef├╝hlte Temperatur Luftfeuchte in %
20547 2020-01-24 17:49:00 Terrasse 0.70 -0.57 99.90
20546 2020-01-24 17:18:05 Terrasse 0.70 -0.57 99.90
20545 2020-01-24 16:47:10 Terrasse 0.80 -0.46 99.90
20544 2020-01-24 16:16:14 Terrasse 0.90 -0.35 99.90
20543 2020-01-24 15:45:18 Terrasse 1.00 -0.24 99.90
20542 2020-01-24 15:14:23 Terrasse 1.10 -0.13 99.90
20541 2020-01-24 14:43:29 Terrasse 1.20 -0.02 99.90
20540 2020-01-24 14:12:33 Terrasse 1.20 -0.02 99.90
20539 2020-01-24 13:41:38 Terrasse 1.10 -0.13 99.90
20538 2020-01-24 13:10:40 Terrasse 1.00 -0.24 99.90
20537 2020-01-24 12:39:42 Terrasse 0.70 -0.57 99.90
20536 2020-01-24 12:08:46 Terrasse 0.60 -0.68 99.90
20535 2020-01-24 11:37:49 Terrasse 0.60 -0.68 99.90
20534 2020-01-24 11:06:52 Terrasse 0.50 -0.79 99.90
20533 2020-01-24 10:36:00 Terrasse 0.40 -0.90 99.90
20532 2020-01-24 10:05:04 Terrasse 0.40 -0.90 99.90
20531 2020-01-24 09:34:08 Terrasse 0.40 -0.90 99.90
20530 2020-01-24 09:03:13 Terrasse 0.30 -1.01 99.90
20529 2020-01-24 08:32:18 Terrasse 0.30 -1.01 99.90
20528 2020-01-24 08:01:22 Terrasse 0.30 -1.01 99.90
20527 2020-01-24 07:30:26 Terrasse 0.30 -1.01 99.90
20526 2020-01-24 06:59:29 Terrasse 0.40 -0.90 99.90
20525 2020-01-24 06:28:34 Terrasse 0.40 -0.90 99.90
20524 2020-01-24 05:57:37 Terrasse 0.40 -0.90 99.90
20523 2020-01-24 05:26:43 Terrasse 0.40 -0.90 99.90
20522 2020-01-24 04:55:47 Terrasse 0.40 -0.90 99.90
20521 2020-01-24 04:24:50 Terrasse 0.40 -0.90 99.90
20520 2020-01-24 03:53:55 Terrasse 0.50 -0.79 99.90
20519 2020-01-24 03:22:59 Terrasse 0.70 -0.57 99.90
20518 2020-01-24 02:52:04 Terrasse 0.90 -0.35 99.90
20517 2020-01-24 02:21:09 Terrasse 1.00 -0.24 99.90
20516 2020-01-24 01:50:14 Terrasse 1.20 -0.02 99.90
20515 2020-01-24 01:19:19 Terrasse 1.30 0.09 99.90
20514 2020-01-24 00:48:24 Terrasse 1.30 0.09 99.90
20513 2020-01-24 00:17:27 Terrasse 1.40 0.20 99.90
20512 2020-01-23 23:46:32 Terrasse 1.40 0.20 99.90
20511 2020-01-23 23:15:36 Terrasse 1.50 0.31 99.90
20510 2020-01-23 22:44:44 Terrasse 1.70 0.53 99.90
20509 2020-01-23 22:13:50 Terrasse 1.70 0.53 99.90
20508 2020-01-23 21:42:56 Terrasse 1.90 0.75 99.90
20507 2020-01-23 21:12:01 Terrasse 2.10 0.97 99.90
20506 2020-01-23 20:41:05 Terrasse 2.20 1.08 99.90
20505 2020-01-23 20:10:11 Terrasse 2.30 1.19 99.90
20504 2020-01-23 19:39:16 Terrasse 2.20 1.08 99.90
20503 2020-01-23 19:08:20 Terrasse 2.20 1.08 99.90
20502 2020-01-23 18:37:26 Terrasse 2.50 1.41 99.90
20501 2020-01-23 18:06:34 Terrasse 2.90 1.85 99.90
20500 2020-01-23 17:35:42 Terrasse 3.60 2.62 99.90
20499 2020-01-23 17:05:01 Terrasse 4.70 3.83 99.90
20498 2020-01-23 16:34:17 Terrasse 6.50 5.04 70.10
20497 2020-01-23 16:04:09 Terrasse 13.10 11.92 55.60
20496 2020-01-23 15:32:46 Terrasse 8.70 7.44 69.60
20495 2020-01-23 15:02:21 Terrasse 9.70 8.46 66.60
20494 2020-01-23 14:30:48 Terrasse 10.60 9.51 68.90
20493 2020-01-23 13:59:16 Terrasse 4.30 3.39 99.90
20492 2020-01-23 13:28:18 Terrasse 3.60 2.62 99.90
20491 2020-01-23 12:57:18 Terrasse 3.00 1.96 99.90
20490 2020-01-23 12:26:20 Terrasse 2.50 1.41 99.90
20489 2020-01-23 11:55:22 Terrasse 2.30 1.19 99.90
20488 2020-01-23 11:24:22 Terrasse 2.20 1.08 99.90
20487 2020-01-23 10:53:24 Terrasse 2.00 0.86 99.90
20486 2020-01-23 10:22:26 Terrasse 1.90 0.75 99.90
20485 2020-01-23 09:51:30 Terrasse 1.80 0.64 99.90
20484 2020-01-23 09:20:34 Terrasse 1.70 0.53 99.90
20483 2020-01-23 08:49:36 Terrasse 1.60 0.42 99.90
20482 2020-01-23 08:18:38 Terrasse 1.60 0.42 99.90
20481 2020-01-23 07:47:43 Terrasse 1.60 0.42 99.90
20480 2020-01-23 07:16:45 Terrasse 1.60 0.42 99.90
20479 2020-01-23 06:45:50 Terrasse 1.60 0.42 99.90
20478 2020-01-23 06:14:54 Terrasse 1.50 0.31 99.90
20477 2020-01-23 05:43:58 Terrasse 1.50 0.31 99.90
20476 2020-01-23 05:13:00 Terrasse 1.50 0.31 99.90
20475 2020-01-23 04:42:04 Terrasse 1.50 0.31 99.90
20474 2020-01-23 04:11:08 Terrasse 1.40 0.20 99.90
20473 2020-01-23 03:40:14 Terrasse 1.40 0.20 99.90
20472 2020-01-23 03:09:17 Terrasse 1.20 -0.02 99.90
20471 2020-01-23 02:38:22 Terrasse 1.30 0.09 99.90
20470 2020-01-23 02:07:29 Terrasse 1.60 0.42 99.90
20469 2020-01-23 01:36:33 Terrasse 1.60 0.42 99.90
20468 2020-01-23 01:05:35 Terrasse 1.60 0.42 99.90
20467 2020-01-23 00:34:40 Terrasse 1.60 0.42 99.90
20466 2020-01-23 00:03:42 Terrasse 1.40 0.20 99.90
20465 2020-01-22 23:32:44 Terrasse 1.10 -0.13 99.90
20464 2020-01-22 23:01:48 Terrasse 1.20 -0.02 99.90
20463 2020-01-22 22:30:50 Terrasse 0.80 -0.46 99.90
20462 2020-01-22 21:59:53 Terrasse 0.60 -0.68 99.90
20461 2020-01-22 21:28:58 Terrasse 0.60 -0.68 99.90
20460 2020-01-22 20:58:01 Terrasse 0.30 -1.01 99.90
20459 2020-01-22 20:27:03 Terrasse 0.20 -1.12 99.90
20458 2020-01-22 19:56:07 Terrasse 0.20 -1.12 99.90
20457 2020-01-22 19:25:12 Terrasse 0.30 -1.01 99.90
20456 2020-01-22 18:54:16 Terrasse 0.30 -1.01 99.90
20455 2020-01-22 18:23:22 Terrasse 0.60 -0.68 99.90
20454 2020-01-22 17:52:27 Terrasse 0.70 -0.57 99.90
20453 2020-01-22 17:21:31 Terrasse 0.50 -0.79 99.90
20452 2020-01-22 16:50:36 Terrasse 0.70 -0.57 99.90
20451 2020-01-22 16:19:41 Terrasse 0.90 -0.35 99.90
20450 2020-01-22 15:48:47 Terrasse 1.30 0.09 99.90
20449 2020-01-22 15:17:52 Terrasse 1.20 -0.02 99.90
20448 2020-01-22 14:47:30 Terrasse 0.80 -0.46 99.90
20447 2020-01-22 14:16:20 Terrasse 0.50 -0.79 99.90
20446 2020-01-22 13:45:24 Terrasse 0.50 -0.79 99.90
20445 2020-01-22 13:14:29 Terrasse 0.80 -0.46 99.90
20444 2020-01-22 12:43:40 Terrasse 1.30 0.09 99.90
20443 2020-01-22 12:12:48 Terrasse 1.60 0.42 99.90
20442 2020-01-22 11:41:54 Terrasse 2.20 1.08 99.90
20441 2020-01-22 11:10:52 Terrasse 1.20 -0.02 99.90
20440 2020-01-22 10:39:50 Terrasse 0.00 -1.34 99.90
20439 2020-01-22 10:08:44 Terrasse -1.20 -2.66 99.90
20438 2020-01-22 09:37:44 Terrasse -1.80 -3.32 99.90
20437 2020-01-22 09:06:46 Terrasse -2.20 -3.76 99.90
20436 2020-01-22 08:35:50 Terrasse -2.40 -3.98 99.90
20435 2020-01-22 08:04:55 Terrasse -2.30 -3.87 99.90
20434 2020-01-22 07:34:05 Terrasse -1.90 -3.43 99.90
20433 2020-01-22 07:03:02 Terrasse -2.40 -3.98 99.90
20432 2020-01-22 06:32:07 Terrasse -2.30 -3.87 99.90
20431 2020-01-22 06:01:12 Terrasse -2.20 -3.76 99.90
20430 2020-01-22 05:30:18 Terrasse -2.00 -3.54 99.90
20429 2020-01-22 04:59:24 Terrasse -1.80 -3.32 99.90
20428 2020-01-22 04:28:31 Terrasse -1.70 -3.21 99.90
20427 2020-01-22 03:57:34 Terrasse -1.70 -3.21 99.90
20426 2020-01-22 03:26:38 Terrasse -1.50 -2.99 99.90
20425 2020-01-22 02:55:43 Terrasse -1.40 -2.88 99.90
20424 2020-01-22 02:24:49 Terrasse -1.30 -2.77 99.90
20423 2020-01-22 01:53:53 Terrasse -1.10 -2.55 99.90
20422 2020-01-22 01:23:01 Terrasse -0.90 -2.33 99.90
20421 2020-01-22 00:52:05 Terrasse -0.80 -2.22 99.90
20420 2020-01-22 00:21:10 Terrasse -0.70 -2.11 99.90
20419 2020-01-21 23:50:16 Terrasse -0.50 -1.89 99.90
20418 2020-01-21 23:19:21 Terrasse -0.30 -1.67 99.90
20417 2020-01-21 22:48:26 Terrasse -0.10 -1.45 99.90
20416 2020-01-21 22:17:31 Terrasse 0.00 -1.34 99.90
20415 2020-01-21 21:46:38 Terrasse 0.30 -1.01 99.90
20414 2020-01-21 21:15:42 Terrasse 0.50 -0.79 99.90
20413 2020-01-21 20:44:46 Terrasse 0.80 -0.46 99.90
20412 2020-01-21 20:13:52 Terrasse 1.00 -0.24 99.90
20411 2020-01-21 19:42:57 Terrasse 1.10 -0.13 99.90
20410 2020-01-21 19:12:04 Terrasse 1.40 0.20 99.90
20409 2020-01-21 18:41:12 Terrasse 1.80 0.64 99.90
20408 2020-01-21 18:10:22 Terrasse 2.70 1.29 86.60
20407 2020-01-21 17:39:31 Terrasse 3.60 1.78 67.40
20406 2020-01-21 17:08:46 Terrasse 5.10 3.31 62.90
20405 2020-01-21 16:38:00 Terrasse 7.10 5.40 58.60
20404 2020-01-21 16:07:20 Terrasse 9.60 8.04 54.40
20403 2020-01-21 15:36:41 Terrasse 11.30 9.86 52.70
20402 2020-01-21 15:05:56 Terrasse 13.50 12.32 54.10
20401 2020-01-21 14:35:03 Terrasse 14.00 12.89 55.00
20400 2020-01-21 14:04:08 Terrasse 14.50 13.44 54.90
20399 2020-01-21 13:33:09 Terrasse 14.60 13.53 54.00
20398 2020-01-21 13:02:02 Terrasse 12.90 11.74 57.20
20397 2020-01-21 12:30:56 Terrasse 11.80 10.61 60.40
20396 2020-01-21 11:59:46 Terrasse 10.40 9.21 65.70
20395 2020-01-21 11:28:28 Terrasse 8.30 7.15 75.10
20394 2020-01-21 10:56:56 Terrasse 6.00 5.03 90.90
20393 2020-01-21 10:25:42 Terrasse 3.90 2.95 99.90
20392 2020-01-21 09:54:30 Terrasse 1.10 -0.13 99.90
20391 2020-01-21 09:23:25 Terrasse -0.70 -2.11 99.90
20390 2020-01-21 08:52:27 Terrasse -1.30 -2.77 99.90
20389 2020-01-21 08:21:32 Terrasse -1.30 -2.77 99.90
20388 2020-01-21 07:50:37 Terrasse -1.10 -2.55 99.90
20387 2020-01-21 07:19:43 Terrasse -0.90 -2.33 99.90
20386 2020-01-21 06:48:46 Terrasse -0.80 -2.22 99.90
20385 2020-01-21 06:17:53 Terrasse -0.60 -2.00 99.90
20384 2020-01-21 05:46:58 Terrasse -0.50 -1.89 99.90
20383 2020-01-21 05:16:02 Terrasse -0.60 -2.00 99.90
20382 2020-01-21 04:45:07 Terrasse -0.60 -2.00 99.90
20381 2020-01-21 04:14:12 Terrasse -0.40 -1.78 99.90
20380 2020-01-21 03:43:17 Terrasse -0.10 -1.45 99.90
20379 2020-01-21 03:12:22 Terrasse 0.10 -1.23 99.90
20378 2020-01-21 02:41:25 Terrasse 0.00 -1.34 99.90
20377 2020-01-21 02:10:31 Terrasse 0.00 -1.34 99.90
20376 2020-01-21 01:39:35 Terrasse 0.20 -1.12 99.90
20375 2020-01-21 01:08:40 Terrasse 0.20 -1.12 99.90
20374 2020-01-21 00:37:47 Terrasse 0.30 -1.01 99.90
20373 2020-01-21 00:06:53 Terrasse 0.50 -0.79 99.90
20372 2020-01-20 23:36:00 Terrasse 0.70 -0.57 99.90
20371 2020-01-20 23:05:05 Terrasse 0.90 -0.35 99.90
20370 2020-01-20 22:34:11 Terrasse 1.30 0.09 99.90
20369 2020-01-20 22:03:17 Terrasse 1.50 0.31 99.90
20368 2020-01-20 21:32:23 Terrasse 1.70 0.53 99.90
20367 2020-01-20 21:01:27 Terrasse 1.90 0.75 99.90
20366 2020-01-20 20:30:32 Terrasse 2.00 0.86 99.90
20365 2020-01-20 19:59:37 Terrasse 2.10 0.97 99.90
20364 2020-01-20 19:28:41 Terrasse 2.20 1.08 99.90
20363 2020-01-20 18:57:47 Terrasse 2.20 1.08 99.90
20362 2020-01-20 18:26:56 Terrasse 2.90 1.85 99.90
20361 2020-01-20 17:56:05 Terrasse 3.50 2.51 99.90
20360 2020-01-20 17:25:16 Terrasse 4.50 3.30 87.80
20359 2020-01-20 16:54:27 Terrasse 5.70 4.22 72.70
20358 2020-01-20 16:23:37 Terrasse 6.80 5.26 66.20
20357 2020-01-20 15:52:50 Terrasse 8.00 6.51 63.50
20356 2020-01-20 15:22:10 Terrasse 9.90 8.53 60.70
20355 2020-01-20 14:51:41 Terrasse 13.90 12.87 58.30
20354 2020-01-20 14:20:45 Terrasse 14.20 13.23 59.50
20353 2020-01-20 13:49:37 Terrasse 13.20 12.15 60.40
20352 2020-01-20 13:18:54 Terrasse 14.10 13.14 60.40
20351 2020-01-20 12:48:05 Terrasse 13.70 12.77 62.80
20350 2020-01-20 12:16:47 Terrasse 11.90 10.81 63.90
20349 2020-01-20 11:45:29 Terrasse 10.40 9.33 70.10
20348 2020-01-20 11:13:55 Terrasse 7.80 6.70 79.20
20347 2020-01-20 10:42:39 Terrasse 6.70 5.63 84.60
20346 2020-01-20 10:11:30 Terrasse 4.90 4.05 99.90
20345 2020-01-20 09:40:22 Terrasse 2.80 1.74 99.90
20344 2020-01-20 09:09:23 Terrasse 2.30 1.19 99.90
20343 2020-01-20 08:38:26 Terrasse 2.20 1.08 99.90
20342 2020-01-20 08:07:32 Terrasse 2.40 1.30 99.90
20341 2020-01-20 07:36:37 Terrasse 2.70 1.63 99.90
20340 2020-01-20 07:05:41 Terrasse 2.80 1.74 99.90
20339 2020-01-20 06:34:45 Terrasse 2.80 1.74 99.90
20338 2020-01-20 06:03:51 Terrasse 3.00 1.96 99.90
20337 2020-01-20 05:32:54 Terrasse 3.00 1.96 99.90
20336 2020-01-20 05:01:58 Terrasse 3.10 2.07 99.90
20335 2020-01-20 04:31:01 Terrasse 3.10 2.07 99.90
20334 2020-01-20 04:00:04 Terrasse 3.20 2.18 99.90
20333 2020-01-20 03:29:08 Terrasse 3.20 2.18 99.90
20332 2020-01-20 02:58:13 Terrasse 3.20 2.18 99.90
20331 2020-01-20 02:27:16 Terrasse 3.30 2.29 99.90
20330 2020-01-20 01:56:19 Terrasse 3.30 2.29 99.90
20329 2020-01-20 01:25:23 Terrasse 3.20 2.18 99.90
20328 2020-01-20 00:54:27 Terrasse 3.10 2.07 99.90
20327 2020-01-20 00:23:33 Terrasse 3.40 2.40 99.90
20326 2020-01-19 23:52:39 Terrasse 3.50 2.51 99.90
20325 2020-01-19 23:21:42 Terrasse 3.40 2.40 99.90
20324 2020-01-19 22:50:51 Terrasse 3.40 2.40 99.90
20323 2020-01-19 22:19:52 Terrasse 3.50 2.51 99.90
20322 2020-01-19 21:48:56 Terrasse 3.40 2.40 99.90
20321 2020-01-19 21:17:59 Terrasse 3.30 2.29 99.90
20320 2020-01-19 20:47:04 Terrasse 3.40 2.40 99.90
20319 2020-01-19 20:16:06 Terrasse 3.30 2.29 99.90
20318 2020-01-19 19:45:09 Terrasse 3.20 2.18 99.90
20317 2020-01-19 19:14:12 Terrasse 3.00 1.96 99.90
20316 2020-01-19 18:43:16 Terrasse 3.10 2.07 99.90
20315 2020-01-19 18:12:20 Terrasse 3.10 2.07 99.90
20314 2020-01-19 17:41:25 Terrasse 3.20 2.18 99.90
20313 2020-01-19 17:10:32 Terrasse 3.50 2.51 99.90
20312 2020-01-19 16:39:42 Terrasse 4.30 3.39 99.90
20311 2020-01-19 16:08:50 Terrasse 5.10 4.27 99.90
20310 2020-01-19 15:37:55 Terrasse 5.50 4.71 99.90
20309 2020-01-19 15:07:01 Terrasse 5.60 4.82 99.90
20308 2020-01-19 14:36:05 Terrasse 5.50 4.71 99.90
20307 2020-01-19 14:05:12 Terrasse 5.50 4.71 99.90
20306 2020-01-19 13:34:19 Terrasse 6.20 5.48 99.90
20305 2020-01-19 13:03:26 Terrasse 6.40 5.70 99.90
20304 2020-01-19 12:32:20 Terrasse 5.90 5.15 99.90
20303 2020-01-19 12:01:37 Terrasse 6.70 6.03 99.90
20302 2020-01-19 11:30:22 Terrasse 4.40 3.50 99.90
20301 2020-01-19 10:59:20 Terrasse 4.00 3.06 99.90
20300 2020-01-19 10:28:19 Terrasse 3.60 2.62 99.90
20299 2020-01-19 09:57:18 Terrasse 3.00 1.96 99.90
20298 2020-01-19 09:26:21 Terrasse 2.10 0.97 99.90
20297 2020-01-19 08:55:23 Terrasse 1.90 0.75 99.90
20296 2020-01-19 08:24:25 Terrasse 1.80 0.64 99.90
20295 2020-01-19 07:53:29 Terrasse 1.70 0.53 99.90
20294 2020-01-19 07:22:33 Terrasse 1.60 0.42 99.90
20293 2020-01-19 06:51:36 Terrasse 1.60 0.42 99.90
20292 2020-01-19 06:20:39 Terrasse 1.60 0.42 99.90
20291 2020-01-19 05:49:43 Terrasse 1.80 0.64 99.90
20290 2020-01-19 05:18:47 Terrasse 1.80 0.64 99.90
20289 2020-01-19 04:47:51 Terrasse 1.80 0.64 99.90
20288 2020-01-19 04:16:55 Terrasse 1.90 0.75 99.90
20287 2020-01-19 03:45:59 Terrasse 1.90 0.75 99.90
20286 2020-01-19 03:15:03 Terrasse 2.10 0.97 99.90
20285 2020-01-19 02:44:09 Terrasse 2.10 0.97 99.90
20284 2020-01-19 02:13:14 Terrasse 2.20 1.08 99.90
20283 2020-01-19 01:42:18 Terrasse 2.50 1.41 99.90
20282 2020-01-19 01:11:22 Terrasse 2.40 1.30 99.90
20281 2020-01-19 00:40:28 Terrasse 2.50 1.41 99.90
20280 2020-01-19 00:09:32 Terrasse 2.50 1.41 99.90
20279 2020-01-18 23:38:36 Terrasse 2.40 1.30 99.90
20278 2020-01-18 23:07:40 Terrasse 2.30 1.19 99.90
20277 2020-01-18 22:36:43 Terrasse 2.30 1.19 99.90
20276 2020-01-18 22:05:47 Terrasse 2.40 1.30 99.90
20275 2020-01-18 21:34:51 Terrasse 2.50 1.41 99.90
20274 2020-01-18 21:03:57 Terrasse 2.50 1.41 99.90
20273 2020-01-18 20:33:01 Terrasse 2.60 1.52 99.90
20272 2020-01-18 20:02:06 Terrasse 2.60 1.52 99.90
20271 2020-01-18 19:31:10 Terrasse 3.00 1.96 99.90
20270 2020-01-18 19:00:16 Terrasse 3.20 2.18 99.90
20269 2020-01-18 18:29:24 Terrasse 3.70 2.73 99.90
20268 2020-01-18 17:58:30 Terrasse 4.20 3.28 99.90
20267 2020-01-18 17:27:35 Terrasse 4.50 3.61 99.90
20266 2020-01-18 16:56:44 Terrasse 5.10 4.27 99.90
20265 2020-01-18 16:25:56 Terrasse 5.70 4.93 99.90
20264 2020-01-18 15:55:06 Terrasse 6.40 5.70 99.90
20263 2020-01-18 15:24:12 Terrasse 6.20 5.48 99.90
20262 2020-01-18 14:53:16 Terrasse 6.10 5.37 99.90
20261 2020-01-18 14:22:23 Terrasse 6.50 5.81 99.90
20260 2020-01-18 13:51:30 Terrasse 6.10 5.37 99.90
20259 2020-01-18 13:20:39 Terrasse 6.80 6.14 99.90
20258 2020-01-18 12:49:42 Terrasse 7.20 6.58 99.90
20257 2020-01-18 12:18:21 Terrasse 5.00 4.16 99.90
20256 2020-01-18 11:47:25 Terrasse 5.20 4.38 99.90
20255 2020-01-18 11:16:21 Terrasse 4.90 4.05 99.90
20254 2020-01-18 10:45:36 Terrasse 4.40 3.50 99.90
20253 2020-01-18 10:14:24 Terrasse 3.50 2.51 99.90
20252 2020-01-18 09:43:21 Terrasse 2.40 1.30 99.90
20251 2020-01-18 09:12:20 Terrasse 1.90 0.75 99.90
20250 2020-01-18 08:41:22 Terrasse 1.60 0.42 99.90
20249 2020-01-18 08:10:26 Terrasse 1.50 0.31 99.90
20248 2020-01-18 07:39:31 Terrasse 1.70 0.53 99.90
20247 2020-01-18 07:08:36 Terrasse 1.70 0.53 99.90
20246 2020-01-18 06:37:41 Terrasse 1.80 0.64 99.90
20245 2020-01-18 06:06:48 Terrasse 2.20 1.08 99.90
20244 2020-01-18 05:35:54 Terrasse 2.40 1.30 99.90
20243 2020-01-18 05:04:59 Terrasse 2.50 1.41 99.90
20242 2020-01-18 04:34:05 Terrasse 2.80 1.74 99.90
20241 2020-01-18 04:03:09 Terrasse 3.10 2.07 99.90
20240 2020-01-18 03:32:16 Terrasse 3.50 2.51 99.90
20239 2020-01-18 03:01:22 Terrasse 3.90 2.95 99.90
20238 2020-01-18 02:30:28 Terrasse 4.10 3.17 99.90
20237 2020-01-18 01:59:33 Terrasse 4.20 3.28 99.90
20236 2020-01-18 01:28:37 Terrasse 4.30 3.39 99.90
20235 2020-01-18 00:57:42 Terrasse 4.50 3.61 99.90
20234 2020-01-18 00:26:47 Terrasse 4.70 3.83 99.90
20233 2020-01-17 23:55:52 Terrasse 5.00 4.16 99.90
20232 2020-01-17 23:24:58 Terrasse 5.30 4.49 99.90
20231 2020-01-17 22:54:02 Terrasse 5.50 4.71 99.90
20230 2020-01-17 22:23:05 Terrasse 5.60 4.82 99.90
20229 2020-01-17 21:52:08 Terrasse 5.70 4.93 99.90
20228 2020-01-17 21:21:11 Terrasse 5.70 4.93 99.90
20227 2020-01-17 20:50:18 Terrasse 6.20 5.48 99.90
20226 2020-01-17 20:19:21 Terrasse 6.30 5.59 99.90
20225 2020-01-17 19:48:25 Terrasse 6.40 5.70 99.90
20224 2020-01-17 19:17:28 Terrasse 6.50 5.81 99.90
20223 2020-01-17 18:46:30 Terrasse 6.40 5.70 99.90
20222 2020-01-17 18:15:34 Terrasse 6.40 5.70 99.90
20221 2020-01-17 17:44:38 Terrasse 6.50 5.81 99.90
20220 2020-01-17 17:13:43 Terrasse 6.60 5.92 99.90
20219 2020-01-17 16:42:46 Terrasse 6.90 6.25 99.90
20218 2020-01-17 16:11:50 Terrasse 7.20 6.58 99.90
20217 2020-01-17 15:40:52 Terrasse 7.20 6.58 99.90
20216 2020-01-17 15:09:57 Terrasse 7.30 6.69 99.90
20215 2020-01-17 14:39:01 Terrasse 7.50 6.91 99.90
20214 2020-01-17 14:08:08 Terrasse 7.90 7.35 99.90
20213 2020-01-17 13:37:12 Terrasse 8.30 7.79 99.90
20212 2020-01-17 13:06:11 Terrasse 7.90 7.35 99.90
20211 2020-01-17 12:35:19 Terrasse 8.40 7.90 99.90
20210 2020-01-17 12:04:08 Terrasse 7.30 6.69 99.90
20209 2020-01-17 11:33:13 Terrasse 7.20 6.58 99.90
20208 2020-01-17 11:02:26 Terrasse 8.10 7.57 99.90
20207 2020-01-17 10:31:15 Terrasse 6.80 6.14 99.90
20206 2020-01-17 10:00:11 Terrasse 5.30 4.49 99.90
20205 2020-01-17 09:29:05 Terrasse 3.80 2.84 99.90
20204 2020-01-17 08:58:07 Terrasse 3.40 2.40 99.90
20203 2020-01-17 08:27:11 Terrasse 3.30 2.29 99.90
20202 2020-01-17 07:56:14 Terrasse 3.30 2.29 99.90
20201 2020-01-17 07:25:20 Terrasse 3.40 2.40 99.90
20200 2020-01-17 06:54:26 Terrasse 3.50 2.51 99.90
20199 2020-01-17 06:23:32 Terrasse 3.70 2.73 99.90
20198 2020-01-17 05:52:37 Terrasse 3.90 2.95 99.90
20197 2020-01-17 05:21:42 Terrasse 4.10 3.17 99.90
20196 2020-01-17 04:50:46 Terrasse 4.20 3.28 99.90
20195 2020-01-17 04:19:59 Terrasse 4.50 3.61 99.90
20194 2020-01-17 03:49:01 Terrasse 4.60 3.72 99.90
20193 2020-01-17 03:18:07 Terrasse 4.80 3.94 99.90
20192 2020-01-17 02:47:11 Terrasse 5.10 4.27 99.90
20191 2020-01-17 02:16:17 Terrasse 5.30 4.49 99.90
20190 2020-01-17 01:45:21 Terrasse 5.50 4.71 99.90
20189 2020-01-17 01:14:26 Terrasse 5.90 5.15 99.90
20188 2020-01-17 00:43:31 Terrasse 6.00 5.26 99.90
20187 2020-01-17 00:12:36 Terrasse 6.20 5.48 99.90
20186 2020-01-16 23:41:41 Terrasse 6.50 5.81 99.90
20185 2020-01-16 23:10:45 Terrasse 6.60 5.92 99.90
20184 2020-01-16 22:39:48 Terrasse 6.60 5.92 99.90
20183 2020-01-16 22:08:51 Terrasse 6.60 5.92 99.90
20182 2020-01-16 21:37:54 Terrasse 6.60 5.92 99.90
20181 2020-01-16 21:06:59 Terrasse 6.70 6.03 99.90
20180 2020-01-16 20:36:02 Terrasse 6.80 6.14 99.90
20179 2020-01-16 20:05:07 Terrasse 7.10 6.47 99.90
20178 2020-01-16 19:34:12 Terrasse 7.50 6.91 99.90
20177 2020-01-16 19:03:17 Terrasse 7.70 7.13 99.90
20176 2020-01-16 18:32:23 Terrasse 8.20 7.68 99.90
20175 2020-01-16 18:01:32 Terrasse 8.90 8.45 99.90
20174 2020-01-16 17:30:43 Terrasse 9.70 9.33 99.90
20173 2020-01-16 16:59:53 Terrasse 11.00 10.76 99.90
20172 2020-01-16 16:29:05 Terrasse 12.50 12.41 99.90
20171 2020-01-16 15:58:23 Terrasse 14.60 14.31 84.10
20170 2020-01-16 15:27:43 Terrasse 15.80 15.48 78.30
20169 2020-01-16 14:56:55 Terrasse 17.50 17.37 78.90
20168 2020-01-16 14:26:06 Terrasse 18.10 17.89 73.80
20167 2020-01-16 13:55:11 Terrasse 18.40 18.30 76.80
20166 2020-01-16 13:24:09 Terrasse 17.60 17.50 79.90
20165 2020-01-16 12:53:08 Terrasse 16.60 16.57 86.30
20164 2020-01-16 12:22:04 Terrasse 15.90 16.15 99.90
20163 2020-01-16 11:50:45 Terrasse 13.70 13.73 99.90
20162 2020-01-16 11:18:56 Terrasse 10.10 9.77 99.90
20161 2020-01-16 10:48:00 Terrasse 9.70 9.33 99.90
20160 2020-01-16 10:16:52 Terrasse 7.90 7.35 99.90
20159 2020-01-16 09:45:47 Terrasse 7.10 6.47 99.90
20158 2020-01-16 09:14:44 Terrasse 6.10 5.37 99.90
20157 2020-01-16 08:43:47 Terrasse 6.00 5.26 99.90
20156 2020-01-16 08:12:52 Terrasse 6.20 5.48 99.90
20155 2020-01-16 07:41:58 Terrasse 6.60 5.92 99.90
20154 2020-01-16 07:11:05 Terrasse 7.10 6.47 99.90
20153 2020-01-16 06:40:13 Terrasse 7.80 7.24 99.90
20152 2020-01-16 06:09:17 Terrasse 8.20 7.68 99.90
20151 2020-01-16 05:38:20 Terrasse 8.30 7.79 99.90
20150 2020-01-16 05:07:23 Terrasse 8.30 7.79 99.90
20149 2020-01-16 04:36:28 Terrasse 8.30 7.79 99.90
20148 2020-01-16 04:05:31 Terrasse 8.40 7.90 99.90
20147 2020-01-16 03:34:34 Terrasse 8.50 8.01 99.90
20146 2020-01-16 03:03:37 Terrasse 8.50 8.01 99.90
20145 2020-01-16 02:32:41 Terrasse 8.60 8.12 99.90
20144 2020-01-16 02:01:44 Terrasse 8.60 8.12 99.90
20143 2020-01-16 01:30:49 Terrasse 8.90 8.45 99.90
20142 2020-01-16 00:59:52 Terrasse 9.00 8.56 99.90
20141 2020-01-16 00:28:57 Terrasse 9.20 8.78 99.90
20140 2020-01-15 23:58:00 Terrasse 9.30 8.89 99.90
20139 2020-01-15 23:27:03 Terrasse 9.40 9.00 99.90
20138 2020-01-15 22:56:08 Terrasse 9.60 9.22 99.90
20137 2020-01-15 22:25:11 Terrasse 9.60 9.22 99.90
20136 2020-01-15 21:54:14 Terrasse 9.60 9.22 99.90
20135 2020-01-15 21:23:18 Terrasse 9.80 9.44 99.90
20134 2020-01-15 20:52:22 Terrasse 9.90 9.55 99.90
20133 2020-01-15 20:21:24 Terrasse 9.90 9.55 99.90
20132 2020-01-15 19:50:27 Terrasse 10.10 9.77 99.90
20131 2020-01-15 19:19:31 Terrasse 10.20 9.88 99.90
20130 2020-01-15 18:48:34 Terrasse 10.40 10.10 99.90
20129 2020-01-15 18:17:38 Terrasse 10.60 10.26 97.40
20128 2020-01-15 17:46:42 Terrasse 10.70 10.37 97.60
20127 2020-01-15 17:15:46 Terrasse 10.90 10.65 99.90
20126 2020-01-15 16:44:51 Terrasse 11.30 10.90 92.60
20125 2020-01-15 16:14:00 Terrasse 12.00 11.20 74.50
20124 2020-01-15 15:43:18 Terrasse 14.10 13.31 66.70
20123 2020-01-15 15:12:37 Terrasse 15.60 15.05 70.30
20122 2020-01-15 14:41:46 Terrasse 16.80 16.27 66.40
20121 2020-01-15 14:10:49 Terrasse 16.30 15.82 70.20
20120 2020-01-15 13:39:23 Terrasse 13.70 13.55 92.70
20119 2020-01-15 13:08:55 Terrasse 14.40 13.92 77.50
20118 2020-01-15 12:38:15 Terrasse 15.20 14.64 71.30
20117 2020-01-15 12:07:14 Terrasse 14.70 14.30 79.30
20116 2020-01-15 11:35:57 Terrasse 12.70 12.45 92.80
20115 2020-01-15 11:04:29 Terrasse 10.10 9.77 99.90
20114 2020-01-15 10:33:28 Terrasse 9.50 9.11 99.90
20113 2020-01-15 10:02:18 Terrasse 8.30 7.79 99.90
20112 2020-01-15 09:31:06 Terrasse 5.70 4.93 99.90
20111 2020-01-15 09:00:08 Terrasse 5.30 4.49 99.90
20110 2020-01-15 08:29:13 Terrasse 5.40 4.60 99.90
20109 2020-01-15 07:58:18 Terrasse 5.70 4.93 99.90
20108 2020-01-15 07:27:23 Terrasse 6.10 5.37 99.90
20107 2020-01-15 06:56:30 Terrasse 6.50 5.81 99.90
20106 2020-01-15 06:25:34 Terrasse 6.80 6.14 99.90
20105 2020-01-15 05:54:39 Terrasse 7.00 6.36 99.90
20104 2020-01-15 05:23:47 Terrasse 7.60 7.02 99.90
20103 2020-01-15 04:52:52 Terrasse 8.00 7.46 99.90
20102 2020-01-15 04:21:56 Terrasse 8.10 7.57 99.90
20101 2020-01-15 03:50:59 Terrasse 8.10 7.57 99.90
20100 2020-01-15 03:20:01 Terrasse 7.90 7.35 99.90
20099 2020-01-15 02:49:03 Terrasse 7.60 7.02 99.90
20098 2020-01-15 02:18:06 Terrasse 7.50 6.91 99.90
20097 2020-01-15 01:47:11 Terrasse 7.60 7.02 99.90
20096 2020-01-15 01:16:11 Terrasse 7.40 6.80 99.90
20095 2020-01-15 00:45:15 Terrasse 7.40 6.80 99.90
20094 2020-01-15 00:14:19 Terrasse 7.60 7.02 99.90
20093 2020-01-14 23:43:21 Terrasse 7.60 7.02 99.90
20092 2020-01-14 23:12:22 Terrasse 7.30 6.69 99.90
20091 2020-01-14 22:41:24 Terrasse 7.00 6.36 99.90
20090 2020-01-14 22:10:29 Terrasse 7.10 6.47 99.90
20089 2020-01-14 21:39:35 Terrasse 7.70 7.13 99.90
20088 2020-01-14 21:08:42 Terrasse 8.10 7.57 99.90
20087 2020-01-14 20:37:44 Terrasse 8.40 7.90 99.90
20086 2020-01-14 20:06:46 Terrasse 8.20 7.68 99.90
20085 2020-01-14 19:35:46 Terrasse 8.10 7.57 99.90
20084 2020-01-14 19:04:48 Terrasse 7.90 7.35 99.90
20083 2020-01-14 18:33:49 Terrasse 7.60 7.02 99.90
20082 2020-01-14 18:02:52 Terrasse 7.40 6.80 99.90
20081 2020-01-14 17:31:56 Terrasse 7.30 6.69 99.90
20080 2020-01-14 17:00:59 Terrasse 7.30 6.69 99.90
20079 2020-01-14 16:30:03 Terrasse 7.50 6.91 99.90
20078 2020-01-14 15:59:11 Terrasse 7.90 7.35 99.90
20077 2020-01-14 15:28:16 Terrasse 8.20 7.68 99.90
20076 2020-01-14 14:57:19 Terrasse 8.20 7.68 99.90
20075 2020-01-14 14:26:21 Terrasse 8.10 7.57 99.90
20074 2020-01-14 13:55:24 Terrasse 8.00 7.46 99.90
20073 2020-01-14 13:24:27 Terrasse 7.70 7.13 99.90
20072 2020-01-14 12:22:41 Terrasse 7.10 6.47 99.90
20071 2020-01-14 11:51:44 Terrasse 6.80 6.14 99.90
20070 2020-01-14 11:20:47 Terrasse 6.60 5.92 99.90
20069 2020-01-14 10:49:46 Terrasse 6.00 5.26 99.90
20068 2020-01-14 10:18:46 Terrasse 5.20 4.38 99.90
20067 2020-01-14 09:47:47 Terrasse 4.80 3.94 99.90
20066 2020-01-14 09:16:50 Terrasse 4.40 3.50 99.90
20065 2020-01-14 08:45:51 Terrasse 4.10 3.17 99.90
20064 2020-01-14 08:14:56 Terrasse 4.10 3.17 99.90
20063 2020-01-14 07:43:59 Terrasse 4.10 3.17 99.90
20062 2020-01-14 07:13:12 Terrasse 4.20 3.28 99.90
20061 2020-01-14 06:42:17 Terrasse 4.20 3.28 99.90
20060 2020-01-14 06:11:21 Terrasse 4.20 3.28 99.90
20059 2020-01-14 05:40:26 Terrasse 4.30 3.39 99.90
20058 2020-01-14 05:09:31 Terrasse 4.50 3.61 99.90
20057 2020-01-14 04:38:34 Terrasse 4.60 3.72 99.90
20056 2020-01-14 04:07:39 Terrasse 4.70 3.83 99.90
20055 2020-01-14 03:36:45 Terrasse 4.70 3.83 99.90
20054 2020-01-14 03:05:49 Terrasse 4.80 3.94 99.90
20053 2020-01-14 02:34:53 Terrasse 4.80 3.94 99.90
20052 2020-01-14 02:03:58 Terrasse 4.90 4.05 99.90
20051 2020-01-14 01:33:01 Terrasse 4.90 4.05 99.90
20050 2020-01-14 01:02:05 Terrasse 4.90 4.05 99.90
20049 2020-01-14 00:31:11 Terrasse 4.90 4.05 99.90
20048 2020-01-14 00:00:14 Terrasse 4.90 4.05 99.90
20047 2020-01-13 23:29:17 Terrasse 4.80 3.94 99.90
20046 2020-01-13 22:58:21 Terrasse 4.80 3.94 99.90
20045 2020-01-13 22:27:24 Terrasse 4.80 3.94 99.90
20044 2020-01-13 21:56:28 Terrasse 4.80 3.94 99.90
20043 2020-01-13 21:25:30 Terrasse 4.80 3.94 99.90
20042 2020-01-13 20:54:35 Terrasse 4.80 3.94 99.90
20041 2020-01-13 20:23:39 Terrasse 4.70 3.83 99.90
20040 2020-01-13 19:52:45 Terrasse 4.70 3.83 99.90
20039 2020-01-13 19:21:49 Terrasse 4.70 3.83 99.90
20038 2020-01-13 18:50:52 Terrasse 4.70 3.83 99.90
20037 2020-01-13 18:19:57 Terrasse 4.70 3.83 99.90
20036 2020-01-13 17:49:02 Terrasse 4.80 3.94 99.90
20035 2020-01-13 17:18:05 Terrasse 4.80 3.94 99.90
20034 2020-01-13 16:47:10 Terrasse 4.80 3.94 99.90
20033 2020-01-13 16:16:14 Terrasse 4.80 3.94 99.90
20032 2020-01-13 15:45:19 Terrasse 4.80 3.94 99.90
20031 2020-01-13 15:14:22 Terrasse 4.80 3.94 99.90
20030 2020-01-13 14:43:29 Terrasse 5.00 4.16 99.90
20029 2020-01-13 14:12:33 Terrasse 5.00 4.16 99.90
20028 2020-01-13 13:41:38 Terrasse 5.10 4.27 99.90
20027 2020-01-13 13:10:42 Terrasse 5.20 4.38 99.90
20026 2020-01-13 12:39:42 Terrasse 4.90 4.05 99.90
20025 2020-01-13 12:08:44 Terrasse 4.80 3.94 99.90
20024 2020-01-13 11:37:46 Terrasse 4.60 3.72 99.90
20023 2020-01-13 11:06:47 Terrasse 4.40 3.50 99.90
20022 2020-01-13 10:35:50 Terrasse 4.30 3.39 99.90
20021 2020-01-13 10:04:53 Terrasse 4.10 3.17 99.90
20020 2020-01-13 09:33:56 Terrasse 4.00 3.06 99.90
20019 2020-01-13 09:03:00 Terrasse 3.90 2.95 99.90
20018 2020-01-13 08:32:05 Terrasse 4.00 3.06 99.90
20017 2020-01-13 08:01:09 Terrasse 4.00 3.06 99.90
20016 2020-01-13 07:30:18 Terrasse 4.00 3.06 99.90
20015 2020-01-13 06:59:21 Terrasse 4.00 3.06 99.90
20014 2020-01-13 06:28:25 Terrasse 4.00 3.06 99.90
20013 2020-01-13 05:57:30 Terrasse 4.00 3.06 99.90
20012 2020-01-13 05:26:35 Terrasse 4.00 3.06 99.90
20011 2020-01-13 04:55:39 Terrasse 4.10 3.17 99.90
20010 2020-01-13 04:24:43 Terrasse 4.10 3.17 99.90
20009 2020-01-13 03:53:46 Terrasse 4.10 3.17 99.90
20008 2020-01-13 03:22:51 Terrasse 4.10 3.17 99.90
20007 2020-01-13 02:51:55 Terrasse 4.10 3.17 99.90
20006 2020-01-13 02:21:00 Terrasse 4.10 3.17 99.90
20005 2020-01-13 01:50:04 Terrasse 4.10 3.17 99.90
20004 2020-01-13 01:19:07 Terrasse 4.00 3.06 99.90
20003 2020-01-13 00:48:10 Terrasse 4.00 3.06 99.90
20002 2020-01-13 00:17:16 Terrasse 3.90 2.95 99.90
20001 2020-01-12 23:46:20 Terrasse 3.80 2.84 99.90
20000 2020-01-12 23:15:24 Terrasse 3.70 2.73 99.90
19999 2020-01-12 22:44:30 Terrasse 3.70 2.73 99.90
19998 2020-01-12 22:13:33 Terrasse 3.70 2.73 99.90
19997 2020-01-12 21:42:38 Terrasse 3.70 2.73 99.90
19996 2020-01-12 21:11:43 Terrasse 3.70 2.73 99.90
19995 2020-01-12 20:40:47 Terrasse 3.70 2.73 99.90
19994 2020-01-12 20:09:50 Terrasse 3.70 2.73 99.90
19993 2020-01-12 19:38:55 Terrasse 3.70 2.73 99.90
19992 2020-01-12 19:08:00 Terrasse 3.60 2.62 99.90
19991 2020-01-12 18:37:03 Terrasse 3.60 2.62 99.90
19990 2020-01-12 18:06:08 Terrasse 3.60 2.62 99.90
19989 2020-01-12 17:35:14 Terrasse 3.60 2.62 99.90
19988 2020-01-12 17:04:19 Terrasse 3.70 2.73 99.90
19987 2020-01-12 16:33:26 Terrasse 4.00 3.06 99.90
19986 2020-01-12 16:02:29 Terrasse 4.00 3.06 99.90
19985 2020-01-12 15:31:34 Terrasse 3.90 2.95 99.90
19984 2020-01-12 15:00:39 Terrasse 3.90 2.95 99.90
19983 2020-01-12 14:29:45 Terrasse 3.90 2.95 99.90
19982 2020-01-12 13:58:51 Terrasse 3.90 2.95 99.90
19981 2020-01-12 13:27:53 Terrasse 3.80 2.84 99.90
19980 2020-01-12 12:56:54 Terrasse 3.30 2.29 99.90
19979 2020-01-12 12:25:57 Terrasse 3.00 1.96 99.90
19978 2020-01-12 11:55:03 Terrasse 2.80 1.74 99.90
19977 2020-01-12 11:24:07 Terrasse 2.60 1.52 99.90
19976 2020-01-12 10:53:10 Terrasse 2.30 1.19 99.90
19975 2020-01-12 10:22:12 Terrasse 1.90 0.75 99.90
19974 2020-01-12 09:51:16 Terrasse 1.80 0.64 99.90
19973 2020-01-12 09:20:19 Terrasse 1.40 0.20 99.90
19972 2020-01-12 08:49:30 Terrasse 1.20 -0.02 99.90
19971 2020-01-12 08:18:33 Terrasse 1.10 -0.13 99.90
19970 2020-01-12 07:47:38 Terrasse 1.10 -0.13 99.90
19969 2020-01-12 07:16:44 Terrasse 1.00 -0.24 99.90
19968 2020-01-12 06:46:00 Terrasse 0.90 -0.35 99.90
19967 2020-01-12 06:14:58 Terrasse 0.70 -0.57 99.90
19966 2020-01-12 05:44:01 Terrasse 0.40 -0.90 99.90
19965 2020-01-12 05:13:03 Terrasse -0.10 -1.45 99.90
19964 2020-01-12 04:42:10 Terrasse 0.00 -1.34 99.90
19963 2020-01-12 04:11:18 Terrasse 0.10 -1.23 99.90
19962 2020-01-12 03:40:24 Terrasse 0.10 -1.23 99.90
19961 2020-01-12 03:09:29 Terrasse 0.00 -1.34 99.90
19960 2020-01-12 02:38:35 Terrasse 0.40 -0.90 99.90
19959 2020-01-12 02:07:42 Terrasse 0.20 -1.12 99.90
19958 2020-01-12 01:36:48 Terrasse 0.40 -0.90 99.90
19957 2020-01-12 01:05:53 Terrasse 0.50 -0.79 99.90
19956 2020-01-12 00:35:00 Terrasse 0.60 -0.68 99.90
19955 2020-01-12 00:04:09 Terrasse 0.80 -0.46 99.90
19954 2020-01-11 23:33:16 Terrasse 0.80 -0.46 99.90
19953 2020-01-11 23:02:24 Terrasse 1.10 -0.13 99.90
19952 2020-01-11 22:31:31 Terrasse 1.40 0.20 99.90
19951 2020-01-11 22:00:39 Terrasse 1.80 0.64 99.90
19950 2020-01-11 21:29:48 Terrasse 2.20 1.08 99.90
19949 2020-01-11 20:58:57 Terrasse 2.80 1.74 99.90
19948 2020-01-11 20:28:05 Terrasse 3.10 2.07 99.90
19947 2020-01-11 19:57:11 Terrasse 3.30 2.29 99.90
19946 2020-01-11 19:26:17 Terrasse 3.50 2.51 99.90
19945 2020-01-11 18:55:24 Terrasse 3.70 2.73 99.90
19944 2020-01-11 18:24:29 Terrasse 3.90 2.95 99.90
19943 2020-01-11 17:53:36 Terrasse 4.00 3.06 99.90
19942 2020-01-11 17:22:41 Terrasse 4.20 3.28 99.90
19941 2020-01-11 16:51:48 Terrasse 4.50 3.61 99.90
19940 2020-01-11 16:20:58 Terrasse 5.00 4.16 99.90
19939 2020-01-11 15:50:04 Terrasse 5.40 4.60 99.90
19938 2020-01-11 15:19:11 Terrasse 5.90 5.15 99.90
19937 2020-01-11 14:48:21 Terrasse 6.20 5.48 99.90
19936 2020-01-11 14:17:35 Terrasse 7.40 6.68 95.10
19935 2020-01-11 13:46:52 Terrasse 8.70 8.23 99.90
19934 2020-01-11 13:15:53 Terrasse 8.60 7.89 91.00
19933 2020-01-11 12:45:10 Terrasse 10.50 9.54 74.10
19932 2020-01-11 12:14:12 Terrasse 10.70 10.43 99.90
19931 2020-01-11 11:43:11 Terrasse 9.90 9.55 99.90
19930 2020-01-11 11:11:48 Terrasse 7.40 6.80 99.90
19929 2020-01-11 10:40:30 Terrasse 5.20 4.38 99.90
19928 2020-01-11 10:09:21 Terrasse 3.10 2.07 99.90
19927 2020-01-11 09:38:20 Terrasse 2.10 0.97 99.90
19926 2020-01-11 09:07:22 Terrasse 1.60 0.42 99.90
19925 2020-01-11 08:36:27 Terrasse 1.60 0.42 99.90
19924 2020-01-11 08:05:33 Terrasse 1.80 0.64 99.90
19923 2020-01-11 07:34:38 Terrasse 1.80 0.64 99.90
19922 2020-01-11 07:03:44 Terrasse 2.10 0.97 99.90
19921 2020-01-11 06:32:51 Terrasse 2.30 1.19 99.90
19920 2020-01-11 06:01:57 Terrasse 2.70 1.63 99.90
19919 2020-01-11 05:31:03 Terrasse 2.60 1.52 99.90
19918 2020-01-11 05:00:09 Terrasse 2.60 1.52 99.90
19917 2020-01-11 04:29:16 Terrasse 2.80 1.74 99.90
19916 2020-01-11 03:58:25 Terrasse 3.10 2.07 99.90
19915 2020-01-11 03:27:30 Terrasse 3.30 2.29 99.90
19914 2020-01-11 02:56:35 Terrasse 3.40 2.40 99.90
19913 2020-01-11 02:25:42 Terrasse 3.80 2.84 99.90
19912 2020-01-11 01:54:48 Terrasse 3.90 2.95 99.90
19911 2020-01-11 01:23:52 Terrasse 3.80 2.84 99.90
19910 2020-01-11 00:52:58 Terrasse 3.90 2.95 99.90
19909 2020-01-11 00:22:04 Terrasse 4.20 3.28 99.90
19908 2020-01-10 23:51:10 Terrasse 4.30 3.39 99.90
19907 2020-01-10 23:20:13 Terrasse 4.10 3.17 99.90
19906 2020-01-10 22:49:19 Terrasse 4.20 3.28 99.90
19905 2020-01-10 22:18:27 Terrasse 4.40 3.50 99.90
19904 2020-01-10 21:47:35 Terrasse 4.70 3.83 99.90
19903 2020-01-10 21:16:41 Terrasse 5.30 4.49 99.90
19902 2020-01-10 20:45:48 Terrasse 5.50 4.71 99.90
19901 2020-01-10 20:14:53 Terrasse 5.60 4.82 99.90
19900 2020-01-10 19:43:58 Terrasse 5.70 4.93 99.90
19899 2020-01-10 19:13:03 Terrasse 5.80 5.04 99.90
19898 2020-01-10 18:42:08 Terrasse 5.90 5.15 99.90
19897 2020-01-10 18:11:12 Terrasse 5.90 5.15 99.90
19896 2020-01-10 17:40:19 Terrasse 6.10 5.37 99.90
19895 2020-01-10 17:09:24 Terrasse 6.20 5.48 99.90
19894 2020-01-10 16:38:31 Terrasse 6.50 5.81 99.90
19893 2020-01-10 16:07:38 Terrasse 7.00 6.36 99.90
19892 2020-01-10 15:36:45 Terrasse 7.40 6.80 99.90
19891 2020-01-10 15:05:51 Terrasse 7.90 7.35 99.90
19890 2020-01-10 14:35:04 Terrasse 9.10 8.67 99.90
19889 2020-01-10 14:04:17 Terrasse 10.60 10.32 99.90
19888 2020-01-10 13:33:16 Terrasse 9.20 8.78 99.90
19887 2020-01-10 13:02:40 Terrasse 11.10 10.87 99.90
19886 2020-01-10 12:31:48 Terrasse 11.30 11.09 99.90
19885 2020-01-10 12:00:38 Terrasse 8.90 8.45 99.90
19884 2020-01-10 11:29:34 Terrasse 8.00 7.46 99.90
19883 2020-01-10 10:58:36 Terrasse 7.60 7.02 99.90
19882 2020-01-10 10:27:37 Terrasse 7.20 6.58 99.90
19881 2020-01-10 09:56:40 Terrasse 6.90 6.25 99.90
19880 2020-01-10 09:25:43 Terrasse 6.80 6.14 99.90
19879 2020-01-10 08:54:46 Terrasse 6.60 5.92 99.90
19878 2020-01-10 08:23:49 Terrasse 6.50 5.81 99.90
19877 2020-01-10 07:52:53 Terrasse 6.50 5.81 99.90
19876 2020-01-10 07:21:57 Terrasse 6.40 5.70 99.90
19875 2020-01-10 06:51:00 Terrasse 6.50 5.81 99.90
19874 2020-01-10 06:20:05 Terrasse 6.50 5.81 99.90
19873 2020-01-10 05:49:12 Terrasse 6.70 6.03 99.90
19872 2020-01-10 05:18:16 Terrasse 6.80 6.14 99.90
19871 2020-01-10 04:47:20 Terrasse 6.80 6.14 99.90
19870 2020-01-10 04:16:25 Terrasse 6.90 6.25 99.90
19869 2020-01-10 03:45:30 Terrasse 6.90 6.25 99.90
19868 2020-01-10 03:14:36 Terrasse 7.00 6.36 99.90
19867 2020-01-10 02:43:40 Terrasse 7.20 6.58 99.90
19866 2020-01-10 02:12:44 Terrasse 7.20 6.58 99.90
19865 2020-01-10 01:41:50 Terrasse 7.30 6.69 99.90
19864 2020-01-10 01:10:54 Terrasse 7.30 6.69 99.90
19863 2020-01-10 00:40:00 Terrasse 7.40 6.80 99.90
19862 2020-01-10 00:09:05 Terrasse 7.50 6.91 99.90
19861 2020-01-09 23:38:08 Terrasse 7.60 7.02 99.90
19860 2020-01-09 23:07:13 Terrasse 7.70 7.13 99.90
19859 2020-01-09 22:36:18 Terrasse 7.70 7.13 99.90
19858 2020-01-09 22:05:23 Terrasse 7.90 7.35 99.90
19857 2020-01-09 21:34:28 Terrasse 7.90 7.35 99.90
19856 2020-01-09 21:03:32 Terrasse 7.90 7.35 99.90
19855 2020-01-09 20:32:37 Terrasse 8.00 7.46 99.90
19854 2020-01-09 20:01:42 Terrasse 8.10 7.57 99.90
19853 2020-01-09 19:30:46 Terrasse 8.30 7.79 99.90
19852 2020-01-09 18:59:50 Terrasse 8.40 7.90 99.90
19851 2020-01-09 18:28:55 Terrasse 8.60 8.12 99.90
19850 2020-01-09 17:58:00 Terrasse 8.70 8.23 99.90
19849 2020-01-09 17:27:05 Terrasse 8.80 8.34 99.90
19848 2020-01-09 16:56:10 Terrasse 8.90 8.45 99.90
19847 2020-01-09 16:25:14 Terrasse 8.90 8.45 99.90
19846 2020-01-09 15:54:18 Terrasse 9.00 8.56 99.90
19845 2020-01-09 15:23:22 Terrasse 9.20 8.78 99.90
19844 2020-01-09 14:52:25 Terrasse 9.20 8.78 99.90
19843 2020-01-09 14:21:29 Terrasse 9.20 8.78 99.90
19842 2020-01-09 13:50:31 Terrasse 9.10 8.67 99.90
19841 2020-01-09 13:19:33 Terrasse 9.00 8.56 99.90
19840 2020-01-09 12:48:37 Terrasse 8.70 8.23 99.90
19839 2020-01-09 12:17:39 Terrasse 8.50 8.01 99.90
19838 2020-01-09 11:46:40 Terrasse 8.30 7.79 99.90
19837 2020-01-09 11:15:44 Terrasse 8.30 7.79 99.90
19836 2020-01-09 10:44:46 Terrasse 7.90 7.35 99.90
19835 2020-01-09 10:13:49 Terrasse 7.70 7.13 99.90
19834 2020-01-09 09:42:53 Terrasse 7.50 6.91 99.90
19833 2020-01-09 09:11:55 Terrasse 7.30 6.69 99.90
19832 2020-01-09 08:40:58 Terrasse 7.10 6.47 99.90
19831 2020-01-09 08:10:03 Terrasse 7.00 6.36 99.90
19830 2020-01-09 07:39:07 Terrasse 6.90 6.25 99.90
19829 2020-01-09 07:08:10 Terrasse 6.80 6.14 99.90
19828 2020-01-09 06:37:13 Terrasse 6.70 6.03 99.90
19827 2020-01-09 06:06:17 Terrasse 6.50 5.81 99.90
19826 2020-01-09 05:35:21 Terrasse 6.50 5.81 99.90
19825 2020-01-09 05:04:24 Terrasse 6.50 5.81 99.90
19824 2020-01-09 04:33:29 Terrasse 6.50 5.81 99.90
19823 2020-01-09 04:02:33 Terrasse 6.60 5.92 99.90
19822 2020-01-09 03:31:39 Terrasse 6.60 5.92 99.90
19821 2020-01-09 03:00:45 Terrasse 6.60 5.92 99.90
19820 2020-01-09 02:29:49 Terrasse 6.60 5.92 99.90
19819 2020-01-09 01:58:53 Terrasse 6.50 5.81 99.90
19818 2020-01-09 01:27:57 Terrasse 6.30 5.59 99.90
19817 2020-01-09 00:57:02 Terrasse 6.30 5.59 99.90
19816 2020-01-09 00:26:07 Terrasse 6.30 5.59 99.90
19815 2020-01-08 23:55:11 Terrasse 6.30 5.59 99.90
19814 2020-01-08 23:24:17 Terrasse 6.20 5.48 99.90
19813 2020-01-08 22:53:20 Terrasse 6.10 5.37 99.90
19812 2020-01-08 22:22:22 Terrasse 5.90 5.15 99.90
19811 2020-01-08 21:51:25 Terrasse 5.70 4.93 99.90
19810 2020-01-08 21:20:29 Terrasse 5.60 4.82 99.90
19809 2020-01-08 20:49:33 Terrasse 5.60 4.82 99.90
19808 2020-01-08 20:18:39 Terrasse 5.50 4.71 99.90
19807 2020-01-08 19:47:43 Terrasse 5.50 4.71 99.90
19806 2020-01-08 19:16:47 Terrasse 5.40 4.60 99.90
19805 2020-01-08 18:45:52 Terrasse 5.10 4.27 99.90
19804 2020-01-08 18:14:57 Terrasse 5.00 4.16 99.90
19803 2020-01-08 17:44:07 Terrasse 4.90 4.05 99.90
19802 2020-01-08 17:13:09 Terrasse 4.80 3.94 99.90
19801 2020-01-08 16:42:14 Terrasse 4.70 3.83 99.90
19800 2020-01-08 16:11:19 Terrasse 4.70 3.83 99.90
19799 2020-01-08 15:40:24 Terrasse 4.60 3.72 99.90
19798 2020-01-08 15:09:28 Terrasse 4.50 3.61 99.90
19797 2020-01-08 14:38:33 Terrasse 4.50 3.61 99.90
19796 2020-01-08 14:07:38 Terrasse 4.40 3.50 99.90
19795 2020-01-08 13:36:43 Terrasse 4.30 3.39 99.90
19794 2020-01-08 13:05:49 Terrasse 4.40 3.50 99.90
19793 2020-01-08 12:34:54 Terrasse 4.40 3.50 99.90
19792 2020-01-08 12:03:57 Terrasse 4.20 3.28 99.90
19791 2020-01-08 11:33:01 Terrasse 3.80 2.84 99.90
19790 2020-01-08 11:02:05 Terrasse 3.50 2.51 99.90
19789 2020-01-08 10:31:10 Terrasse 3.30 2.29 99.90
19788 2020-01-08 10:00:13 Terrasse 3.20 2.18 99.90
19787 2020-01-08 09:29:18 Terrasse 3.10 2.07 99.90
19786 2020-01-08 08:58:26 Terrasse 3.00 1.96 99.90
19785 2020-01-08 08:27:32 Terrasse 3.20 2.18 99.90
19784 2020-01-08 07:56:37 Terrasse 3.20 2.18 99.90
19783 2020-01-08 07:25:43 Terrasse 3.10 2.07 99.90
19782 2020-01-08 06:54:48 Terrasse 3.00 1.96 99.90
19781 2020-01-08 06:23:53 Terrasse 2.90 1.85 99.90
19780 2020-01-08 05:52:58 Terrasse 2.80 1.74 99.90
19779 2020-01-08 05:22:04 Terrasse 2.80 1.74 99.90
19778 2020-01-08 04:51:10 Terrasse 2.80 1.74 99.90
19777 2020-01-08 04:20:15 Terrasse 3.00 1.96 99.90
19776 2020-01-08 03:49:21 Terrasse 3.10 2.07 99.90
19775 2020-01-08 03:18:27 Terrasse 3.10 2.07 99.90
19774 2020-01-08 02:47:33 Terrasse 3.40 2.40 99.90
19773 2020-01-08 02:16:38 Terrasse 3.40 2.40 99.90
19772 2020-01-08 01:45:43 Terrasse 3.40 2.40 99.90
19771 2020-01-08 01:14:48 Terrasse 3.40 2.40 99.90
19770 2020-01-08 00:43:53 Terrasse 3.40 2.40 99.90
19769 2020-01-08 00:12:58 Terrasse 3.30 2.29 99.90
19768 2020-01-07 23:42:03 Terrasse 3.20 2.18 99.90
19767 2020-01-07 23:11:09 Terrasse 3.00 1.96 99.90
19766 2020-01-07 22:40:15 Terrasse 3.00 1.96 99.90
19765 2020-01-07 22:09:21 Terrasse 3.00 1.96 99.90
19764 2020-01-07 21:38:28 Terrasse 3.30 2.29 99.90
19763 2020-01-07 21:07:32 Terrasse 3.00 1.96 99.90
19762 2020-01-07 20:36:38 Terrasse 3.00 1.96 99.90
19761 2020-01-07 20:05:46 Terrasse 3.10 2.07 99.90
19760 2020-01-07 19:34:55 Terrasse 3.40 2.40 99.90
19759 2020-01-07 19:04:00 Terrasse 3.50 2.51 99.90
19758 2020-01-07 18:33:09 Terrasse 4.20 3.28 99.90
19757 2020-01-07 18:02:16 Terrasse 4.90 4.05 99.90
19756 2020-01-07 17:31:24 Terrasse 5.20 4.38 99.90
19755 2020-01-07 17:00:31 Terrasse 5.40 4.60 99.90
19754 2020-01-07 16:29:39 Terrasse 5.70 4.93 99.90
19753 2020-01-07 15:58:46 Terrasse 6.10 5.37 99.90
19752 2020-01-07 15:27:59 Terrasse 6.90 6.25 99.90
19751 2020-01-07 14:57:11 Terrasse 7.60 7.02 99.90
19750 2020-01-07 14:26:10 Terrasse 6.60 5.92 99.90
19749 2020-01-07 13:55:12 Terrasse 6.40 5.70 99.90
19748 2020-01-07 13:24:20 Terrasse 6.50 5.81 99.90
19747 2020-01-07 12:53:18 Terrasse 6.00 5.26 99.90
19746 2020-01-07 12:22:16 Terrasse 5.60 4.82 99.90
19745 2020-01-07 11:51:31 Terrasse 6.40 5.70 99.90
19744 2020-01-07 11:20:42 Terrasse 6.40 5.70 99.90
19743 2020-01-07 10:49:23 Terrasse 4.70 3.83 99.90
19742 2020-01-07 10:18:17 Terrasse 2.70 1.63 99.90
19741 2020-01-07 09:47:18 Terrasse 2.20 1.08 99.90
19740 2020-01-07 09:16:22 Terrasse 1.50 0.31 99.90
19739 2020-01-07 08:45:27 Terrasse 1.40 0.20 99.90
19738 2020-01-07 08:14:29 Terrasse 1.10 -0.13 99.90
19737 2020-01-07 07:43:36 Terrasse 0.90 -0.35 99.90
19736 2020-01-07 07:12:42 Terrasse 0.80 -0.46 99.90
19735 2020-01-07 06:41:51 Terrasse 0.80 -0.46 99.90
19734 2020-01-07 06:10:55 Terrasse 0.60 -0.68 99.90
19733 2020-01-07 05:40:02 Terrasse 0.40 -0.90 99.90
19732 2020-01-07 05:09:08 Terrasse 0.30 -1.01 99.90
19731 2020-01-07 04:38:14 Terrasse 0.20 -1.12 99.90
19730 2020-01-07 04:07:20 Terrasse 0.20 -1.12 99.90
19729 2020-01-07 03:36:28 Terrasse 0.10 -1.23 99.90
19728 2020-01-07 03:05:33 Terrasse 0.10 -1.23 99.90
19727 2020-01-07 02:34:41 Terrasse 0.10 -1.23 99.90
19726 2020-01-07 02:03:47 Terrasse 0.00 -1.34 99.90
19725 2020-01-07 01:32:53 Terrasse -0.10 -1.45 99.90
19724 2020-01-07 01:02:00 Terrasse -0.20 -1.56 99.90
19723 2020-01-07 00:31:07 Terrasse -0.10 -1.45 99.90
19722 2020-01-07 00:00:14 Terrasse -0.10 -1.45 99.90
19721 2020-01-06 23:29:22 Terrasse -0.10 -1.45 99.90
19720 2020-01-06 22:58:31 Terrasse -0.20 -1.56 99.90
19719 2020-01-06 22:27:38 Terrasse -0.20 -1.56 99.90
19718 2020-01-06 21:56:45 Terrasse -0.10 -1.45 99.90
19717 2020-01-06 21:25:55 Terrasse 0.00 -1.34 99.90
19716 2020-01-06 20:55:03 Terrasse 0.20 -1.12 99.90
19715 2020-01-06 20:24:11 Terrasse 0.40 -0.90 99.90
19714 2020-01-06 19:53:20 Terrasse 0.50 -0.79 99.90
19713 2020-01-06 19:22:28 Terrasse 0.70 -0.57 99.90
19712 2020-01-06 18:51:37 Terrasse 1.00 -0.24 99.90
19711 2020-01-06 18:20:45 Terrasse 1.20 -0.02 99.90
19710 2020-01-06 17:49:52 Terrasse 1.20 -0.02 99.90
19709 2020-01-06 17:19:00 Terrasse 1.40 0.20 99.90
19708 2020-01-06 16:48:10 Terrasse 1.70 0.53 99.90
19707 2020-01-06 16:17:17 Terrasse 2.00 0.86 99.90
19706 2020-01-06 15:46:27 Terrasse 2.40 1.30 99.90
19705 2020-01-06 15:15:35 Terrasse 2.60 1.52 99.90
19704 2020-01-06 14:44:42 Terrasse 2.90 1.85 99.90
19703 2020-01-06 14:13:50 Terrasse 3.00 1.96 99.90
19702 2020-01-06 13:42:55 Terrasse 3.00 1.96 99.90
19701 2020-01-06 13:12:02 Terrasse 2.90 1.85 99.90
19700 2020-01-06 12:41:07 Terrasse 2.90 1.85 99.90
19699 2020-01-06 12:10:13 Terrasse 2.80 1.74 99.90
19698 2020-01-06 11:39:20 Terrasse 2.80 1.74 99.90
19697 2020-01-06 11:08:30 Terrasse 2.90 1.85 99.90
19696 2020-01-06 10:37:34 Terrasse 2.90 1.85 99.90
19695 2020-01-06 10:06:32 Terrasse 2.00 0.86 99.90
19694 2020-01-06 09:35:32 Terrasse 0.90 -0.35 99.90
19693 2020-01-06 09:04:37 Terrasse 0.60 -0.68 99.90
19692 2020-01-06 08:33:46 Terrasse 0.90 -0.35 99.90
19691 2020-01-06 08:02:53 Terrasse 1.10 -0.13 99.90
19690 2020-01-06 07:31:59 Terrasse 0.90 -0.35 99.90
19689 2020-01-06 07:01:06 Terrasse 1.00 -0.24 99.90
19688 2020-01-06 06:30:14 Terrasse 1.10 -0.13 99.90
19687 2020-01-06 05:59:23 Terrasse 1.20 -0.02 99.90
19686 2020-01-06 05:28:33 Terrasse 1.40 0.20 99.90
19685 2020-01-06 04:57:44 Terrasse 1.70 0.53 99.90
19684 2020-01-06 04:26:54 Terrasse 2.10 0.97 99.90
19683 2020-01-06 03:56:05 Terrasse 2.70 1.63 99.90
19682 2020-01-06 03:25:15 Terrasse 3.10 2.07 99.90
19681 2020-01-06 02:54:25 Terrasse 3.40 2.40 99.90
19680 2020-01-06 02:23:34 Terrasse 3.90 2.95 99.90
19679 2020-01-06 01:52:41 Terrasse 4.00 3.06 99.90
19678 2020-01-06 01:21:47 Terrasse 4.10 3.17 99.90
19677 2020-01-06 00:50:54 Terrasse 4.20 3.28 99.90
19676 2020-01-06 00:20:01 Terrasse 4.30 3.39 99.90
19675 2020-01-05 23:49:10 Terrasse 4.30 3.39 99.90
19674 2020-01-05 23:18:16 Terrasse 4.30 3.39 99.90
19673 2020-01-05 22:47:22 Terrasse 4.40 3.50 99.90
19672 2020-01-05 22:16:28 Terrasse 4.50 3.61 99.90
19671 2020-01-05 21:45:37 Terrasse 4.50 3.61 99.90
19670 2020-01-05 21:14:43 Terrasse 4.50 3.61 99.90
19669 2020-01-05 20:43:50 Terrasse 4.50 3.61 99.90
19668 2020-01-05 20:12:57 Terrasse 4.60 3.72 99.90
19667 2020-01-05 19:42:15 Terrasse 4.60 3.72 99.90
19666 2020-01-05 19:11:18 Terrasse 4.60 3.72 99.90
19665 2020-01-05 18:40:25 Terrasse 4.70 3.83 99.90
19664 2020-01-05 18:09:32 Terrasse 4.80 3.94 99.90
19663 2020-01-05 17:38:37 Terrasse 4.90 4.05 99.90
19662 2020-01-05 17:07:44 Terrasse 4.90 4.05 99.90
19661 2020-01-05 16:36:52 Terrasse 5.10 4.27 99.90
19660 2020-01-05 16:05:57 Terrasse 5.40 4.60 99.90
19659 2020-01-05 15:35:05 Terrasse 5.60 4.82 99.90
19658 2020-01-05 15:04:10 Terrasse 5.60 4.82 99.90
19657 2020-01-05 14:33:15 Terrasse 5.50 4.71 99.90
19656 2020-01-05 14:02:21 Terrasse 5.40 4.60 99.90
19655 2020-01-05 13:31:35 Terrasse 5.30 4.49 99.90
19654 2020-01-05 13:00:38 Terrasse 5.40 4.60 99.90
19653 2020-01-05 12:29:42 Terrasse 5.20 4.38 99.90
19652 2020-01-05 11:58:47 Terrasse 5.10 4.27 99.90
19651 2020-01-05 11:27:53 Terrasse 5.00 4.16 99.90
19650 2020-01-05 10:56:57 Terrasse 4.80 3.94 99.90
19649 2020-01-05 10:26:01 Terrasse 4.60 3.72 99.90
19648 2020-01-05 09:55:06 Terrasse 4.50 3.61 99.90
19647 2020-01-05 09:24:11 Terrasse 4.40 3.50 99.90
19646 2020-01-05 08:53:17 Terrasse 4.40 3.50 99.90
19645 2020-01-05 08:22:23 Terrasse 4.30 3.39 99.90
19644 2020-01-05 07:51:29 Terrasse 4.30 3.39 99.90
19643 2020-01-05 07:20:36 Terrasse 4.40 3.50 99.90
19642 2020-01-05 06:49:41 Terrasse 4.40 3.50 99.90
19641 2020-01-05 06:18:49 Terrasse 4.60 3.72 99.90
19640 2020-01-05 05:47:55 Terrasse 4.50 3.61 99.90
19639 2020-01-05 05:17:03 Terrasse 4.60 3.72 99.90
19638 2020-01-05 04:46:11 Terrasse 4.70 3.83 99.90
19637 2020-01-05 04:15:16 Terrasse 4.70 3.83 99.90
19636 2020-01-05 03:44:24 Terrasse 4.70 3.83 99.90
19635 2020-01-05 03:13:32 Terrasse 4.70 3.83 99.90
19634 2020-01-05 02:42:39 Terrasse 4.60 3.72 99.90
19633 2020-01-05 02:11:45 Terrasse 4.60 3.72 99.90
19632 2020-01-05 01:40:52 Terrasse 4.50 3.61 99.90
19631 2020-01-05 01:09:58 Terrasse 4.50 3.61 99.90
19630 2020-01-05 00:39:06 Terrasse 4.40 3.50 99.90
19629 2020-01-05 00:08:12 Terrasse 4.40 3.50 99.90
19628 2020-01-04 23:37:18 Terrasse 4.30 3.39 99.90
19627 2020-01-04 23:06:25 Terrasse 4.30 3.39 99.90
19626 2020-01-04 22:35:32 Terrasse 4.30 3.39 99.90
19625 2020-01-04 22:04:37 Terrasse 4.30 3.39 99.90
19624 2020-01-04 21:33:44 Terrasse 4.30 3.39 99.90
19623 2020-01-04 21:02:52 Terrasse 4.30 3.39 99.90
19622 2020-01-04 20:31:59 Terrasse 4.40 3.50 99.90
19621 2020-01-04 20:01:07 Terrasse 4.40 3.50 99.90
19620 2020-01-04 19:30:15 Terrasse 4.40 3.50 99.90
19619 2020-01-04 18:59:20 Terrasse 4.50 3.61 99.90
19618 2020-01-04 18:28:27 Terrasse 4.50 3.61 99.90
19617 2020-01-04 17:57:33 Terrasse 4.70 3.83 99.90
19616 2020-01-04 17:26:37 Terrasse 4.50 3.61 99.90
19615 2020-01-04 16:55:44 Terrasse 4.60 3.72 99.90
19614 2020-01-04 16:24:51 Terrasse 4.60 3.72 99.90
19613 2020-01-04 15:53:58 Terrasse 4.80 3.94 99.90
19612 2020-01-04 15:23:06 Terrasse 5.00 4.16 99.90
19611 2020-01-04 14:52:12 Terrasse 5.20 4.38 99.90
19610 2020-01-04 14:21:18 Terrasse 5.30 4.49 99.90
19609 2020-01-04 13:50:24 Terrasse 5.40 4.60 99.90
19608 2020-01-04 13:19:28 Terrasse 5.10 4.27 99.90
19607 2020-01-04 12:48:33 Terrasse 4.90 4.05 99.90
19606 2020-01-04 12:17:36 Terrasse 4.40 3.50 99.90
19605 2020-01-04 11:46:42 Terrasse 4.20 3.28 99.90
19604 2020-01-04 11:15:48 Terrasse 4.00 3.06 99.90
19603 2020-01-04 10:44:52 Terrasse 3.70 2.73 99.90
19602 2020-01-04 10:13:57 Terrasse 3.50 2.51 99.90
19601 2020-01-04 09:43:03 Terrasse 3.40 2.40 99.90
19600 2020-01-04 09:12:11 Terrasse 3.10 2.07 99.90
19599 2020-01-04 08:41:16 Terrasse 2.90 1.85 99.90
19598 2020-01-04 08:10:31 Terrasse 2.90 1.85 99.90
19597 2020-01-04 07:39:38 Terrasse 3.00 1.96 99.90
19596 2020-01-04 07:08:46 Terrasse 3.20 2.18 99.90
19595 2020-01-04 06:37:54 Terrasse 3.40 2.40 99.90
19594 2020-01-04 06:07:02 Terrasse 3.40 2.40 99.90
19593 2020-01-04 05:36:10 Terrasse 3.40 2.40 99.90
19592 2020-01-04 05:05:19 Terrasse 3.50 2.51 99.90
19591 2020-01-04 04:34:29 Terrasse 3.60 2.62 99.90
19590 2020-01-04 04:03:37 Terrasse 3.80 2.84 99.90
19589 2020-01-04 03:32:44 Terrasse 4.00 3.06 99.90
19588 2020-01-04 03:01:52 Terrasse 4.10 3.17 99.90
19587 2020-01-04 02:30:59 Terrasse 4.10 3.17 99.90
19586 2020-01-04 02:00:08 Terrasse 4.10 3.17 99.90
19585 2020-01-04 01:29:17 Terrasse 4.10 3.17 99.90
19584 2020-01-04 00:58:32 Terrasse 4.50 3.61 99.90
19583 2020-01-04 00:27:42 Terrasse 5.00 4.16 99.90
19582 2020-01-03 23:26:12 Terrasse 6.20 5.48 99.90
19581 2020-01-03 22:55:21 Terrasse 6.70 6.03 99.90
19580 2020-01-03 22:24:34 Terrasse 6.70 6.03 99.90
19579 2020-01-03 21:53:39 Terrasse 6.70 6.03 99.90
19578 2020-01-03 21:22:45 Terrasse 6.60 5.92 99.90
19577 2020-01-03 20:51:53 Terrasse 6.50 5.81 99.90
19576 2020-01-03 20:20:58 Terrasse 6.40 5.70 99.90
19575 2020-01-03 19:50:03 Terrasse 6.30 5.59 99.90
19574 2020-01-03 19:19:10 Terrasse 6.20 5.48 99.90
19573 2020-01-03 18:48:17 Terrasse 6.10 5.37 99.90
19572 2020-01-03 18:17:24 Terrasse 5.90 5.15 99.90
19571 2020-01-03 17:46:40 Terrasse 5.80 5.04 99.90
19570 2020-01-03 17:15:42 Terrasse 5.70 4.93 99.90
19569 2020-01-03 16:44:50 Terrasse 5.60 4.82 99.90
19568 2020-01-03 16:13:58 Terrasse 5.70 4.93 99.90
19567 2020-01-03 15:43:06 Terrasse 5.60 4.82 99.90
19566 2020-01-03 15:12:12 Terrasse 5.50 4.71 99.90
19565 2020-01-03 14:41:18 Terrasse 5.40 4.60 99.90
19564 2020-01-03 14:10:25 Terrasse 5.20 4.38 99.90
19563 2020-01-03 13:39:25 Terrasse 4.30 3.39 99.90
19562 2020-01-03 13:08:32 Terrasse 4.00 3.06 99.90
19561 2020-01-03 12:37:38 Terrasse 3.90 2.95 99.90
19560 2020-01-03 12:06:44 Terrasse 3.60 2.62 99.90
19559 2020-01-03 11:35:50 Terrasse 3.40 2.40 99.90
19558 2020-01-03 11:04:57 Terrasse 3.40 2.40 99.90
19557 2020-01-03 10:34:07 Terrasse 3.40 2.40 99.90
19556 2020-01-03 10:03:12 Terrasse 2.90 1.85 99.90
19555 2020-01-03 09:32:18 Terrasse 2.50 1.41 99.90
19554 2020-01-03 09:01:26 Terrasse 2.20 1.08 99.90
19553 2020-01-03 08:30:33 Terrasse 2.10 0.97 99.90
19552 2020-01-03 07:59:40 Terrasse 1.80 0.64 99.90
19551 2020-01-03 07:28:46 Terrasse 1.70 0.53 99.90
19550 2020-01-03 06:57:54 Terrasse 1.30 0.09 99.90
19549 2020-01-03 06:27:01 Terrasse 1.40 0.20 99.90
19548 2020-01-03 05:56:09 Terrasse 1.30 0.09 99.90
19547 2020-01-03 05:25:15 Terrasse 1.10 -0.13 99.90
19546 2020-01-03 04:54:22 Terrasse 1.00 -0.24 99.90
19545 2020-01-03 04:23:30 Terrasse 0.80 -0.46 99.90
19544 2020-01-03 03:52:41 Terrasse 0.90 -0.35 99.90
19543 2020-01-03 03:21:49 Terrasse 0.80 -0.46 99.90
19542 2020-01-03 02:50:58 Terrasse 0.90 -0.35 99.90
19541 2020-01-03 02:20:05 Terrasse 0.90 -0.35 99.90
19540 2020-01-03 01:49:14 Terrasse 0.80 -0.46 99.90
19539 2020-01-03 01:18:22 Terrasse 0.80 -0.46 99.90
19538 2020-01-03 00:47:31 Terrasse 0.80 -0.46 99.90
19537 2020-01-03 00:16:41 Terrasse 0.90 -0.35 99.90
19536 2020-01-02 23:45:49 Terrasse 0.90 -0.35 99.90
19535 2020-01-02 23:14:59 Terrasse 0.80 -0.46 99.90
19534 2020-01-02 22:44:06 Terrasse 0.70 -0.57 99.90
19533 2020-01-02 22:13:14 Terrasse 0.80 -0.46 99.90
19532 2020-01-02 21:42:23 Terrasse 0.70 -0.57 99.90
19531 2020-01-02 21:11:32 Terrasse 0.60 -0.68 99.90
19530 2020-01-02 20:40:41 Terrasse 0.60 -0.68 99.90
19529 2020-01-02 20:09:54 Terrasse 0.50 -0.79 99.90
19528 2020-01-02 19:39:02 Terrasse 0.50 -0.79 99.90
19527 2020-01-02 19:08:10 Terrasse 0.40 -0.90 99.90
19526 2020-01-02 18:37:17 Terrasse 0.30 -1.01 99.90
19525 2020-01-02 18:06:25 Terrasse 0.30 -1.01 99.90
19524 2020-01-02 17:35:33 Terrasse 0.30 -1.01 99.90
19523 2020-01-02 17:04:41 Terrasse 0.40 -0.90 99.90
19522 2020-01-02 16:33:51 Terrasse 0.40 -0.90 99.90
19521 2020-01-02 16:02:59 Terrasse 0.40 -0.90 99.90
19520 2020-01-02 15:32:09 Terrasse 0.50 -0.79 99.90
19519 2020-01-02 15:01:16 Terrasse 0.40 -0.90 99.90
19518 2020-01-02 14:30:24 Terrasse 0.30 -1.01 99.90
19517 2020-01-02 13:59:33 Terrasse 0.10 -1.23 99.90
19516 2020-01-02 13:28:43 Terrasse 0.10 -1.23 99.90
19515 2020-01-02 12:57:51 Terrasse 0.00 -1.34 99.90
19514 2020-01-02 12:26:57 Terrasse -0.30 -1.67 99.90
19513 2020-01-02 11:56:04 Terrasse -0.50 -1.89 99.90
19512 2020-01-02 11:25:13 Terrasse -0.60 -2.00 99.90
19511 2020-01-02 10:54:21 Terrasse -0.70 -2.11 99.90
19510 2020-01-02 10:23:29 Terrasse -0.70 -2.11 99.90
19509 2020-01-02 09:52:37 Terrasse -0.80 -2.22 99.90
19508 2020-01-02 09:21:45 Terrasse -1.10 -2.55 99.90
19507 2020-01-02 08:50:54 Terrasse -1.30 -2.77 99.90
19506 2020-01-02 08:20:02 Terrasse -1.50 -2.99 99.90
19505 2020-01-02 07:49:13 Terrasse -1.50 -2.99 99.90
19504 2020-01-02 07:18:21 Terrasse -1.60 -3.10 99.90
19503 2020-01-02 06:47:30 Terrasse -1.60 -3.10 99.90
19502 2020-01-02 06:16:40 Terrasse -1.50 -2.99 99.90
19501 2020-01-02 05:45:49 Terrasse -1.50 -2.99 99.90
19500 2020-01-02 05:14:57 Terrasse -1.70 -3.21 99.90
19499 2020-01-02 04:44:07 Terrasse -1.60 -3.10 99.90
19498 2020-01-02 04:13:17 Terrasse -1.60 -3.10 99.90
19497 2020-01-02 03:42:26 Terrasse -1.60 -3.10 99.90
19496 2020-01-02 03:11:37 Terrasse -1.30 -2.77 99.90
19495 2020-01-02 02:40:49 Terrasse -1.00 -2.44 99.90
19494 2020-01-02 02:09:59 Terrasse -0.90 -2.33 99.90
19493 2020-01-02 01:39:09 Terrasse -0.60 -2.00 99.90
19492 2020-01-02 01:08:19 Terrasse -0.50 -1.89 99.90
19491 2020-01-02 00:37:29 Terrasse -0.30 -1.67 99.90
19490 2020-01-02 00:06:41 Terrasse -0.20 -1.56 99.90
19489 2020-01-01 23:35:52 Terrasse 0.10 -1.23 99.90
19488 2020-01-01 23:05:03 Terrasse 0.30 -1.01 99.90
19487 2020-01-01 22:34:14 Terrasse 0.60 -0.68 99.90
19486 2020-01-01 22:03:24 Terrasse 0.80 -0.46 99.90
19485 2020-01-01 21:32:34 Terrasse 0.90 -0.35 99.90
19484 2020-01-01 21:01:44 Terrasse 1.10 -0.13 99.90
19483 2020-01-01 20:30:55 Terrasse 1.10 -0.13 99.90
19482 2020-01-01 20:00:05 Terrasse 1.40 0.20 99.90
19481 2020-01-01 19:29:16 Terrasse 1.40 0.20 99.90
19480 2020-01-01 18:58:29 Terrasse 1.70 0.53 99.90
19479 2020-01-01 18:27:40 Terrasse 2.00 0.86 99.90
19478 2020-01-01 17:56:55 Terrasse 2.50 1.41 99.90
19477 2020-01-01 17:26:09 Terrasse 3.10 2.07 99.90
19476 2020-01-01 16:55:24 Terrasse 4.10 2.95 91.40
19475 2020-01-01 16:24:40 Terrasse 5.30 3.67 68.50
19474 2020-01-01 15:54:03 Terrasse 7.30 5.69 61.60
19473 2020-01-01 15:23:29 Terrasse 9.50 8.04 58.80
19472 2020-01-01 14:52:57 Terrasse 12.10 10.81 55.50
19471 2020-01-01 14:22:09 Terrasse 12.90 11.72 56.60
19470 2020-01-01 13:51:17 Terrasse 12.70 11.53 57.70
19469 2020-01-01 13:20:21 Terrasse 12.50 11.34 58.70
19468 2020-01-01 12:49:21 Terrasse 11.30 10.11 62.30
19467 2020-01-01 12:18:19 Terrasse 10.20 9.03 67.30
19466 2020-01-01 11:47:15 Terrasse 8.60 7.57 78.50
19465 2020-01-01 11:15:58 Terrasse 6.20 5.48 99.90
19464 2020-01-01 10:44:36 Terrasse 3.60 2.62 99.90
19463 2020-01-01 10:13:36 Terrasse 2.20 1.08 99.90
19462 2020-01-01 09:42:40 Terrasse 1.20 -0.02 99.90
19461 2020-01-01 09:11:49 Terrasse 0.80 -0.46 99.90
19460 2020-01-01 08:40:57 Terrasse 0.60 -0.68 99.90
19459 2020-01-01 08:10:10 Terrasse 1.00 -0.24 99.90
19458 2020-01-01 07:39:20 Terrasse 1.20 -0.02 99.90
19457 2020-01-01 07:08:30 Terrasse 1.20 -0.02 99.90
19456 2020-01-01 06:37:38 Terrasse 1.00 -0.24 99.90
19455 2020-01-01 06:06:46 Terrasse 0.90 -0.35 99.90
19454 2020-01-01 05:35:55 Terrasse 0.60 -0.68 99.90
19453 2020-01-01 05:05:03 Terrasse 0.30 -1.01 99.90
19452 2020-01-01 04:34:12 Terrasse 0.30 -1.01 99.90
19451 2020-01-01 04:03:22 Terrasse 0.30 -1.01 99.90
19450 2020-01-01 03:32:33 Terrasse 0.30 -1.01 99.90
19449 2020-01-01 03:01:42 Terrasse 0.10 -1.23 99.90
19448 2020-01-01 02:30:49 Terrasse -0.50 -1.89 99.90
19447 2020-01-01 02:00:01 Terrasse -0.40 -1.78 99.90
19446 2020-01-01 01:29:14 Terrasse -0.10 -1.45 99.90
19445 2020-01-01 00:58:26 Terrasse 0.10 -1.23 99.90
19444 2020-01-01 00:27:37 Terrasse 0.30 -1.01 99.90
19443 2019-12-31 23:56:52 Terrasse 0.90 -0.35 99.90
19442 2019-12-31 23:26:04 Terrasse 1.50 0.31 99.90
19441 2019-12-31 22:55:16 Terrasse 1.60 0.42 99.90
19440 2019-12-31 22:24:27 Terrasse 1.80 0.64 99.90
19439 2019-12-31 21:53:39 Terrasse 2.00 0.86 99.90
19438 2019-12-31 21:22:49 Terrasse 2.10 0.97 99.90
19437 2019-12-31 20:51:59 Terrasse 2.20 1.08 99.90
19436 2019-12-31 20:21:14 Terrasse 2.80 1.74 99.90
19435 2019-12-31 19:16:48 Terrasse 2.80 1.74 99.90
19434 2019-12-31 18:45:43 Terrasse 3.10 2.07 99.90
19433 2019-12-31 18:15:00 Terrasse 3.20 2.18 99.90
19432 2019-12-31 17:44:34 Terrasse 4.90 3.34 72.60
19431 2019-12-31 11:47:49 Terrasse 1.90 0.75 99.90
19430 2019-12-31 11:19:30 Terrasse 1.50 0.31 99.90
19429 2019-12-31 09:54:54 Terrasse 0.20 -1.12 99.90
19428 2019-12-31 09:26:37 Terrasse -0.30 -1.67 99.90
19427 2019-12-31 08:58:19 Terrasse -0.70 -2.11 99.90
19426 2019-12-31 08:30:15 Terrasse -0.80 -2.22 99.90
19425 2019-12-31 08:01:57 Terrasse -0.70 -2.11 99.90
19424 2019-12-31 07:33:49 Terrasse -0.70 -2.11 99.90
19423 2019-12-31 07:05:39 Terrasse -0.60 -2.00 99.90
19422 2019-12-31 06:37:22 Terrasse -0.80 -2.22 99.90
19421 2019-12-31 06:09:20 Terrasse -0.70 -2.11 99.90
19420 2019-12-31 05:41:02 Terrasse -0.50 -1.89 99.90
19419 2019-12-31 05:12:48 Terrasse -0.40 -1.78 99.90
19418 2019-12-31 04:44:33 Terrasse -0.20 -1.56 99.90
19417 2019-12-31 04:16:18 Terrasse -0.20 -1.56 99.90
19416 2019-12-31 03:48:05 Terrasse -0.20 -1.56 99.90
19415 2019-12-31 03:19:52 Terrasse 0.10 -1.23 99.90
19414 2019-12-31 02:51:37 Terrasse 0.40 -0.90 99.90
19413 2019-12-31 02:23:23 Terrasse 0.30 -1.01 99.90
19412 2019-12-31 01:55:08 Terrasse 0.30 -1.01 99.90
19411 2019-12-31 01:26:55 Terrasse 0.30 -1.01 99.90
19410 2019-12-31 00:58:42 Terrasse 0.30 -1.01 99.90
19409 2019-12-31 00:30:28 Terrasse 0.50 -0.79 99.90
19408 2019-12-31 00:02:15 Terrasse 0.70 -0.57 99.90
19407 2019-12-30 23:34:01 Terrasse 0.90 -0.35 99.90
19406 2019-12-30 23:05:47 Terrasse 1.00 -0.24 99.90
19405 2019-12-30 22:37:33 Terrasse 1.10 -0.13 99.90
19404 2019-12-30 22:09:18 Terrasse 1.20 -0.02 99.90
19403 2019-12-30 21:41:03 Terrasse 1.20 -0.02 99.90
19402 2019-12-30 21:12:49 Terrasse 1.40 0.20 99.90
19401 2019-12-30 20:44:37 Terrasse 1.70 0.53 99.90
19400 2019-12-30 20:16:24 Terrasse 1.80 0.64 99.90
19399 2019-12-30 19:48:28 Terrasse 2.10 0.97 99.90
19398 2019-12-30 17:56:47 Terrasse 3.20 2.18 99.90
19397 2019-12-30 15:36:20 Terrasse 6.50 4.62 54.20
19396 2019-12-30 15:08:03 Terrasse 6.20 4.36 57.00
19395 2019-12-30 14:39:50 Terrasse 6.80 5.06 58.20
19394 2019-12-30 14:11:29 Terrasse 5.80 4.14 65.20
19393 2019-12-30 13:43:09 Terrasse 4.90 3.38 74.10
19392 2019-12-30 13:14:52 Terrasse 4.80 3.21 71.60
19391 2019-12-30 12:46:35 Terrasse 4.50 3.25 85.90
19390 2019-12-30 12:18:21 Terrasse 4.40 3.26 90.70
19389 2019-12-30 11:50:00 Terrasse 3.60 2.62 99.90
19388 2019-12-30 11:21:30 Terrasse 2.10 0.97 99.90
19387 2019-12-30 10:53:06 Terrasse 1.00 -0.24 99.90
19386 2019-12-30 10:24:48 Terrasse 0.40 -0.90 99.90
19385 2019-12-30 09:56:31 Terrasse 0.00 -1.34 99.90
19384 2019-12-30 09:28:15 Terrasse -0.30 -1.67 99.90
19383 2019-12-30 08:03:47 Terrasse -0.40 -1.78 99.90
19382 2019-12-30 01:02:51 Terrasse 0.70 -0.57 99.90
19381 2019-12-29 23:38:32 Terrasse 0.70 -0.57 99.90
19380 2019-12-29 23:10:14 Terrasse 0.70 -0.57 99.90
19379 2019-12-29 22:42:02 Terrasse 0.80 -0.46 99.90
19378 2019-12-29 22:13:49 Terrasse 0.90 -0.35 99.90
19377 2019-12-29 21:45:34 Terrasse 1.20 -0.02 99.90
19376 2019-12-29 21:17:22 Terrasse 1.20 -0.02 99.90
19375 2019-12-29 20:21:04 Terrasse 1.60 0.42 99.90
19374 2019-12-29 19:52:50 Terrasse 1.80 0.64 99.90
19373 2019-12-29 18:56:32 Terrasse 2.00 0.86 99.90
19372 2019-12-29 18:28:18 Terrasse 2.30 1.19 99.90
19371 2019-12-29 18:00:04 Terrasse 2.50 1.23 92.70
19370 2019-12-29 17:31:48 Terrasse 2.50 1.05 85.90
19369 2019-12-29 17:03:33 Terrasse 2.60 1.17 86.50
19368 2019-12-29 16:35:20 Terrasse 3.00 1.50 82.00
19367 2019-12-29 16:07:07 Terrasse 3.40 1.88 79.70
19366 2019-12-29 15:38:57 Terrasse 4.00 2.42 75.30
19365 2019-12-29 15:10:45 Terrasse 4.60 2.99 71.70
19364 2019-12-29 14:42:32 Terrasse 5.40 3.87 71.80
19363 2019-12-29 14:14:14 Terrasse 4.80 3.53 84.10
19362 2019-12-29 13:45:52 Terrasse 3.90 2.73 91.40
19361 2019-12-29 13:17:34 Terrasse 3.70 2.56 93.30
19360 2019-12-29 12:49:20 Terrasse 3.80 2.40 82.90
19359 2019-12-29 12:21:05 Terrasse 3.70 2.44 88.60
19358 2019-12-29 11:52:50 Terrasse 3.00 1.84 95.10
19357 2019-12-29 10:54:48 Terrasse 1.00 -0.24 99.90
19356 2019-12-29 10:26:31 Terrasse 0.50 -0.79 99.90
19355 2019-12-29 09:58:13 Terrasse 0.20 -1.12 99.90
19354 2019-12-29 09:29:55 Terrasse -0.10 -1.45 99.90
19353 2019-12-29 09:01:38 Terrasse -0.30 -1.67 99.90
19352 2019-12-29 08:33:23 Terrasse -0.40 -1.78 99.90
19351 2019-12-29 08:05:08 Terrasse -0.30 -1.67 99.90
19350 2019-12-29 07:36:53 Terrasse -0.20 -1.56 99.90
19349 2019-12-29 07:08:39 Terrasse -0.20 -1.56 99.90
19348 2019-12-29 06:40:23 Terrasse -0.10 -1.45 99.90
19347 2019-12-29 06:12:08 Terrasse -0.10 -1.45 99.90
19346 2019-12-29 05:43:53 Terrasse 0.00 -1.34 99.90
19345 2019-12-29 05:15:38 Terrasse 0.00 -1.34 99.90
19344 2019-12-29 04:47:23 Terrasse 0.10 -1.23 99.90
19343 2019-12-29 04:19:09 Terrasse 0.20 -1.12 99.90
19342 2019-12-29 03:50:54 Terrasse 0.30 -1.01 99.90
19341 2019-12-29 03:22:40 Terrasse 0.40 -0.90 99.90
19340 2019-12-29 02:54:25 Terrasse 0.50 -0.79 99.90
19339 2019-12-29 02:26:10 Terrasse 0.50 -0.79 99.90
19338 2019-12-29 01:57:55 Terrasse 0.60 -0.68 99.90
19337 2019-12-29 01:29:40 Terrasse 0.70 -0.57 99.90
19336 2019-12-29 01:01:25 Terrasse 0.80 -0.46 99.90
19335 2019-12-29 00:33:11 Terrasse 0.80 -0.46 99.90
19334 2019-12-29 00:04:57 Terrasse 1.00 -0.24 99.90
19333 2019-12-28 23:36:44 Terrasse 1.20 -0.02 99.90
19332 2019-12-28 22:40:29 Terrasse 1.20 -0.02 99.90
19331 2019-12-28 21:44:15 Terrasse 1.20 -0.02 99.90
19330 2019-12-28 21:16:00 Terrasse 1.30 0.09 99.90
19329 2019-12-28 20:47:44 Terrasse 1.30 0.09 99.90
19328 2019-12-28 20:19:54 Terrasse 1.40 0.20 99.90
19327 2019-12-28 19:51:28 Terrasse 1.40 0.20 99.90
19326 2019-12-28 19:23:15 Terrasse 1.50 0.31 99.90
19325 2019-12-28 18:55:02 Terrasse 1.50 0.31 99.90
19324 2019-12-28 18:26:47 Terrasse 1.60 0.42 99.90
19323 2019-12-28 17:58:35 Terrasse 1.70 0.53 99.90
19322 2019-12-28 17:30:21 Terrasse 2.00 0.86 99.90
19321 2019-12-28 17:02:07 Terrasse 2.30 1.19 99.90
19320 2019-12-28 16:33:56 Terrasse 2.90 1.85 99.90
19319 2019-12-28 16:05:46 Terrasse 3.80 2.84 99.90
19318 2019-12-28 15:37:33 Terrasse 4.60 3.64 96.80
19317 2019-12-28 15:09:19 Terrasse 4.50 3.53 96.80
19316 2019-12-28 14:41:06 Terrasse 4.70 3.81 98.80
19315 2019-12-28 14:12:52 Terrasse 5.10 4.17 96.00
19314 2019-12-28 13:44:37 Terrasse 5.30 4.49 99.90
19313 2019-12-28 13:16:22 Terrasse 5.30 4.36 94.70
19312 2019-12-28 12:48:08 Terrasse 5.60 4.78 98.20
19311 2019-12-28 12:20:05 Terrasse 6.10 5.33 98.10
19310 2019-12-28 11:51:49 Terrasse 5.50 4.71 99.90
19309 2019-12-28 11:23:11 Terrasse 3.60 2.62 99.90
19308 2019-12-28 10:54:49 Terrasse 2.50 1.41 99.90
19307 2019-12-28 10:26:29 Terrasse 1.90 0.75 99.90
19306 2019-12-28 09:58:10 Terrasse 1.50 0.31 99.90
19305 2019-12-28 09:29:53 Terrasse 1.10 -0.13 99.90
19304 2019-12-28 09:01:37 Terrasse 0.80 -0.46 99.90
19303 2019-12-28 08:33:22 Terrasse 0.80 -0.46 99.90
19302 2019-12-28 08:05:08 Terrasse 1.10 -0.13 99.90
19301 2019-12-28 07:36:52 Terrasse 1.10 -0.13 99.90
19300 2019-12-28 07:08:37 Terrasse 1.10 -0.13 99.90
19299 2019-12-28 06:40:24 Terrasse 1.30 0.09 99.90
19298 2019-12-28 06:12:09 Terrasse 1.40 0.20 99.90
19297 2019-12-28 05:43:53 Terrasse 1.40 0.20 99.90
19296 2019-12-28 05:15:35 Terrasse 1.20 -0.02 99.90
19295 2019-12-28 04:47:21 Terrasse 1.20 -0.02 99.90
19294 2019-12-28 04:19:07 Terrasse 1.40 0.20 99.90
19293 2019-12-28 03:50:52 Terrasse 1.50 0.31 99.90
19292 2019-12-28 03:22:37 Terrasse 1.50 0.31 99.90
19291 2019-12-28 02:54:21 Terrasse 1.40 0.20 99.90
19290 2019-12-28 02:26:07 Terrasse 1.50 0.31 99.90
19289 2019-12-28 01:57:53 Terrasse 1.60 0.42 99.90
19288 2019-12-28 01:29:39 Terrasse 2.10 0.97 99.90
19287 2019-12-28 01:01:24 Terrasse 2.20 1.08 99.90
19286 2019-12-28 00:33:10 Terrasse 2.20 1.08 99.90
19285 2019-12-28 00:04:54 Terrasse 2.30 1.19 99.90
19284 2019-12-27 23:36:40 Terrasse 2.40 1.30 99.90
19283 2019-12-27 23:08:27 Terrasse 2.50 1.41 99.90
19282 2019-12-27 22:40:14 Terrasse 2.90 1.85 99.90
19281 2019-12-27 22:12:01 Terrasse 3.00 1.96 99.90
19280 2019-12-27 21:43:49 Terrasse 3.30 2.29 99.90
19279 2019-12-27 21:15:34 Terrasse 3.40 2.40 99.90
19278 2019-12-27 20:47:20 Terrasse 3.70 2.73 99.90
19277 2019-12-27 20:19:06 Terrasse 3.90 2.95 99.90
19276 2019-12-27 19:50:51 Terrasse 4.00 3.06 99.90
19275 2019-12-27 19:22:36 Terrasse 4.10 3.17 99.90
19274 2019-12-27 18:54:23 Terrasse 4.50 3.61 99.90
19273 2019-12-27 18:26:07 Terrasse 4.70 3.83 99.90
19272 2019-12-27 17:57:52 Terrasse 4.80 3.94 99.90
19271 2019-12-27 17:29:37 Terrasse 5.00 4.16 99.90
19270 2019-12-27 17:01:22 Terrasse 5.20 4.38 99.90
19269 2019-12-27 16:33:07 Terrasse 5.40 4.60 99.90
19268 2019-12-27 16:04:53 Terrasse 5.50 4.71 99.90
19267 2019-12-27 15:36:36 Terrasse 5.60 4.82 99.90
19266 2019-12-27 15:08:22 Terrasse 5.70 4.93 99.90
19265 2019-12-27 14:40:07 Terrasse 5.90 5.15 99.90
19264 2019-12-27 14:11:53 Terrasse 6.00 5.26 99.90
19263 2019-12-27 13:43:39 Terrasse 6.20 5.48 99.90
19262 2019-12-27 12:47:23 Terrasse 7.10 6.47 99.90
19261 2019-12-27 12:19:08 Terrasse 7.20 6.58 99.90
19260 2019-12-27 11:51:13 Terrasse 8.00 7.46 99.90
19259 2019-12-27 11:22:52 Terrasse 6.00 5.26 99.90
19258 2019-12-27 10:54:47 Terrasse 5.50 4.71 99.90
19257 2019-12-27 10:26:54 Terrasse 5.00 4.16 99.90
19256 2019-12-27 09:58:35 Terrasse 4.90 4.05 99.90
19255 2019-12-27 09:30:15 Terrasse 4.70 3.83 99.90
19254 2019-12-27 09:02:01 Terrasse 4.60 3.72 99.90
19253 2019-12-27 08:34:35 Terrasse 4.60 3.72 99.90
19252 2019-12-27 08:05:48 Terrasse 4.50 3.61 99.90
19251 2019-12-27 07:37:39 Terrasse 4.60 3.72 99.90
19250 2019-12-27 07:09:20 Terrasse 4.50 3.61 99.90
19249 2019-12-27 06:41:06 Terrasse 4.50 3.61 99.90
19248 2019-12-27 06:12:51 Terrasse 4.50 3.61 99.90
19247 2019-12-27 05:44:36 Terrasse 4.40 3.50 99.90
19246 2019-12-27 05:16:20 Terrasse 4.40 3.50 99.90
19245 2019-12-27 04:48:04 Terrasse 4.40 3.50 99.90
19244 2019-12-27 04:19:48 Terrasse 4.30 3.39 99.90
19243 2019-12-27 03:51:32 Terrasse 4.20 3.28 99.90
19242 2019-12-27 03:23:16 Terrasse 4.30 3.39 99.90
19241 2019-12-27 02:54:59 Terrasse 4.30 3.39 99.90
19240 2019-12-27 02:26:43 Terrasse 4.30 3.39 99.90
19239 2019-12-27 01:58:27 Terrasse 4.20 3.28 99.90
19238 2019-12-27 01:30:11 Terrasse 4.30 3.39 99.90
19237 2019-12-27 01:01:56 Terrasse 4.40 3.50 99.90
19236 2019-12-27 00:33:41 Terrasse 4.50 3.61 99.90
19235 2019-12-27 00:05:25 Terrasse 4.60 3.72 99.90
19234 2019-12-26 23:37:09 Terrasse 4.60 3.72 99.90
19233 2019-12-26 23:08:55 Terrasse 4.60 3.72 99.90
19232 2019-12-26 22:40:39 Terrasse 4.70 3.83 99.90
19231 2019-12-26 22:12:25 Terrasse 4.70 3.83 99.90
19230 2019-12-26 21:44:10 Terrasse 4.80 3.94 99.90
19229 2019-12-26 21:15:55 Terrasse 4.80 3.94 99.90
19228 2019-12-26 20:47:39 Terrasse 5.00 4.16 99.90
19227 2019-12-26 20:19:24 Terrasse 5.10 4.27 99.90
19226 2019-12-26 19:51:08 Terrasse 5.10 4.27 99.90
19225 2019-12-26 19:22:55 Terrasse 5.30 4.49 99.90
19224 2019-12-26 18:54:39 Terrasse 5.30 4.49 99.90
19223 2019-12-26 18:26:23 Terrasse 5.30 4.49 99.90
19222 2019-12-26 17:58:08 Terrasse 5.30 4.49 99.90
19221 2019-12-26 17:29:52 Terrasse 5.30 4.49 99.90
19220 2019-12-26 17:01:38 Terrasse 5.50 4.71 99.90
19219 2019-12-26 16:33:22 Terrasse 5.50 4.71 99.90
19218 2019-12-26 16:05:07 Terrasse 5.70 4.93 99.90
19217 2019-12-26 15:36:52 Terrasse 6.00 5.26 99.90
19216 2019-12-26 15:08:38 Terrasse 6.10 5.37 99.90
19215 2019-12-26 14:40:23 Terrasse 6.20 5.48 99.90
19214 2019-12-26 14:12:11 Terrasse 6.40 5.70 99.90
19213 2019-12-26 13:43:57 Terrasse 7.00 6.36 99.90
19212 2019-12-26 11:51:44 Terrasse 7.60 7.02 99.90
19211 2019-12-26 09:04:28 Terrasse 4.60 3.72 99.90
19210 2019-12-25 20:45:05 Terrasse 5.60 4.82 99.90
19209 2019-12-25 20:16:46 Terrasse 5.50 4.71 99.90
19208 2019-12-25 19:48:31 Terrasse 5.50 4.71 99.90
19207 2019-12-25 19:20:19 Terrasse 5.50 4.71 99.90
19206 2019-12-25 18:25:00 Terrasse 6.00 5.26 99.90
19205 2019-12-25 15:34:33 Terrasse 7.40 6.80 99.90
19204 2019-12-25 15:06:12 Terrasse 6.90 6.25 99.90
19203 2019-12-25 14:37:59 Terrasse 6.90 6.25 99.90
19202 2019-12-25 14:09:44 Terrasse 7.10 6.47 99.90
19201 2019-12-25 13:41:26 Terrasse 6.80 6.14 99.90
19200 2019-12-25 13:13:31 Terrasse 6.80 6.14 99.90
19199 2019-12-25 12:45:07 Terrasse 6.70 6.03 99.90
19198 2019-12-25 12:16:53 Terrasse 6.70 6.03 99.90
19197 2019-12-25 11:48:46 Terrasse 6.80 6.14 99.90
19196 2019-12-25 11:20:29 Terrasse 6.80 6.14 99.90
19195 2019-12-25 10:52:11 Terrasse 6.70 6.03 99.90
19194 2019-12-25 10:23:54 Terrasse 6.40 5.70 99.90
19193 2019-12-25 09:55:38 Terrasse 6.30 5.59 99.90
19192 2019-12-25 09:27:24 Terrasse 6.50 5.81 99.90
19191 2019-12-25 08:59:15 Terrasse 6.50 5.81 99.90
19190 2019-12-25 08:30:59 Terrasse 6.60 5.92 99.90
19189 2019-12-25 08:02:46 Terrasse 6.60 5.92 99.90
19188 2019-12-25 07:34:36 Terrasse 6.70 6.03 99.90
19187 2019-12-25 07:06:21 Terrasse 6.90 6.25 99.90
19186 2019-12-25 06:38:07 Terrasse 6.80 6.14 99.90
19185 2019-12-25 06:09:54 Terrasse 6.60 5.92 99.90
19184 2019-12-25 05:41:37 Terrasse 6.60 5.92 99.90
19183 2019-12-25 05:13:22 Terrasse 6.60 5.92 99.90
19182 2019-12-25 04:45:08 Terrasse 6.50 5.81 99.90
19181 2019-12-25 04:16:54 Terrasse 6.60 5.92 99.90
19180 2019-12-25 03:18:02 Terrasse 6.50 5.81 99.90
19179 2019-12-25 02:49:46 Terrasse 6.50 5.81 99.90
19178 2019-12-25 02:21:32 Terrasse 6.60 5.92 99.90
19177 2019-12-25 01:53:20 Terrasse 6.50 5.81 99.90
19176 2019-12-25 01:25:05 Terrasse 6.40 5.70 99.90
19175 2019-12-25 00:56:50 Terrasse 6.40 5.70 99.90
19174 2019-12-25 00:28:34 Terrasse 6.40 5.70 99.90
19173 2019-12-25 00:00:21 Terrasse 6.50 5.81 99.90
19172 2019-12-24 23:32:07 Terrasse 6.50 5.81 99.90
19171 2019-12-24 23:03:50 Terrasse 6.40 5.70 99.90
19170 2019-12-24 22:35:34 Terrasse 6.20 5.48 99.90
19169 2019-12-24 22:07:20 Terrasse 6.30 5.59 99.90
19168 2019-12-24 21:39:05 Terrasse 6.30 5.59 99.90
19167 2019-12-24 21:10:49 Terrasse 6.50 5.81 99.90
19166 2019-12-24 20:42:35 Terrasse 6.50 5.81 99.90
19165 2019-12-24 20:14:22 Terrasse 6.50 5.81 99.90
19164 2019-12-24 19:46:06 Terrasse 6.50 5.81 99.90
19163 2019-12-24 19:17:48 Terrasse 6.30 5.59 99.90
19162 2019-12-24 18:49:32 Terrasse 6.10 5.37 99.90
19161 2019-12-24 18:21:17 Terrasse 6.10 5.37 99.90
19160 2019-12-24 17:53:04 Terrasse 6.20 5.48 99.90
19159 2019-12-24 17:24:52 Terrasse 6.30 5.59 99.90
19158 2019-12-24 16:56:42 Terrasse 6.30 5.59 99.90
19157 2019-12-24 16:28:28 Terrasse 6.40 5.70 99.90
19156 2019-12-24 16:00:16 Terrasse 6.40 5.70 99.90
19155 2019-12-24 15:31:58 Terrasse 6.20 5.48 99.90
19154 2019-12-24 15:03:43 Terrasse 6.10 5.37 99.90
19153 2019-12-24 14:35:34 Terrasse 5.90 5.15 99.90
19152 2019-12-24 14:07:17 Terrasse 5.70 4.93 99.90
19151 2019-12-24 13:39:01 Terrasse 5.60 4.82 99.90
19150 2019-12-24 12:15:01 Terrasse 5.20 4.38 99.90
19149 2019-12-24 11:18:57 Terrasse 5.20 4.38 99.90
19148 2019-12-24 10:51:01 Terrasse 5.20 4.38 99.90
19147 2019-12-24 10:23:04 Terrasse 5.20 4.38 99.90
19146 2019-12-24 09:54:47 Terrasse 5.30 4.49 99.90
19145 2019-12-24 08:31:19 Terrasse 5.40 4.60 99.90
19144 2019-12-24 08:03:15 Terrasse 5.40 4.60 99.90
19143 2019-12-24 06:36:31 Terrasse 5.40 4.60 99.90
19142 2019-12-24 03:15:19 Terrasse 5.20 4.38 99.90
19141 2019-12-23 23:18:48 Terrasse 6.10 5.37 99.90
19140 2019-12-23 22:50:34 Terrasse 6.20 5.48 99.90
19139 2019-12-23 22:22:20 Terrasse 6.40 5.70 99.90
19138 2019-12-23 21:54:05 Terrasse 6.50 5.81 99.90
19137 2019-12-23 21:25:49 Terrasse 6.60 5.92 99.90
19136 2019-12-23 20:57:34 Terrasse 6.60 5.92 99.90
19135 2019-12-23 20:29:19 Terrasse 6.90 6.25 99.90
19134 2019-12-23 20:01:05 Terrasse 7.00 6.36 99.90
19133 2019-12-23 19:04:50 Terrasse 7.20 6.58 99.90
19132 2019-12-23 18:36:34 Terrasse 7.40 6.80 99.90
19131 2019-12-23 18:08:19 Terrasse 7.50 6.91 99.90
19130 2019-12-23 17:40:04 Terrasse 7.60 7.02 99.90
19129 2019-12-23 17:11:53 Terrasse 7.60 7.02 99.90
19128 2019-12-23 16:43:37 Terrasse 7.80 7.24 99.90
19127 2019-12-23 16:15:23 Terrasse 7.90 7.35 99.90
19126 2019-12-23 15:47:10 Terrasse 8.10 7.57 99.90
19125 2019-12-23 15:18:59 Terrasse 8.60 8.12 99.90
19124 2019-12-23 14:51:09 Terrasse 9.20 8.78 99.90
19123 2019-12-23 14:22:57 Terrasse 10.40 10.10 99.90
19122 2019-12-23 13:54:47 Terrasse 9.90 9.55 99.90
19121 2019-12-23 13:26:27 Terrasse 9.20 8.78 99.90
19120 2019-12-23 12:58:28 Terrasse 10.00 9.66 99.90
19119 2019-12-23 12:30:29 Terrasse 9.40 9.00 99.90
19118 2019-12-23 12:02:08 Terrasse 9.50 9.11 99.90
19117 2019-12-23 11:33:20 Terrasse 7.90 7.35 99.90
19116 2019-12-23 11:05:09 Terrasse 7.20 6.58 99.90
19115 2019-12-23 10:36:49 Terrasse 6.80 6.14 99.90
19114 2019-12-23 10:08:31 Terrasse 6.40 5.70 99.90
19113 2019-12-23 09:40:15 Terrasse 6.00 5.26 99.90
19112 2019-12-23 09:11:59 Terrasse 6.00 5.26 99.90
19111 2019-12-23 08:43:44 Terrasse 6.00 5.26 99.90
19110 2019-12-23 07:47:22 Terrasse 5.90 5.15 99.90
19109 2019-12-23 07:19:06 Terrasse 5.90 5.15 99.90
19108 2019-12-23 06:50:50 Terrasse 5.90 5.15 99.90
19107 2019-12-23 06:22:34 Terrasse 5.90 5.15 99.90
19106 2019-12-23 05:26:13 Terrasse 5.90 5.15 99.90
19105 2019-12-23 04:58:00 Terrasse 6.00 5.26 99.90
19104 2019-12-23 04:29:46 Terrasse 6.10 5.37 99.90
19103 2019-12-23 04:01:32 Terrasse 6.20 5.48 99.90
19102 2019-12-23 03:33:18 Terrasse 6.20 5.48 99.90
19101 2019-12-23 03:05:03 Terrasse 6.20 5.48 99.90
19100 2019-12-23 02:36:49 Terrasse 6.10 5.37 99.90
19099 2019-12-23 01:40:29 Terrasse 6.10 5.37 99.90
19098 2019-12-23 00:16:04 Terrasse 6.20 5.48 99.90
19097 2019-12-22 23:47:50 Terrasse 6.20 5.48 99.90
19096 2019-12-22 23:19:36 Terrasse 6.30 5.59 99.90
19095 2019-12-22 22:51:21 Terrasse 6.30 5.59 99.90
19094 2019-12-22 22:23:09 Terrasse 6.30 5.59 99.90
19093 2019-12-22 20:56:20 Terrasse 6.40 5.70 99.90
19092 2019-12-22 19:57:20 Terrasse 6.40 5.70 99.90
19091 2019-12-22 19:29:06 Terrasse 6.50 5.81 99.90
19090 2019-12-22 19:00:52 Terrasse 6.60 5.92 99.90
19089 2019-12-22 18:32:41 Terrasse 6.70 6.03 99.90
19088 2019-12-22 18:04:29 Terrasse 6.80 6.14 99.90
19087 2019-12-22 17:36:20 Terrasse 6.90 6.25 99.90
19086 2019-12-22 17:08:31 Terrasse 7.00 6.36 99.90
19085 2019-12-22 16:40:09 Terrasse 7.20 6.58 99.90
19084 2019-12-22 16:11:57 Terrasse 7.20 6.58 99.90
19083 2019-12-22 15:43:41 Terrasse 7.10 6.47 99.90
19082 2019-12-22 15:15:26 Terrasse 7.10 6.47 99.90
19081 2019-12-22 14:47:12 Terrasse 7.00 6.36 99.90
19080 2019-12-22 14:18:57 Terrasse 6.90 6.25 99.90
19079 2019-12-22 13:50:44 Terrasse 6.90 6.25 99.90
19078 2019-12-22 13:22:28 Terrasse 6.80 6.14 99.90
19077 2019-12-22 12:54:20 Terrasse 6.70 6.03 99.90
19076 2019-12-22 12:26:03 Terrasse 6.50 5.81 99.90
19075 2019-12-22 11:58:02 Terrasse 6.40 5.70 99.90
19074 2019-12-22 11:29:43 Terrasse 6.40 5.70 99.90
19073 2019-12-22 11:01:37 Terrasse 6.40 5.70 99.90
19072 2019-12-22 10:33:19 Terrasse 6.20 5.48 99.90
19071 2019-12-22 10:05:04 Terrasse 6.10 5.37 99.90
19070 2019-12-22 09:36:47 Terrasse 6.00 5.26 99.90
19069 2019-12-22 09:08:31 Terrasse 5.80 5.04 99.90
19068 2019-12-22 07:16:01 Terrasse 5.50 4.71 99.90
19067 2019-12-22 06:47:47 Terrasse 5.50 4.71 99.90
19066 2019-12-22 06:19:32 Terrasse 5.50 4.71 99.90
19065 2019-12-22 05:51:18 Terrasse 5.50 4.71 99.90
19064 2019-12-22 05:23:05 Terrasse 5.50 4.71 99.90
19063 2019-12-22 04:54:50 Terrasse 5.40 4.60 99.90
19062 2019-12-22 04:26:37 Terrasse 5.40 4.60 99.90
19061 2019-12-22 03:58:23 Terrasse 5.40 4.60 99.90
19060 2019-12-22 03:30:09 Terrasse 5.40 4.60 99.90
19059 2019-12-22 03:01:58 Terrasse 5.40 4.60 99.90
19058 2019-12-22 02:33:42 Terrasse 5.40 4.60 99.90
19057 2019-12-22 02:05:28 Terrasse 5.50 4.71 99.90
19056 2019-12-22 01:37:13 Terrasse 5.50 4.71 99.90
19055 2019-12-22 01:08:57 Terrasse 5.50 4.71 99.90
19054 2019-12-22 00:40:42 Terrasse 5.50 4.71 99.90
19053 2019-12-22 00:12:25 Terrasse 5.50 4.71 99.90
19052 2019-12-21 23:44:10 Terrasse 5.50 4.71 99.90
19051 2019-12-21 23:15:56 Terrasse 5.50 4.71 99.90
19050 2019-12-21 22:47:42 Terrasse 5.60 4.82 99.90
19049 2019-12-21 22:19:27 Terrasse 5.70 4.93 99.90
19048 2019-12-21 21:51:12 Terrasse 5.60 4.82 99.90
19047 2019-12-21 21:22:57 Terrasse 5.60 4.82 99.90
19046 2019-12-21 20:54:42 Terrasse 5.90 5.15 99.90
19045 2019-12-21 19:58:33 Terrasse 6.10 5.37 99.90
19044 2019-12-21 19:30:20 Terrasse 6.30 5.59 99.90
19043 2019-12-21 19:02:05 Terrasse 6.40 5.70 99.90
19042 2019-12-21 18:33:52 Terrasse 6.50 5.81 99.90
19041 2019-12-21 18:05:38 Terrasse 6.50 5.81 99.90
19040 2019-12-21 17:37:24 Terrasse 6.60 5.92 99.90
19039 2019-12-21 17:09:12 Terrasse 6.60 5.92 99.90
19038 2019-12-21 16:41:00 Terrasse 6.70 6.03 99.90
19037 2019-12-21 16:12:48 Terrasse 6.70 6.03 99.90
19036 2019-12-21 15:44:40 Terrasse 6.90 6.25 99.90
19035 2019-12-21 15:16:26 Terrasse 7.00 6.36 99.90
19034 2019-12-21 14:48:17 Terrasse 7.50 6.91 99.90
19033 2019-12-21 14:20:01 Terrasse 7.60 7.02 99.90
19032 2019-12-21 13:51:43 Terrasse 7.30 6.69 99.90
19031 2019-12-21 13:23:32 Terrasse 7.50 6.91 99.90
19030 2019-12-21 12:55:39 Terrasse 7.60 7.02 99.90
19029 2019-12-21 12:27:16 Terrasse 7.20 6.58 99.90
19028 2019-12-21 11:59:01 Terrasse 7.10 6.47 99.90
19027 2019-12-21 11:30:44 Terrasse 6.70 6.03 99.90
19026 2019-12-21 11:02:27 Terrasse 6.70 6.03 99.90
19025 2019-12-21 10:34:12 Terrasse 6.60 5.92 99.90
19024 2019-12-21 10:05:56 Terrasse 6.30 5.59 99.90
19023 2019-12-21 09:37:41 Terrasse 6.10 5.37 99.90
19022 2019-12-21 09:09:25 Terrasse 6.10 5.37 99.90
19021 2019-12-21 08:41:08 Terrasse 6.00 5.26 99.90
19020 2019-12-21 08:12:53 Terrasse 5.90 5.15 99.90
19019 2019-12-21 07:44:38 Terrasse 5.90 5.15 99.90
19018 2019-12-21 07:16:24 Terrasse 5.90 5.15 99.90
19017 2019-12-21 06:48:08 Terrasse 5.80 5.04 99.90
19016 2019-12-21 06:19:52 Terrasse 5.80 5.04 99.90
19015 2019-12-21 05:51:39 Terrasse 5.90 5.15 99.90
19014 2019-12-21 05:23:26 Terrasse 6.10 5.37 99.90
19013 2019-12-21 04:55:11 Terrasse 6.20 5.48 99.90
19012 2019-12-21 04:26:57 Terrasse 6.20 5.48 99.90
19011 2019-12-21 03:58:43 Terrasse 6.40 5.70 99.90
19010 2019-12-21 03:30:28 Terrasse 6.40 5.70 99.90
19009 2019-12-21 03:02:13 Terrasse 6.40 5.70 99.90
19008 2019-12-21 02:33:57 Terrasse 6.30 5.59 99.90
19007 2019-12-21 02:05:42 Terrasse 6.30 5.59 99.90
19006 2019-12-21 01:37:26 Terrasse 6.20 5.48 99.90
19005 2019-12-21 01:09:10 Terrasse 6.30 5.59 99.90
19004 2019-12-21 00:40:54 Terrasse 6.50 5.81 99.90
19003 2019-12-21 00:12:42 Terrasse 6.60 5.92 99.90
19002 2019-12-20 23:44:27 Terrasse 6.80 6.14 99.90
19001 2019-12-20 23:16:12 Terrasse 6.80 6.14 99.90
19000 2019-12-20 22:47:57 Terrasse 6.80 6.14 99.90
18999 2019-12-20 22:19:41 Terrasse 6.90 6.25 99.90
18998 2019-12-20 21:51:27 Terrasse 6.90 6.25 99.90
18997 2019-12-20 21:23:13 Terrasse 7.00 6.36 99.90
18996 2019-12-20 20:54:57 Terrasse 7.00 6.36 99.90
18995 2019-12-20 20:26:41 Terrasse 7.00 6.36 99.90
18994 2019-12-20 19:58:27 Terrasse 6.90 6.25 99.90
18993 2019-12-20 19:30:13 Terrasse 7.10 6.47 99.90
18992 2019-12-20 19:02:00 Terrasse 7.20 6.58 99.90
18991 2019-12-20 18:33:43 Terrasse 7.30 6.69 99.90
18990 2019-12-20 18:05:27 Terrasse 7.40 6.80 99.90
18989 2019-12-20 17:37:14 Terrasse 7.40 6.80 99.90
18988 2019-12-20 17:08:58 Terrasse 7.40 6.80 99.90
18987 2019-12-20 16:40:55 Terrasse 7.50 6.91 99.90
18986 2019-12-20 16:12:37 Terrasse 7.50 6.91 99.90
18985 2019-12-20 15:44:27 Terrasse 7.40 6.80 99.90
18984 2019-12-20 15:16:10 Terrasse 7.40 6.80 99.90
18983 2019-12-20 14:47:55 Terrasse 7.50 6.91 99.90
18982 2019-12-20 14:19:39 Terrasse 7.30 6.69 99.90
18981 2019-12-20 13:51:24 Terrasse 7.40 6.80 99.90
18980 2019-12-20 13:23:09 Terrasse 7.50 6.91 99.90
18979 2019-12-20 12:54:52 Terrasse 7.10 6.47 99.90
18978 2019-12-20 12:26:37 Terrasse 7.00 6.36 99.90
18977 2019-12-20 11:58:23 Terrasse 6.90 6.25 99.90
18976 2019-12-20 11:30:09 Terrasse 7.00 6.36 99.90
18975 2019-12-20 11:02:01 Terrasse 7.10 6.47 99.90
18974 2019-12-20 10:33:41 Terrasse 7.00 6.36 99.90
18973 2019-12-20 10:05:24 Terrasse 6.70 6.03 99.90
18972 2019-12-20 09:37:06 Terrasse 6.60 5.92 99.90
18971 2019-12-20 09:08:51 Terrasse 6.40 5.70 99.90
18970 2019-12-20 08:40:34 Terrasse 6.20 5.48 99.90
18969 2019-12-20 08:12:17 Terrasse 5.90 5.15 99.90
18968 2019-12-20 07:44:01 Terrasse 5.70 4.93 99.90
18967 2019-12-20 07:15:46 Terrasse 6.00 5.26 99.90
18966 2019-12-20 06:47:32 Terrasse 5.70 4.93 99.90
18965 2019-12-20 06:19:17 Terrasse 5.70 4.93 99.90
18964 2019-12-20 05:51:01 Terrasse 5.70 4.93 99.90
18963 2019-12-20 05:22:45 Terrasse 5.60 4.82 99.90
18962 2019-12-20 04:54:33 Terrasse 5.50 4.71 99.90
18961 2019-12-20 04:26:19 Terrasse 5.60 4.82 99.90
18960 2019-12-20 03:58:04 Terrasse 5.70 4.93 99.90
18959 2019-12-20 03:29:49 Terrasse 5.70 4.93 99.90
18958 2019-12-20 03:01:35 Terrasse 5.60 4.82 99.90
18957 2019-12-20 02:33:21 Terrasse 5.80 5.04 99.90
18956 2019-12-20 02:05:07 Terrasse 5.90 5.15 99.90
18955 2019-12-20 01:36:53 Terrasse 6.10 5.37 99.90
18954 2019-12-20 01:08:38 Terrasse 6.00 5.26 99.90
18953 2019-12-20 00:40:23 Terrasse 6.00 5.26 99.90
18952 2019-12-20 00:12:09 Terrasse 5.90 5.15 99.90
18951 2019-12-19 23:43:55 Terrasse 6.10 5.37 99.90
18950 2019-12-19 23:15:42 Terrasse 6.30 5.59 99.90
18949 2019-12-19 22:47:29 Terrasse 6.60 5.92 99.90
18948 2019-12-19 22:19:16 Terrasse 6.80 6.14 99.90
18947 2019-12-19 21:51:02 Terrasse 6.70 6.03 99.90
18946 2019-12-19 21:22:56 Terrasse 6.90 6.25 99.90
18945 2019-12-19 20:54:41 Terrasse 7.10 6.47 99.90
18944 2019-12-19 20:26:27 Terrasse 7.30 6.69 99.90
18943 2019-12-19 19:58:12 Terrasse 7.40 6.80 99.90
18942 2019-12-19 19:29:57 Terrasse 7.50 6.91 99.90
18941 2019-12-19 19:01:43 Terrasse 7.70 7.13 99.90
18940 2019-12-19 18:33:30 Terrasse 7.90 7.35 99.90
18939 2019-12-19 18:05:16 Terrasse 8.10 7.57 99.90
18938 2019-12-19 17:37:02 Terrasse 8.30 7.79 99.90
18937 2019-12-19 17:08:48 Terrasse 8.40 7.90 99.90
18936 2019-12-19 16:40:38 Terrasse 8.60 8.12 99.90
18935 2019-12-19 16:12:44 Terrasse 8.80 8.34 99.90
18934 2019-12-19 15:44:24 Terrasse 9.20 8.78 99.90
18933 2019-12-19 15:16:13 Terrasse 9.60 9.22 99.90
18932 2019-12-19 14:48:03 Terrasse 10.20 9.88 99.90
18931 2019-12-19 14:19:56 Terrasse 11.30 11.09 99.90
18930 2019-12-19 13:51:49 Terrasse 11.60 11.42 99.90
18929 2019-12-19 13:22:47 Terrasse 10.50 10.21 99.90
18928 2019-12-19 12:54:47 Terrasse 11.20 10.98 99.90
18927 2019-12-19 11:53:40 Terrasse 12.80 12.74 99.90
18926 2019-12-19 11:24:42 Terrasse 9.20 8.78 99.90
18925 2019-12-19 10:56:19 Terrasse 8.10 7.57 99.90
18924 2019-12-19 10:27:58 Terrasse 7.20 6.58 99.90
18923 2019-12-19 09:59:41 Terrasse 6.70 6.03 99.90
18922 2019-12-19 09:31:24 Terrasse 6.50 5.81 99.90
18921 2019-12-19 09:03:10 Terrasse 6.30 5.59 99.90
18920 2019-12-19 08:34:55 Terrasse 6.30 5.59 99.90
18919 2019-12-19 08:06:42 Terrasse 6.40 5.70 99.90
18918 2019-12-19 07:38:29 Terrasse 6.70 6.03 99.90
18917 2019-12-19 07:10:15 Terrasse 6.90 6.25 99.90
18916 2019-12-19 06:42:01 Terrasse 6.90 6.25 99.90
18915 2019-12-19 06:13:46 Terrasse 6.90 6.25 99.90
18914 2019-12-19 05:45:59 Terrasse 6.90 6.25 99.90
18913 2019-12-19 05:18:15 Terrasse 6.90 6.25 99.90
18912 2019-12-19 04:49:59 Terrasse 6.90 6.25 99.90
18911 2019-12-19 04:21:37 Terrasse 6.90 6.25 99.90
18910 2019-12-19 03:53:23 Terrasse 7.00 6.36 99.90
18909 2019-12-19 03:25:36 Terrasse 7.10 6.47 99.90
18908 2019-12-19 02:57:09 Terrasse 7.20 6.58 99.90
18907 2019-12-19 02:29:10 Terrasse 7.20 6.58 99.90
18906 2019-12-19 02:01:12 Terrasse 7.30 6.69 99.90
18905 2019-12-19 01:32:49 Terrasse 7.30 6.69 99.90
18904 2019-12-19 01:04:48 Terrasse 7.20 6.58 99.90
18903 2019-12-19 00:36:30 Terrasse 7.20 6.58 99.90
18902 2019-12-19 00:08:16 Terrasse 7.40 6.80 99.90
18901 2019-12-18 23:40:02 Terrasse 7.50 6.91 99.90
18900 2019-12-18 23:11:47 Terrasse 7.60 7.02 99.90
18899 2019-12-18 22:43:32 Terrasse 7.60 7.02 99.90
18898 2019-12-18 22:15:17 Terrasse 7.60 7.02 99.90
18897 2019-12-18 21:47:02 Terrasse 7.50 6.91 99.90
18896 2019-12-18 21:18:46 Terrasse 7.50 6.91 99.90
18895 2019-12-18 20:50:31 Terrasse 7.50 6.91 99.90
18894 2019-12-18 20:22:17 Terrasse 7.50 6.91 99.90
18893 2019-12-18 19:54:01 Terrasse 7.50 6.91 99.90
18892 2019-12-18 19:25:45 Terrasse 7.60 7.02 99.90
18891 2019-12-18 18:57:31 Terrasse 7.70 7.13 99.90
18890 2019-12-18 18:29:17 Terrasse 7.80 7.24 99.90
18889 2019-12-18 18:01:02 Terrasse 7.90 7.35 99.90
18888 2019-12-18 17:32:51 Terrasse 8.20 7.68 99.90
18887 2019-12-18 17:04:40 Terrasse 8.70 8.23 99.90
18886 2019-12-18 16:36:29 Terrasse 9.30 8.89 99.90
18885 2019-12-18 16:08:27 Terrasse 10.30 9.99 99.90
18884 2019-12-18 15:40:17 Terrasse 11.20 10.98 99.90
18883 2019-12-18 15:12:08 Terrasse 12.10 11.97 99.90
18882 2019-12-18 14:44:09 Terrasse 13.60 13.58 98.20
18881 2019-12-18 14:16:03 Terrasse 15.50 15.53 92.70
18880 2019-12-18 13:47:18 Terrasse 12.30 12.19 99.90
18879 2019-12-18 13:19:02 Terrasse 12.10 11.97 99.90
18878 2019-12-18 12:50:55 Terrasse 13.00 12.96 99.90
18877 2019-12-18 12:22:49 Terrasse 13.50 13.51 99.90
18876 2019-12-18 11:54:12 Terrasse 10.40 10.10 99.90
18875 2019-12-18 11:25:57 Terrasse 10.50 10.21 99.90
18874 2019-12-18 10:57:37 Terrasse 9.80 9.44 99.90
18873 2019-12-18 10:29:19 Terrasse 9.30 8.89 99.90
18872 2019-12-18 10:01:01 Terrasse 8.90 8.45 99.90
18871 2019-12-18 09:32:45 Terrasse 8.60 8.12 99.90
18870 2019-12-18 09:04:30 Terrasse 8.40 7.90 99.90
18869 2019-12-18 08:36:15 Terrasse 8.30 7.79 99.90
18868 2019-12-18 08:08:00 Terrasse 8.30 7.79 99.90
18867 2019-12-18 07:39:58 Terrasse 8.60 8.12 99.90
18866 2019-12-18 07:11:52 Terrasse 8.80 8.34 99.90
18865 2019-12-18 06:43:35 Terrasse 9.00 8.56 99.90
18864 2019-12-18 06:15:21 Terrasse 9.20 8.78 99.90
18863 2019-12-18 05:47:18 Terrasse 9.40 9.00 99.90
18862 2019-12-18 05:18:59 Terrasse 9.50 9.11 99.90
18861 2019-12-18 04:50:46 Terrasse 9.70 9.33 99.90
18860 2019-12-18 04:25:01 Terrasse 10.00 9.66 99.90
18859 2019-12-18 01:00:58 Terrasse 9.70 9.33 99.90
18858 2019-12-18 00:32:50 Terrasse 9.70 9.33 99.90
18857 2019-12-18 00:04:42 Terrasse 9.60 9.22 99.90
18856 2019-12-17 23:36:34 Terrasse 9.40 9.00 99.90
18855 2019-12-17 23:08:25 Terrasse 9.20 8.78 99.90
18854 2019-12-17 22:40:20 Terrasse 9.00 8.56 99.90
18853 2019-12-17 22:12:08 Terrasse 9.00 8.56 99.90
18852 2019-12-17 21:43:59 Terrasse 9.10 8.67 99.90
18851 2019-12-17 21:16:02 Terrasse 9.00 8.56 99.90
18850 2019-12-17 20:48:17 Terrasse 9.10 8.67 99.90
18849 2019-12-17 20:19:22 Terrasse 9.30 8.89 99.90
18848 2019-12-17 19:51:13 Terrasse 9.40 9.00 99.90
18847 2019-12-17 19:23:12 Terrasse 9.60 9.22 99.90
18846 2019-12-17 18:57:17 Terrasse 9.50 9.11 99.90
18845 2019-12-17 18:21:49 Terrasse 9.60 9.22 99.90
18844 2019-12-17 17:53:39 Terrasse 9.70 9.33 99.90
18843 2019-12-17 17:25:30 Terrasse 9.80 9.44 99.90
18842 2019-12-17 16:57:22 Terrasse 9.80 9.44 99.90
18841 2019-12-17 16:29:14 Terrasse 10.10 9.77 99.90
18840 2019-12-17 16:01:07 Terrasse 10.60 10.32 99.90
18839 2019-12-17 15:33:02 Terrasse 11.20 10.98 99.90
18838 2019-12-17 15:04:59 Terrasse 12.10 11.97 99.90
18837 2019-12-17 14:37:28 Terrasse 15.50 15.71 99.90
18836 2019-12-17 14:08:44 Terrasse 11.30 11.09 99.90
18835 2019-12-17 13:40:38 Terrasse 11.40 11.20 99.90
18834 2019-12-17 13:12:34 Terrasse 12.00 11.86 99.90
18833 2019-12-17 12:44:37 Terrasse 13.70 13.73 99.90
18832 2019-12-17 12:17:15 Terrasse 18.70 18.87 85.80
18831 2019-12-17 11:48:27 Terrasse 13.80 13.84 99.90
18830 2019-12-17 11:19:56 Terrasse 10.80 10.54 99.90
18829 2019-12-17 10:51:37 Terrasse 9.30 8.89 99.90
18828 2019-12-17 10:23:23 Terrasse 8.70 8.23 99.90
18827 2019-12-17 09:55:11 Terrasse 8.10 7.57 99.90
18826 2019-12-17 09:26:58 Terrasse 7.50 6.91 99.90
18825 2019-12-17 08:58:47 Terrasse 7.10 6.47 99.90
18824 2019-12-17 08:30:38 Terrasse 7.00 6.36 99.90
18823 2019-12-17 08:02:28 Terrasse 6.90 6.25 99.90
18822 2019-12-17 07:34:19 Terrasse 6.90 6.25 99.90
18821 2019-12-17 07:06:12 Terrasse 7.00 6.36 99.90
18820 2019-12-17 06:38:21 Terrasse 7.10 6.47 99.90
18819 2019-12-17 06:10:06 Terrasse 7.10 6.47 99.90
18818 2019-12-17 05:41:59 Terrasse 7.10 6.47 99.90
18817 2019-12-17 05:13:52 Terrasse 7.10 6.47 99.90
18816 2019-12-17 04:45:44 Terrasse 7.00 6.36 99.90
18815 2019-12-17 04:17:36 Terrasse 6.90 6.25 99.90
18814 2019-12-17 03:49:30 Terrasse 6.80 6.14 99.90
18813 2019-12-17 03:21:23 Terrasse 6.90 6.25 99.90
18812 2019-12-17 02:53:18 Terrasse 7.10 6.47 99.90
18811 2019-12-17 02:25:10 Terrasse 7.20 6.58 99.90
18810 2019-12-17 01:57:03 Terrasse 7.30 6.69 99.90
18809 2019-12-17 01:28:54 Terrasse 7.20 6.58 99.90
18808 2019-12-17 01:00:46 Terrasse 7.20 6.58 99.90
18807 2019-12-17 00:32:38 Terrasse 7.20 6.58 99.90
18806 2019-12-17 00:04:29 Terrasse 7.20 6.58 99.90
18805 2019-12-16 23:36:19 Terrasse 7.10 6.47 99.90
18804 2019-12-16 23:08:11 Terrasse 6.90 6.25 99.90
18803 2019-12-16 22:40:04 Terrasse 6.80 6.14 99.90
18802 2019-12-16 22:11:55 Terrasse 6.80 6.14 99.90
18801 2019-12-16 21:43:48 Terrasse 6.80 6.14 99.90
18800 2019-12-16 21:15:42 Terrasse 6.90 6.25 99.90
18799 2019-12-16 20:47:35 Terrasse 7.00 6.36 99.90
18798 2019-12-16 20:19:27 Terrasse 7.20 6.58 99.90
18797 2019-12-16 19:51:21 Terrasse 7.30 6.69 99.90
18796 2019-12-16 19:23:13 Terrasse 7.40 6.80 99.90
18795 2019-12-16 18:55:05 Terrasse 7.50 6.91 99.90
18794 2019-12-16 18:26:59 Terrasse 7.60 7.02 99.90
18793 2019-12-16 17:58:51 Terrasse 7.70 7.13 99.90
18792 2019-12-16 17:30:45 Terrasse 7.80 7.24 99.90
18791 2019-12-16 17:02:39 Terrasse 7.90 7.35 99.90
18790 2019-12-16 16:34:32 Terrasse 8.20 7.68 99.90
18789 2019-12-16 16:06:26 Terrasse 8.60 8.12 99.90
18788 2019-12-16 15:38:19 Terrasse 8.80 8.34 99.90
18787 2019-12-16 15:10:12 Terrasse 8.80 8.34 99.90
18786 2019-12-16 14:42:08 Terrasse 9.00 8.56 99.90
18785 2019-12-16 14:13:59 Terrasse 9.20 8.78 99.90
18784 2019-12-16 13:45:49 Terrasse 8.80 8.34 99.90
18783 2019-12-16 13:17:42 Terrasse 8.70 8.23 99.90
18782 2019-12-16 12:49:34 Terrasse 8.60 8.12 99.90
18781 2019-12-16 12:21:28 Terrasse 8.60 8.12 99.90
18780 2019-12-16 11:53:19 Terrasse 8.40 7.90 99.90
18779 2019-12-16 11:25:08 Terrasse 8.00 7.46 99.90
18778 2019-12-16 10:56:57 Terrasse 7.60 7.02 99.90
18777 2019-12-16 10:28:49 Terrasse 7.30 6.69 99.90
18776 2019-12-16 10:00:41 Terrasse 7.20 6.58 99.90
18775 2019-12-16 09:32:33 Terrasse 7.10 6.47 99.90
18774 2019-12-16 09:04:27 Terrasse 7.00 6.36 99.90
18773 2019-12-16 08:36:20 Terrasse 6.90 6.25 99.90
18772 2019-12-16 08:08:12 Terrasse 6.90 6.25 99.90
18771 2019-12-16 07:40:05 Terrasse 6.90 6.25 99.90
18770 2019-12-16 07:11:57 Terrasse 6.90 6.25 99.90
18769 2019-12-16 06:43:50 Terrasse 6.80 6.14 99.90
18768 2019-12-16 06:15:43 Terrasse 6.80 6.14 99.90
18767 2019-12-16 05:47:36 Terrasse 6.70 6.03 99.90
18766 2019-12-16 05:19:29 Terrasse 6.70 6.03 99.90
18765 2019-12-16 04:51:22 Terrasse 6.60 5.92 99.90
18764 2019-12-16 04:23:15 Terrasse 6.60 5.92 99.90
18763 2019-12-16 03:55:07 Terrasse 6.50 5.81 99.90
18762 2019-12-16 03:27:02 Terrasse 6.50 5.81 99.90
18761 2019-12-16 02:58:57 Terrasse 6.50 5.81 99.90
18760 2019-12-16 02:30:48 Terrasse 6.40 5.70 99.90
18759 2019-12-16 02:02:42 Terrasse 6.30 5.59 99.90
18758 2019-12-16 01:34:35 Terrasse 6.20 5.48 99.90
18757 2019-12-16 01:06:28 Terrasse 6.10 5.37 99.90
18756 2019-12-16 00:38:23 Terrasse 6.00 5.26 99.90
18755 2019-12-16 00:10:17 Terrasse 6.00 5.26 99.90
18754 2019-12-15 23:42:11 Terrasse 5.90 5.15 99.90
18753 2019-12-15 23:14:05 Terrasse 5.80 5.04 99.90
18752 2019-12-15 22:46:00 Terrasse 5.70 4.93 99.90
18751 2019-12-15 22:17:54 Terrasse 5.70 4.93 99.90
18750 2019-12-15 21:49:48 Terrasse 5.70 4.93 99.90
18749 2019-12-15 21:21:44 Terrasse 5.70 4.93 99.90
18748 2019-12-15 20:53:47 Terrasse 5.90 5.15 99.90
18747 2019-12-15 20:25:41 Terrasse 6.10 5.37 99.90
18746 2019-12-15 19:57:36 Terrasse 6.40 5.70 99.90
18745 2019-12-15 19:29:31 Terrasse 6.40 5.70 99.90
18744 2019-12-15 19:01:28 Terrasse 6.60 5.92 99.90
18743 2019-12-15 18:33:24 Terrasse 6.70 6.03 99.90
18742 2019-12-15 18:05:21 Terrasse 6.80 6.14 99.90
18741 2019-12-15 17:37:17 Terrasse 6.90 6.25 99.90
18740 2019-12-15 17:09:14 Terrasse 7.10 6.47 99.90
18739 2019-12-15 16:41:10 Terrasse 7.30 6.69 99.90
18738 2019-12-15 16:13:09 Terrasse 7.50 6.91 99.90
18737 2019-12-15 15:45:06 Terrasse 7.70 7.13 99.90
18736 2019-12-15 15:17:03 Terrasse 7.90 7.35 99.90
18735 2019-12-15 14:48:58 Terrasse 8.00 7.46 99.90
18734 2019-12-15 14:20:55 Terrasse 8.30 7.78 99.50
18733 2019-12-15 13:52:55 Terrasse 8.60 8.12 99.90
18732 2019-12-15 13:24:57 Terrasse 9.10 8.67 99.90
18723 2019-12-12 06:18:39 ESP12E-S1 2.20 1.08 99.90
18722 2019-12-12 05:49:57 ESP12E-S1 2.30 1.19 99.90
18721 2019-12-12 05:21:20 ESP12E-S1 2.20 1.08 99.90
18720 2019-12-12 04:52:51 ESP12E-S1 2.20 1.08 99.90
18719 2019-12-12 04:24:15 ESP12E-S1 2.10 0.97 99.90
18718 2019-12-12 03:55:36 ESP12E-S1 2.00 0.86 99.90
18717 2019-12-12 03:26:59 ESP12E-S1 2.00 0.86 99.90
18716 2019-12-12 02:58:23 ESP12E-S1 1.90 0.75 99.90
18715 2019-12-12 02:29:48 ESP12E-S1 1.90 0.75 99.90
18714 2019-12-12 02:01:11 ESP12E-S1 1.80 0.64 99.90
18713 2019-12-12 01:32:45 ESP12E-S1 1.70 0.53 99.90
18712 2019-12-12 01:04:10 ESP12E-S1 1.70 0.53 99.90
18711 2019-12-12 00:35:32 ESP12E-S1 1.70 0.53 99.90
18710 2019-12-12 00:06:57 ESP12E-S1 1.70 0.53 99.90
18709 2019-12-11 23:38:26 ESP12E-S1 1.70 0.53 99.90
18708 2019-12-11 23:09:42 ESP12E-S1 1.60 0.42 99.90
18707 2019-12-11 22:40:49 ESP12E-S1 1.70 0.53 99.90
18706 2019-12-11 22:12:12 ESP12E-S1 1.70 0.53 99.90
18705 2019-12-11 21:43:30 ESP12E-S1 1.60 0.42 99.90
18704 2019-12-11 21:14:57 ESP12E-S1 1.60 0.42 99.90
18703 2019-12-11 20:46:24 ESP12E-S1 1.70 0.53 99.90
18702 2019-12-11 20:17:51 ESP12E-S1 1.70 0.53 99.90
18701 2019-12-11 19:49:17 ESP12E-S1 1.70 0.53 99.90
18700 2019-12-11 19:20:49 ESP12E-S1 1.70 0.53 99.90
18699 2019-12-11 18:52:21 ESP12E-S1 1.80 0.64 99.90
18698 2019-12-11 18:23:47 ESP12E-S1 1.90 0.75 99.90
18697 2019-12-11 17:55:12 ESP12E-S1 1.80 0.64 99.90
18696 2019-12-11 17:26:40 ESP12E-S1 1.70 0.53 99.90
18695 2019-12-11 16:58:08 ESP12E-S1 1.90 0.75 99.90
18694 2019-12-11 16:29:40 ESP12E-S1 1.90 0.75 99.90
18693 2019-12-11 16:01:05 ESP12E-S1 2.00 0.86 99.90
18692 2019-12-11 15:32:33 ESP12E-S1 2.00 0.86 99.90
18691 2019-12-11 15:04:01 ESP12E-S1 2.10 0.97 99.90
18690 2019-12-11 14:35:30 ESP12E-S1 1.80 0.64 99.90
18689 2019-12-11 14:06:58 ESP12E-S1 2.20 1.08 99.90
18688 2019-12-11 13:38:26 ESP12E-S1 2.30 1.19 99.90
18687 2019-12-11 13:09:54 ESP12E-S1 2.30 1.19 99.90
18686 2019-12-11 12:41:23 ESP12E-S1 2.40 1.30 99.90
18685 2019-12-11 12:12:51 ESP12E-S1 2.40 1.30 99.90
18684 2019-12-11 11:44:19 ESP12E-S1 2.40 1.30 99.90
18683 2019-12-11 11:15:47 ESP12E-S1 2.50 1.41 99.90
18682 2019-12-11 10:47:14 ESP12E-S1 2.60 1.52 99.90
18681 2019-12-11 10:18:42 ESP12E-S1 2.50 1.41 99.90
18680 2019-12-11 09:50:09 ESP12E-S1 2.50 1.41 99.90
18679 2019-12-11 09:21:37 ESP12E-S1 2.50 1.41 99.90
18678 2019-12-11 08:53:06 ESP12E-S1 2.50 1.41 99.90
18677 2019-12-11 08:24:35 ESP12E-S1 2.50 1.41 99.90
18676 2019-12-11 07:56:03 ESP12E-S1 2.50 1.41 99.90
18675 2019-12-11 07:27:32 ESP12E-S1 2.40 1.30 99.90
18674 2019-12-11 06:59:01 ESP12E-S1 2.50 1.41 99.90
18673 2019-12-11 06:30:29 ESP12E-S1 2.60 1.52 99.90
18672 2019-12-11 06:01:59 ESP12E-S1 2.50 1.41 99.90
18671 2019-12-11 05:33:28 ESP12E-S1 2.50 1.41 99.90
18670 2019-12-11 05:04:58 ESP12E-S1 2.50 1.41 99.90
18669 2019-12-11 04:36:28 ESP12E-S1 2.60 1.52 99.90
18668 2019-12-11 04:07:58 ESP12E-S1 2.60 1.52 99.90
18667 2019-12-11 03:39:28 ESP12E-S1 2.60 1.52 99.90
18666 2019-12-11 03:10:58 ESP12E-S1 2.70 1.63 99.90
18665 2019-12-11 02:42:27 ESP12E-S1 2.70 1.63 99.90
18664 2019-12-11 02:13:57 ESP12E-S1 2.70 1.63 99.90
18663 2019-12-11 01:45:27 ESP12E-S1 2.80 1.74 99.90
18662 2019-12-11 01:16:56 ESP12E-S1 2.80 1.74 99.90
18661 2019-12-11 00:48:25 ESP12E-S1 2.80 1.74 99.90
18660 2019-12-11 00:19:54 ESP12E-S1 2.80 1.74 99.90
18659 2019-12-10 23:51:24 ESP12E-S1 2.90 1.85 99.90
18658 2019-12-10 23:22:53 ESP12E-S1 2.80 1.74 99.90
18657 2019-12-10 22:54:22 ESP12E-S1 2.80 1.74 99.90
18656 2019-12-10 22:25:51 ESP12E-S1 2.70 1.63 99.90
18655 2019-12-10 21:57:20 ESP12E-S1 2.70 1.63 99.90
18654 2019-12-10 21:28:49 ESP12E-S1 2.70 1.63 99.90
18653 2019-12-10 21:00:18 ESP12E-S1 2.60 1.52 99.90
18652 2019-12-10 20:31:49 ESP12E-S1 2.70 1.63 99.90
18651 2019-12-10 20:03:21 ESP12E-S1 3.00 1.96 99.90
18650 2019-12-10 19:34:51 ESP12E-S1 3.10 2.07 99.90
18649 2019-12-10 19:06:22 ESP12E-S1 3.30 2.29 99.90
18648 2019-12-10 18:37:54 ESP12E-S1 3.50 2.51 99.90
18647 2019-12-10 18:09:25 ESP12E-S1 3.60 2.62 99.90
18646 2019-12-10 17:40:56 ESP12E-S1 3.80 2.84 99.90
18645 2019-12-10 17:12:28 ESP12E-S1 4.10 3.17 99.90
18644 2019-12-10 16:44:04 ESP12E-S1 4.70 3.83 99.90
18643 2019-12-10 16:15:38 ESP12E-S1 5.50 4.71 99.90
18642 2019-12-10 15:47:09 ESP12E-S1 5.90 5.15 99.90
18641 2019-12-10 15:18:44 ESP12E-S1 6.20 5.48 99.90
18640 2019-12-10 14:50:19 ESP12E-S1 6.80 6.14 99.90
18639 2019-12-10 14:21:59 ESP12E-S1 7.90 7.35 99.90
18638 2019-12-10 13:53:23 ESP12E-S1 7.80 7.24 99.90
18637 2019-12-10 13:24:50 ESP12E-S1 7.10 6.47 99.90
18636 2019-12-10 12:56:21 ESP12E-S1 6.90 6.25 99.90
18635 2019-12-10 12:27:49 ESP12E-S1 6.50 5.81 99.90
18634 2019-12-10 11:59:39 ESP12E-S1 6.90 6.25 99.90
18633 2019-12-10 11:30:54 ESP12E-S1 5.60 4.82 99.90
18632 2019-12-10 11:02:20 ESP12E-S1 5.10 4.27 99.90
18631 2019-12-10 10:33:45 ESP12E-S1 4.50 3.61 99.90
18630 2019-12-10 10:05:11 ESP12E-S1 4.00 3.06 99.90
18629 2019-12-10 09:36:39 ESP12E-S1 3.40 2.40 99.90
18628 2019-12-10 09:08:09 ESP12E-S1 3.20 2.18 99.90
18627 2019-12-10 08:39:39 ESP12E-S1 3.00 1.96 99.90
18626 2019-12-10 08:11:10 ESP12E-S1 3.30 2.29 99.90
18625 2019-12-10 07:42:43 ESP12E-S1 3.40 2.40 99.90
18624 2019-12-10 07:14:14 ESP12E-S1 3.60 2.62 99.90
18623 2019-12-10 06:45:44 ESP12E-S1 3.70 2.73 99.90
18622 2019-12-10 06:17:16 ESP12E-S1 3.80 2.84 99.90
18621 2019-12-10 05:48:48 ESP12E-S1 3.90 2.95 99.90
18620 2019-12-10 05:20:20 ESP12E-S1 4.00 3.06 99.90
18619 2019-12-10 04:51:52 ESP12E-S1 4.00 3.06 99.90
18618 2019-12-10 04:23:23 ESP12E-S1 4.00 3.06 99.90
18617 2019-12-10 03:54:54 ESP12E-S1 4.10 3.17 99.90
18616 2019-12-10 03:26:25 ESP12E-S1 4.20 3.28 99.90
18615 2019-12-10 02:57:56 ESP12E-S1 4.30 3.39 99.90
18614 2019-12-10 02:29:27 ESP12E-S1 4.30 3.39 99.90
18613 2019-12-10 02:00:58 ESP12E-S1 4.30 3.39 99.90
18612 2019-12-10 01:32:29 ESP12E-S1 4.40 3.50 99.90
18611 2019-12-10 01:04:01 ESP12E-S1 4.50 3.61 99.90
18610 2019-12-10 00:35:32 ESP12E-S1 4.60 3.72 99.90
18609 2019-12-10 00:07:04 ESP12E-S1 4.70 3.83 99.90
18608 2019-12-09 23:38:37 ESP12E-S1 4.80 3.94 99.90
18607 2019-12-09 23:10:11 ESP12E-S1 5.00 4.16 99.90
18606 2019-12-09 22:41:44 ESP12E-S1 5.20 4.38 99.90
18605 2019-12-09 22:13:17 ESP12E-S1 5.40 4.60 99.90
18604 2019-12-09 21:44:50 ESP12E-S1 5.70 4.93 99.90
18603 2019-12-09 21:16:22 ESP12E-S1 5.80 5.04 99.90
18602 2019-12-09 20:47:55 ESP12E-S1 5.90 5.15 99.90
18601 2019-12-09 20:19:26 ESP12E-S1 5.90 5.15 99.90
18600 2019-12-09 19:50:57 ESP12E-S1 5.90 5.15 99.90
18599 2019-12-09 19:22:33 ESP12E-S1 5.90 5.15 99.90
18598 2019-12-09 18:54:11 ESP12E-S1 6.00 5.26 99.90
18597 2019-12-09 18:25:41 ESP12E-S1 6.10 5.37 99.90
18596 2019-12-09 17:57:14 ESP12E-S1 6.20 5.48 99.90
18595 2019-12-09 17:28:46 ESP12E-S1 6.20 5.48 99.90
18594 2019-12-09 17:00:19 ESP12E-S1 6.40 5.70 99.90
18593 2019-12-09 16:31:53 ESP12E-S1 6.60 5.92 99.90
18592 2019-12-09 16:03:33 ESP12E-S1 7.10 6.47 99.90
18591 2019-12-09 15:35:02 ESP12E-S1 7.10 6.47 99.90
18590 2019-12-09 15:06:36 ESP12E-S1 7.40 6.80 99.90
18589 2019-12-09 14:38:04 ESP12E-S1 6.90 6.25 99.90
18588 2019-12-09 14:09:37 ESP12E-S1 7.00 6.36 99.90
18587 2019-12-09 13:41:10 ESP12E-S1 7.00 6.36 99.90
18586 2019-12-09 13:12:42 ESP12E-S1 7.20 6.58 99.90
18585 2019-12-09 12:44:11 ESP12E-S1 6.70 6.03 99.90
18584 2019-12-09 12:15:41 ESP12E-S1 6.30 5.59 99.90
18583 2019-12-09 11:47:14 ESP12E-S1 6.20 5.48 99.90
18582 2019-12-09 11:18:46 ESP12E-S1 6.30 5.59 99.90
18581 2019-12-09 10:50:19 ESP12E-S1 6.10 5.37 99.90
18580 2019-12-09 10:21:51 ESP12E-S1 6.10 5.37 99.90
18579 2019-12-09 09:53:24 ESP12E-S1 6.00 5.26 99.90
18578 2019-12-09 09:24:56 ESP12E-S1 6.10 5.37 99.90
18577 2019-12-09 08:56:29 ESP12E-S1 6.20 5.48 99.90
18576 2019-12-09 08:28:02 ESP12E-S1 6.20 5.48 99.90
18575 2019-12-09 07:59:34 ESP12E-S1 6.20 5.48 99.90
18574 2019-12-09 07:31:06 ESP12E-S1 6.20 5.48 99.90
18573 2019-12-09 07:02:38 ESP12E-S1 6.20 5.48 99.90
18572 2019-12-09 06:34:10 ESP12E-S1 6.20 5.48 99.90
18571 2019-12-09 06:05:42 ESP12E-S1 6.20 5.48 99.90
18570 2019-12-09 05:37:15 ESP12E-S1 6.30 5.59 99.90
18569 2019-12-09 05:08:47 ESP12E-S1 6.40 5.70 99.90
18568 2019-12-09 04:40:19 ESP12E-S1 6.40 5.70 99.90
18567 2019-12-09 04:11:51 ESP12E-S1 6.40 5.70 99.90
18566 2019-12-09 03:43:25 ESP12E-S1 6.50 5.81 99.90
18565 2019-12-09 03:14:57 ESP12E-S1 6.50 5.81 99.90
18564 2019-12-09 02:46:30 ESP12E-S1 8.30 7.79 99.90
18563 2019-12-09 02:18:03 ESP12E-S1 6.70 6.03 99.90
18562 2019-12-09 01:49:35 ESP12E-S1 6.70 6.03 99.90
18561 2019-12-09 01:21:10 ESP12E-S1 6.80 6.14 99.90
18560 2019-12-09 00:52:42 ESP12E-S1 6.90 6.25 99.90
18559 2019-12-09 00:24:15 ESP12E-S1 7.00 6.36 99.90
18558 2019-12-08 23:55:48 ESP12E-S1 7.10 6.47 99.90
18557 2019-12-08 23:27:22 ESP12E-S1 7.10 6.47 99.90
18556 2019-12-08 22:58:55 ESP12E-S1 7.20 6.58 99.90
18555 2019-12-08 22:30:28 ESP12E-S1 7.30 6.69 99.90
18554 2019-12-08 22:02:01 ESP12E-S1 7.40 6.80 99.90
18553 2019-12-08 21:33:34 ESP12E-S1 7.50 6.91 99.90
18552 2019-12-08 21:05:06 ESP12E-S1 7.60 7.02 99.90
18551 2019-12-08 20:36:41 ESP12E-S1 7.80 7.24 99.90
18550 2019-12-08 20:08:14 ESP12E-S1 7.80 7.24 99.90
18549 2019-12-08 19:39:49 ESP12E-S1 8.00 7.46 99.90
18548 2019-12-08 19:11:23 ESP12E-S1 8.20 7.68 99.90
18547 2019-12-08 18:42:56 ESP12E-S1 8.40 7.90 99.90
18546 2019-12-08 18:14:29 ESP12E-S1 8.50 8.01 99.90
18545 2019-12-08 17:46:01 ESP12E-S1 8.50 8.01 99.90
18544 2019-12-08 17:17:34 ESP12E-S1 8.50 8.01 99.90
18543 2019-12-08 16:49:05 ESP12E-S1 8.60 8.12 99.90
18542 2019-12-08 16:20:38 ESP12E-S1 8.50 8.01 99.90
18541 2019-12-08 15:52:12 ESP12E-S1 8.60 8.12 99.90
18540 2019-12-08 15:23:46 ESP12E-S1 8.50 8.01 99.90
18539 2019-12-08 14:55:18 ESP12E-S1 8.50 8.01 99.90
18538 2019-12-08 14:26:50 ESP12E-S1 8.40 7.90 99.90
18537 2019-12-08 13:58:23 ESP12E-S1 8.30 7.79 99.90
18536 2019-12-08 13:29:56 ESP12E-S1 8.30 7.79 99.90
18535 2019-12-08 13:01:28 ESP12E-S1 8.30 7.79 99.90
18534 2019-12-08 12:33:02 ESP12E-S1 8.30 7.79 99.90
18533 2019-12-08 12:04:33 ESP12E-S1 8.20 7.68 99.90
18532 2019-12-08 11:36:05 ESP12E-S1 8.00 7.46 99.90
18531 2019-12-08 11:07:37 ESP12E-S1 7.90 7.35 99.90
18530 2019-12-08 10:39:11 ESP12E-S1 7.80 7.24 99.90
18529 2019-12-08 10:10:42 ESP12E-S1 7.70 7.13 99.90
18528 2019-12-08 09:42:13 ESP12E-S1 7.50 6.91 99.90
18527 2019-12-08 09:13:45 ESP12E-S1 7.40 6.80 99.90
18526 2019-12-08 08:45:16 ESP12E-S1 7.20 6.58 99.90
18525 2019-12-08 08:16:49 ESP12E-S1 7.10 6.47 99.90
18524 2019-12-08 07:48:22 ESP12E-S1 6.90 6.25 99.90
18523 2019-12-08 07:19:55 ESP12E-S1 6.80 6.14 99.90
18522 2019-12-08 06:51:27 ESP12E-S1 6.80 6.14 99.90
18521 2019-12-08 06:23:01 ESP12E-S1 6.80 6.14 99.90
18520 2019-12-08 05:54:34 ESP12E-S1 6.80 6.14 99.90
18519 2019-12-08 05:26:06 ESP12E-S1 6.70 6.03 99.90
18518 2019-12-08 04:57:37 ESP12E-S1 6.70 6.03 99.90
18517 2019-12-08 04:29:10 ESP12E-S1 6.60 5.92 99.90
18516 2019-12-08 04:00:43 ESP12E-S1 6.60 5.92 99.90
18515 2019-12-08 03:32:17 ESP12E-S1 6.50 5.81 99.90
18514 2019-12-08 03:03:51 ESP12E-S1 6.50 5.81 99.90
18513 2019-12-08 02:35:24 ESP12E-S1 6.60 5.92 99.90
18512 2019-12-08 02:06:58 ESP12E-S1 6.50 5.81 99.90
18511 2019-12-08 01:38:33 ESP12E-S1 6.60 5.92 99.90
18510 2019-12-08 01:10:07 ESP12E-S1 6.60 5.92 99.90
18509 2019-12-08 00:41:40 ESP12E-S1 6.60 5.92 99.90
18508 2019-12-08 00:13:13 ESP12E-S1 6.60 5.92 99.90
18507 2019-12-07 23:44:46 ESP12E-S1 6.60 5.92 99.90
18506 2019-12-07 23:16:20 ESP12E-S1 6.70 6.03 99.90
18505 2019-12-07 22:47:53 ESP12E-S1 6.60 5.92 99.90
18504 2019-12-07 22:19:29 ESP12E-S1 6.70 6.03 99.90
18503 2019-12-07 21:51:02 ESP12E-S1 6.70 6.03 99.90
18502 2019-12-07 21:22:35 ESP12E-S1 6.70 6.03 99.90
18501 2019-12-07 20:54:09 ESP12E-S1 6.70 6.03 99.90
18500 2019-12-07 20:25:44 ESP12E-S1 6.70 6.03 99.90
18499 2019-12-07 19:57:19 ESP12E-S1 6.80 6.14 99.90
18498 2019-12-07 19:28:52 ESP12E-S1 6.80 6.14 99.90
18497 2019-12-07 19:00:26 ESP12E-S1 6.80 6.14 99.90
18496 2019-12-07 18:32:00 ESP12E-S1 6.90 6.25 99.90
18495 2019-12-07 18:03:36 ESP12E-S1 6.90 6.25 99.90
18494 2019-12-07 17:35:09 ESP12E-S1 7.00 6.36 99.90
18493 2019-12-07 17:06:43 ESP12E-S1 7.10 6.47 99.90
18492 2019-12-07 16:38:17 ESP12E-S1 7.20 6.58 99.90
18491 2019-12-07 16:09:51 ESP12E-S1 6.50 5.81 99.90
18490 2019-12-07 15:41:26 ESP12E-S1 7.40 6.80 99.90
18489 2019-12-07 15:13:00 ESP12E-S1 7.50 6.91 99.90
18488 2019-12-07 14:44:33 ESP12E-S1 7.70 7.13 99.90
18487 2019-12-07 14:16:09 ESP12E-S1 7.90 7.35 99.90
18486 2019-12-07 13:47:55 ESP12E-S1 8.70 8.23 99.90
18485 2019-12-07 13:19:17 ESP12E-S1 7.10 6.47 99.90
18484 2019-12-07 12:50:49 ESP12E-S1 6.80 6.14 99.90
18483 2019-12-07 12:22:23 ESP12E-S1 6.80 6.14 99.90
18482 2019-12-07 11:53:56 ESP12E-S1 6.70 6.03 99.90
18481 2019-12-07 11:25:30 ESP12E-S1 6.40 5.70 99.90
18480 2019-12-07 10:57:03 ESP12E-S1 6.30 5.59 99.90
18479 2019-12-07 10:28:35 ESP12E-S1 6.10 5.37 99.90
18478 2019-12-07 10:00:07 ESP12E-S1 5.90 5.15 99.90
18477 2019-12-07 09:31:38 ESP12E-S1 5.60 4.82 99.90
18476 2019-12-07 09:03:12 ESP12E-S1 5.40 4.60 99.90
18475 2019-12-07 08:34:45 ESP12E-S1 5.30 4.49 99.90
18474 2019-12-07 08:06:18 ESP12E-S1 5.30 4.49 99.90
18473 2019-12-07 07:37:53 ESP12E-S1 5.40 4.60 99.90
18472 2019-12-07 07:09:29 ESP12E-S1 5.50 4.71 99.90
18471 2019-12-07 06:41:04 ESP12E-S1 5.50 4.71 99.90
18470 2019-12-07 06:12:36 ESP12E-S1 5.30 4.49 99.90
18469 2019-12-07 05:44:07 ESP12E-S1 5.10 4.27 99.90
18468 2019-12-07 05:15:41 ESP12E-S1 5.00 4.16 99.90
18467 2019-12-07 04:47:16 ESP12E-S1 5.00 4.16 99.90
18466 2019-12-07 04:18:49 ESP12E-S1 4.80 3.94 99.90
18465 2019-12-07 03:50:21 ESP12E-S1 4.60 3.72 99.90
18464 2019-12-07 03:21:55 ESP12E-S1 4.40 3.50 99.90
18463 2019-12-07 02:53:36 ESP12E-S1 4.30 3.39 99.90
18462 2019-12-07 02:25:06 ESP12E-S1 4.20 3.28 99.90
18461 2019-12-07 01:56:40 ESP12E-S1 4.10 3.17 99.90
18460 2019-12-07 01:28:13 ESP12E-S1 4.00 3.06 99.90
18459 2019-12-07 00:59:48 ESP12E-S1 3.90 2.95 99.90
18458 2019-12-07 00:31:22 ESP12E-S1 3.80 2.84 99.90
18457 2019-12-07 00:03:05 ESP12E-S1 3.70 2.73 99.90
18456 2019-12-06 23:34:35 ESP12E-S1 3.70 2.73 99.90
18455 2019-12-06 23:06:10 ESP12E-S1 3.60 2.62 99.90
18454 2019-12-06 22:37:45 ESP12E-S1 3.50 2.51 99.90
18453 2019-12-06 22:09:18 ESP12E-S1 3.40 2.40 99.90
18452 2019-12-06 21:40:51 ESP12E-S1 3.20 2.18 99.90
18451 2019-12-06 21:12:24 ESP12E-S1 3.10 2.07 99.90
18450 2019-12-06 20:43:58 ESP12E-S1 2.90 1.85 99.90
18449 2019-12-06 20:15:30 ESP12E-S1 2.80 1.74 99.90
18448 2019-12-06 19:47:05 ESP12E-S1 2.60 1.52 99.90
18447 2019-12-06 19:18:36 ESP12E-S1 2.50 1.41 99.90
18446 2019-12-06 18:50:11 ESP12E-S1 2.40 1.30 99.90
18445 2019-12-06 18:21:46 ESP12E-S1 2.30 1.19 99.90
18444 2019-12-06 17:53:25 ESP12E-S1 2.10 0.97 99.90
18443 2019-12-06 17:24:56 ESP12E-S1 2.00 0.86 99.90
18442 2019-12-06 16:56:30 ESP12E-S1 1.80 0.64 99.90
18441 2019-12-06 16:28:03 ESP12E-S1 1.60 0.42 99.90
18440 2019-12-06 15:59:38 ESP12E-S1 1.50 0.31 99.90
18439 2019-12-06 15:31:11 ESP12E-S1 1.40 0.20 99.90
18438 2019-12-06 15:02:47 ESP12E-S1 1.20 -0.02 99.90
18437 2019-12-06 14:34:28 ESP12E-S1 1.00 -0.24 99.90
18436 2019-12-06 14:05:59 ESP12E-S1 0.90 -0.35 99.90
18435 2019-12-06 13:37:40 ESP12E-S1 0.80 -0.46 99.90
18434 2019-12-06 13:09:18 ESP12E-S1 0.70 -0.57 99.90
18433 2019-12-06 12:40:50 ESP12E-S1 0.50 -0.79 99.90
18432 2019-12-06 12:12:25 ESP12E-S1 0.40 -0.90 99.90
18431 2019-12-06 11:44:07 ESP12E-S1 0.30 -1.01 99.90
18430 2019-12-06 11:15:38 ESP12E-S1 0.10 -1.23 99.90
18429 2019-12-06 10:47:11 ESP12E-S1 0.10 -1.23 99.90
18428 2019-12-06 10:18:53 ESP12E-S1 -0.10 -1.45 99.90
18427 2019-12-06 09:50:23 ESP12E-S1 -0.30 -1.67 99.90
18426 2019-12-06 09:21:56 ESP12E-S1 -0.50 -1.89 99.90
18425 2019-12-06 08:53:31 ESP12E-S1 -0.60 -2.00 99.90
18424 2019-12-06 08:25:04 ESP12E-S1 -0.80 -2.22 99.90
18423 2019-12-06 07:56:38 ESP12E-S1 -0.90 -2.33 99.90
18422 2019-12-06 07:28:13 ESP12E-S1 -0.80 -2.22 99.90
18421 2019-12-06 06:59:48 ESP12E-S1 -0.80 -2.22 99.90
18420 2019-12-06 06:31:21 ESP12E-S1 -1.20 -2.66 99.90
18419 2019-12-06 06:02:57 ESP12E-S1 -0.80 -2.22 99.90
18418 2019-12-06 05:34:33 ESP12E-S1 -0.70 -2.11 99.90
18417 2019-12-06 05:06:08 ESP12E-S1 -0.70 -2.11 99.90
18416 2019-12-06 04:37:44 ESP12E-S1 -0.60 -2.00 99.90
18415 2019-12-06 04:09:19 ESP12E-S1 -0.60 -2.00 99.90
18414 2019-12-06 03:40:54 ESP12E-S1 -0.70 -2.11 99.90
18413 2019-12-06 03:12:28 ESP12E-S1 -0.70 -2.11 99.90
18412 2019-12-06 02:44:06 ESP12E-S1 -0.60 -2.00 99.90
18411 2019-12-06 02:15:40 ESP12E-S1 -0.60 -2.00 99.90
18410 2019-12-06 01:47:16 ESP12E-S1 -0.60 -2.00 99.90
18409 2019-12-06 01:18:50 ESP12E-S1 -0.60 -2.00 99.90
18408 2019-12-06 00:50:24 ESP12E-S1 -0.60 -2.00 99.90
18407 2019-12-06 00:22:00 ESP12E-S1 -0.70 -2.11 99.90
18406 2019-12-05 23:53:36 ESP12E-S1 -0.60 -2.00 99.90
18405 2019-12-05 23:25:11 ESP12E-S1 -0.50 -1.89 99.90
18404 2019-12-05 22:56:48 ESP12E-S1 -0.40 -1.78 99.90
18403 2019-12-05 22:28:25 ESP12E-S1 -0.30 -1.67 99.90
18402 2019-12-05 22:00:01 ESP12E-S1 -0.30 -1.67 99.90
18401 2019-12-05 21:31:36 ESP12E-S1 -0.30 -1.67 99.90
18400 2019-12-05 21:03:12 ESP12E-S1 -0.10 -1.45 99.90
18399 2019-12-05 20:34:48 ESP12E-S1 -0.10 -1.45 99.90
18398 2019-12-05 20:06:23 ESP12E-S1 -0.10 -1.45 99.90
18397 2019-12-05 19:38:00 ESP12E-S1 0.00 -1.34 99.90
18396 2019-12-05 19:09:36 ESP12E-S1 0.10 -1.23 99.90
18395 2019-12-05 18:41:12 ESP12E-S1 0.20 -1.12 99.90
18394 2019-12-05 18:12:48 ESP12E-S1 0.20 -1.12 99.90
18393 2019-12-05 17:44:25 ESP12E-S1 0.20 -1.12 99.90
18392 2019-12-05 17:16:01 ESP12E-S1 0.30 -1.01 99.90
18391 2019-12-05 16:47:38 ESP12E-S1 0.40 -0.90 99.90
18390 2019-12-05 16:19:13 ESP12E-S1 0.40 -0.90 99.90
18389 2019-12-05 15:50:49 ESP12E-S1 0.60 -0.68 99.90
18388 2019-12-05 15:22:26 ESP12E-S1 0.70 -0.57 99.90
18387 2019-12-05 14:54:03 ESP12E-S1 0.80 -0.46 99.90
18386 2019-12-05 14:25:39 ESP12E-S1 1.00 -0.24 99.90
18385 2019-12-05 13:57:18 ESP12E-S1 1.40 0.20 99.90
18384 2019-12-05 13:28:58 ESP12E-S1 1.90 0.75 99.90
18383 2019-12-05 13:00:40 ESP12E-S1 3.00 1.96 99.90
18382 2019-12-05 12:32:09 ESP12E-S1 2.20 1.08 99.90
18381 2019-12-05 12:03:45 ESP12E-S1 2.50 1.41 99.90
18380 2019-12-05 11:35:06 ESP12E-S1 0.80 -0.46 99.90
18379 2019-12-05 11:06:40 ESP12E-S1 0.50 -0.79 99.90
18378 2019-12-05 10:38:18 ESP12E-S1 0.60 -0.68 99.90
18377 2019-12-05 10:09:53 ESP12E-S1 0.50 -0.79 99.90
18376 2019-12-05 09:41:27 ESP12E-S1 0.30 -1.01 99.90
18375 2019-12-05 09:13:02 ESP12E-S1 0.10 -1.23 99.90
18374 2019-12-05 08:44:37 ESP12E-S1 -0.10 -1.45 99.90
18373 2019-12-05 08:16:13 ESP12E-S1 -0.20 -1.56 99.90
18372 2019-12-05 07:47:49 ESP12E-S1 -0.10 -1.45 99.90
18371 2019-12-05 07:19:25 ESP12E-S1 0.00 -1.34 99.90
18370 2019-12-05 06:51:02 ESP12E-S1 0.20 -1.12 99.90
18369 2019-12-05 06:22:40 ESP12E-S1 0.40 -0.90 99.90
18368 2019-12-05 05:54:17 ESP12E-S1 0.60 -0.68 99.90
18367 2019-12-05 05:25:54 ESP12E-S1 0.80 -0.46 99.90
18366 2019-12-05 04:57:30 ESP12E-S1 1.00 -0.24 99.90
18365 2019-12-05 04:29:07 ESP12E-S1 1.00 -0.24 99.90
18364 2019-12-05 04:00:45 ESP12E-S1 1.20 -0.02 99.90
18363 2019-12-05 03:32:21 ESP12E-S1 1.30 0.09 99.90
18362 2019-12-05 03:03:57 ESP12E-S1 1.50 0.31 99.90
18361 2019-12-05 02:35:35 ESP12E-S1 1.60 0.42 99.90
18360 2019-12-05 02:07:13 ESP12E-S1 2.00 0.86 99.90
18359 2019-12-05 01:38:49 ESP12E-S1 2.20 1.08 99.90
18358 2019-12-05 01:10:26 ESP12E-S1 2.10 0.97 99.90
18357 2019-12-05 00:42:05 ESP12E-S1 2.30 1.19 99.90
18356 2019-12-05 00:13:42 ESP12E-S1 2.50 1.41 99.90
18355 2019-12-04 23:45:20 ESP12E-S1 2.70 1.63 99.90
18354 2019-12-04 23:16:56 ESP12E-S1 2.80 1.74 99.90
18353 2019-12-04 22:48:35 ESP12E-S1 3.00 1.96 99.90
18352 2019-12-04 22:20:13 ESP12E-S1 3.40 2.40 99.90
18351 2019-12-04 21:51:50 ESP12E-S1 3.40 2.40 99.90
18350 2019-12-04 21:23:27 ESP12E-S1 3.50 2.51 99.90
18349 2019-12-04 20:55:06 ESP12E-S1 3.90 2.95 99.90
18348 2019-12-04 20:26:43 ESP12E-S1 4.20 3.28 99.90
18347 2019-12-04 19:58:22 ESP12E-S1 4.40 3.48 98.90
18346 2019-12-04 19:29:59 ESP12E-S1 4.60 3.62 95.80
18345 2019-12-04 19:01:37 ESP12E-S1 4.80 3.84 96.10
18344 2019-12-04 18:33:15 ESP12E-S1 5.00 4.05 95.50
18343 2019-12-04 18:04:52 ESP12E-S1 5.20 4.20 92.80
18342 2019-12-04 17:36:30 ESP12E-S1 5.40 4.15 82.70
18341 2019-12-04 17:08:07 ESP12E-S1 5.60 4.35 81.60
18340 2019-12-04 16:39:46 ESP12E-S1 5.90 4.93 91.30
18339 2019-12-04 16:11:26 ESP12E-S1 6.50 5.55 89.60
18338 2019-12-04 15:43:15 ESP12E-S1 7.90 6.83 79.70
18337 2019-12-04 15:14:42 ESP12E-S1 9.80 8.82 76.10
18336 2019-12-04 14:46:19 ESP12E-S1 8.00 7.07 84.90
18335 2019-12-04 14:18:02 ESP12E-S1 8.80 7.90 83.00
18334 2019-12-04 13:49:25 ESP12E-S1 7.90 6.99 86.10
18333 2019-12-04 13:20:58 ESP12E-S1 6.90 6.05 92.00
18332 2019-12-04 12:52:32 ESP12E-S1 6.70 5.99 98.10
18331 2019-12-04 12:24:07 ESP12E-S1 6.60 5.92 99.90
18330 2019-12-04 11:55:46 ESP12E-S1 6.70 6.03 99.90
18329 2019-12-04 11:27:12 ESP12E-S1 5.50 4.71 99.90
18328 2019-12-04 10:58:37 ESP12E-S1 4.20 3.28 99.90
18327 2019-12-04 10:30:09 ESP12E-S1 3.50 2.51 99.90
18326 2019-12-04 10:01:43 ESP12E-S1 2.90 1.85 99.90
18325 2019-12-04 09:33:16 ESP12E-S1 2.60 1.52 99.90
18324 2019-12-04 09:04:51 ESP12E-S1 2.30 1.19 99.90
18323 2019-12-04 08:36:26 ESP12E-S1 2.20 1.08 99.90
18322 2019-12-04 08:08:03 ESP12E-S1 2.10 0.97 99.90
18321 2019-12-04 07:39:38 ESP12E-S1 2.10 0.97 99.90
18320 2019-12-04 07:11:14 ESP12E-S1 2.10 0.97 99.90
18319 2019-12-04 06:42:50 ESP12E-S1 2.10 0.97 99.90
18318 2019-12-04 06:14:26 ESP12E-S1 2.10 0.97 99.90
18317 2019-12-04 05:46:04 ESP12E-S1 2.30 1.19 99.90
18316 2019-12-04 05:17:41 ESP12E-S1 2.30 1.19 99.90
18315 2019-12-04 04:49:18 ESP12E-S1 2.40 1.30 99.90
18314 2019-12-04 04:20:56 ESP12E-S1 2.50 1.41 99.90
18313 2019-12-04 03:52:32 ESP12E-S1 2.60 1.52 99.90
18312 2019-12-04 03:24:09 ESP12E-S1 2.70 1.63 99.90
18311 2019-12-04 02:55:47 ESP12E-S1 2.90 1.85 99.90
18310 2019-12-04 02:27:23 ESP12E-S1 3.10 2.07 99.90
18309 2019-12-04 01:59:00 ESP12E-S1 3.20 2.18 99.90
18308 2019-12-04 01:30:38 ESP12E-S1 3.30 2.29 99.90
18307 2019-12-04 01:02:14 ESP12E-S1 3.30 2.29 99.90
18306 2019-12-04 00:33:49 ESP12E-S1 3.10 2.07 99.90
18305 2019-12-04 00:05:25 ESP12E-S1 2.90 1.85 99.90
18304 2019-12-03 23:37:01 ESP12E-S1 2.90 1.85 99.90
18303 2019-12-03 23:08:37 ESP12E-S1 2.80 1.74 99.90
18302 2019-12-03 22:40:14 ESP12E-S1 2.90 1.85 99.90
18301 2019-12-03 22:11:50 ESP12E-S1 3.00 1.96 99.90
18300 2019-12-03 21:43:27 ESP12E-S1 3.00 1.96 99.90
18299 2019-12-03 21:15:05 ESP12E-S1 3.30 2.29 99.90
18298 2019-12-03 20:46:43 ESP12E-S1 3.60 2.62 99.90
18297 2019-12-03 20:18:21 ESP12E-S1 3.80 2.84 99.90
18296 2019-12-03 19:49:59 ESP12E-S1 4.10 3.17 99.90
18295 2019-12-03 19:21:37 ESP12E-S1 4.40 3.50 99.90
18294 2019-12-03 18:53:15 ESP12E-S1 4.70 3.83 99.90
18293 2019-12-03 18:24:53 ESP12E-S1 5.10 4.27 99.90
18292 2019-12-03 17:56:31 ESP12E-S1 5.20 4.38 99.90
18291 2019-12-03 17:28:08 ESP12E-S1 5.20 4.38 99.90
18290 2019-12-03 16:59:45 ESP12E-S1 5.20 4.38 99.90
18289 2019-12-03 16:31:22 ESP12E-S1 5.30 4.49 99.90
18288 2019-12-03 16:02:59 ESP12E-S1 5.40 4.60 99.90
18287 2019-12-03 15:34:36 ESP12E-S1 5.50 4.71 99.90
18286 2019-12-03 15:06:13 ESP12E-S1 5.70 4.93 99.90
18285 2019-12-03 14:37:52 ESP12E-S1 5.90 5.15 99.90
18284 2019-12-03 14:09:29 ESP12E-S1 6.00 5.26 99.90
18283 2019-12-03 13:41:06 ESP12E-S1 6.10 5.37 99.90
18282 2019-12-03 13:12:43 ESP12E-S1 6.30 5.59 99.90
18281 2019-12-03 12:44:23 ESP12E-S1 6.80 6.14 99.90
18280 2019-12-03 12:15:58 ESP12E-S1 6.80 6.14 99.90
18279 2019-12-03 11:47:27 ESP12E-S1 5.70 4.93 99.90
18278 2019-12-03 11:19:03 ESP12E-S1 5.50 4.71 99.90
18277 2019-12-03 10:50:36 ESP12E-S1 5.20 4.38 99.90
18276 2019-12-03 10:22:11 ESP12E-S1 4.90 4.05 99.90
18275 2019-12-03 09:53:50 ESP12E-S1 4.60 3.72 99.90
18274 2019-12-03 09:25:27 ESP12E-S1 4.30 3.39 99.90
18273 2019-12-03 08:57:04 ESP12E-S1 4.20 3.28 99.90
18272 2019-12-03 08:28:46 ESP12E-S1 4.10 3.17 99.90
18271 2019-12-03 08:00:26 ESP12E-S1 4.10 3.17 99.90
18270 2019-12-03 07:32:04 ESP12E-S1 4.00 3.06 99.90
18269 2019-12-03 07:03:40 ESP12E-S1 3.90 2.95 99.90
18268 2019-12-03 06:35:17 ESP12E-S1 3.90 2.95 99.90
18267 2019-12-03 06:06:52 ESP12E-S1 3.90 2.95 99.90
18266 2019-12-03 05:38:29 ESP12E-S1 3.90 2.95 99.90
18265 2019-12-03 05:10:05 ESP12E-S1 3.80 2.84 99.90
18264 2019-12-03 04:41:43 ESP12E-S1 3.80 2.84 99.90
18263 2019-12-03 04:13:18 ESP12E-S1 3.70 2.73 99.90
18262 2019-12-03 03:44:55 ESP12E-S1 3.70 2.73 99.90
18261 2019-12-03 03:16:31 ESP12E-S1 3.70 2.73 99.90
18260 2019-12-03 02:48:08 ESP12E-S1 3.60 2.62 99.90
18259 2019-12-03 02:19:43 ESP12E-S1 3.50 2.51 99.90
18258 2019-12-03 01:51:20 ESP12E-S1 3.50 2.51 99.90
18257 2019-12-03 01:22:55 ESP12E-S1 3.40 2.40 99.90
18256 2019-12-03 00:54:33 ESP12E-S1 3.30 2.29 99.90
18255 2019-12-03 00:26:08 ESP12E-S1 3.30 2.29 99.90
18254 2019-12-02 23:57:44 ESP12E-S1 3.20 2.18 99.90
18253 2019-12-02 23:29:21 ESP12E-S1 3.00 1.96 99.90
18252 2019-12-02 23:00:59 ESP12E-S1 3.00 1.96 99.90
18251 2019-12-02 22:32:37 ESP12E-S1 3.10 2.07 99.90
18250 2019-12-02 22:04:14 ESP12E-S1 3.30 2.29 99.90
18249 2019-12-02 21:35:53 ESP12E-S1 3.40 2.40 99.90
18248 2019-12-02 21:07:29 ESP12E-S1 3.30 2.29 99.90
18247 2019-12-02 20:39:06 ESP12E-S1 3.20 2.18 99.90
18246 2019-12-02 20:10:43 ESP12E-S1 3.30 2.29 99.90
18245 2019-12-02 19:42:20 ESP12E-S1 3.50 2.51 99.90
18244 2019-12-02 19:13:56 ESP12E-S1 3.60 2.62 99.90
18243 2019-12-02 18:45:33 ESP12E-S1 3.50 2.51 99.90
18242 2019-12-02 18:17:10 ESP12E-S1 3.50 2.51 99.90
18241 2019-12-02 17:48:47 ESP12E-S1 3.50 2.51 99.90
18240 2019-12-02 17:20:24 ESP12E-S1 3.50 2.51 99.90
18239 2019-12-02 16:52:02 ESP12E-S1 3.60 2.62 99.90
18238 2019-12-02 16:23:40 ESP12E-S1 3.70 2.73 99.90
18237 2019-12-02 15:55:18 ESP12E-S1 3.70 2.73 99.90
18236 2019-12-02 15:27:00 ESP12E-S1 3.80 2.84 99.90
18235 2019-12-02 14:58:35 ESP12E-S1 4.00 3.06 99.90
18234 2019-12-02 14:30:15 ESP12E-S1 4.40 3.50 99.90
18233 2019-12-02 14:02:01 ESP12E-S1 4.70 3.83 99.90
18232 2019-12-02 13:33:36 ESP12E-S1 5.30 4.49 99.90
18231 2019-12-02 13:05:15 ESP12E-S1 5.50 4.71 99.90
18230 2019-12-02 12:36:49 ESP12E-S1 5.00 4.16 99.90
18229 2019-12-02 12:08:30 ESP12E-S1 5.30 4.49 99.90
18228 2019-12-02 11:40:08 ESP12E-S1 5.20 4.38 99.90
18227 2019-12-02 11:11:27 ESP12E-S1 3.80 2.84 99.90
18226 2019-12-02 10:42:56 ESP12E-S1 3.40 2.40 99.90
18225 2019-12-02 10:14:30 ESP12E-S1 1.80 0.64 99.90
18224 2019-12-02 09:46:03 ESP12E-S1 1.30 0.09 99.90
18223 2019-12-02 09:17:40 ESP12E-S1 1.00 -0.24 99.90
18222 2019-12-02 08:49:17 ESP12E-S1 0.80 -0.46 99.90
18221 2019-12-02 08:20:55 ESP12E-S1 0.60 -0.68 99.90
18220 2019-12-02 07:52:33 ESP12E-S1 0.60 -0.68 99.90
18219 2019-12-02 07:24:11 ESP12E-S1 0.70 -0.57 99.90
18218 2019-12-02 06:55:49 ESP12E-S1 0.80 -0.46 99.90
18217 2019-12-02 06:27:28 ESP12E-S1 1.00 -0.24 99.90
18216 2019-12-02 05:59:06 ESP12E-S1 1.20 -0.02 99.90
18215 2019-12-02 05:30:45 ESP12E-S1 1.50 0.31 99.90
18214 2019-12-02 05:02:25 ESP12E-S1 1.70 0.53 99.90
18213 2019-12-02 04:34:03 ESP12E-S1 1.80 0.64 99.90
18212 2019-12-02 04:05:43 ESP12E-S1 2.00 0.86 99.90
18211 2019-12-02 03:37:21 ESP12E-S1 2.10 0.97 99.90
18210 2019-12-02 03:08:59 ESP12E-S1 2.10 0.97 99.90
18209 2019-12-02 02:40:37 ESP12E-S1 2.00 0.86 99.90
18208 2019-12-02 02:12:16 ESP12E-S1 2.30 1.19 99.90
18207 2019-12-02 01:43:54 ESP12E-S1 2.50 1.41 99.90
18206 2019-12-02 01:15:32 ESP12E-S1 2.60 1.52 99.90
18205 2019-12-02 00:47:10 ESP12E-S1 2.70 1.63 99.90
18204 2019-12-02 00:18:50 ESP12E-S1 2.90 1.85 99.90
18203 2019-12-01 23:50:27 ESP12E-S1 3.00 1.96 99.90
18202 2019-12-01 23:22:05 ESP12E-S1 3.10 2.07 99.90
18201 2019-12-01 22:53:43 ESP12E-S1 3.10 2.07 99.90
18200 2019-12-01 22:25:22 ESP12E-S1 3.10 2.07 99.90
18199 2019-12-01 21:56:59 ESP12E-S1 3.20 2.18 99.90
18198 2019-12-01 21:28:37 ESP12E-S1 3.30 2.29 99.90
18197 2019-12-01 21:00:14 ESP12E-S1 3.30 2.28 99.30
18196 2019-12-01 20:31:52 ESP12E-S1 3.30 2.29 99.90
18195 2019-12-01 20:03:29 ESP12E-S1 3.30 2.28 99.20
18194 2019-12-01 19:35:06 ESP12E-S1 3.30 2.21 96.80
18193 2019-12-01 19:06:43 ESP12E-S1 3.30 2.24 98.00
18192 2019-12-01 18:38:21 ESP12E-S1 3.30 2.22 97.20
18191 2019-12-01 18:09:58 ESP12E-S1 3.30 2.21 96.50
18190 2019-12-01 17:41:45 ESP12E-S1 3.30 2.21 96.80
18189 2019-12-01 17:13:31 ESP12E-S1 3.40 2.37 98.60
18188 2019-12-01 16:45:15 ESP12E-S1 3.40 2.34 97.60
18187 2019-12-01 16:16:50 ESP12E-S1 3.50 2.50 99.20
18186 2019-12-01 15:48:27 ESP12E-S1 3.60 2.62 99.70
18185 2019-12-01 15:20:05 ESP12E-S1 3.80 2.82 98.90
18184 2019-12-01 14:51:43 ESP12E-S1 3.70 2.71 98.80
18183 2019-12-01 14:23:32 ESP12E-S1 3.70 2.63 96.00
18182 2019-12-01 13:55:06 ESP12E-S1 3.70 2.68 97.90
18181 2019-12-01 13:26:43 ESP12E-S1 3.70 2.66 97.20
18180 2019-12-01 12:58:40 ESP12E-S1 3.80 2.84 99.90
18179 2019-12-01 12:30:29 ESP12E-S1 3.80 2.84 99.90
18178 2019-12-01 12:01:57 ESP12E-S1 3.60 2.62 99.90
18177 2019-12-01 11:33:34 ESP12E-S1 3.30 2.29 99.90
18176 2019-12-01 11:05:20 ESP12E-S1 3.00 1.96 99.90
18175 2019-12-01 10:36:52 ESP12E-S1 2.80 1.74 99.90
18174 2019-12-01 10:08:31 ESP12E-S1 2.70 1.63 99.90
18173 2019-12-01 09:40:08 ESP12E-S1 2.60 1.52 99.90
18172 2019-12-01 09:11:46 ESP12E-S1 2.40 1.30 99.90
18171 2019-12-01 08:43:23 ESP12E-S1 2.30 1.19 99.90
18170 2019-12-01 08:15:00 ESP12E-S1 2.20 1.08 99.90
18169 2019-12-01 07:46:38 ESP12E-S1 2.20 1.08 99.90
18168 2019-12-01 07:18:17 ESP12E-S1 2.20 1.08 99.90
18167 2019-12-01 06:49:55 ESP12E-S1 2.30 1.19 99.90
18166 2019-12-01 06:21:34 ESP12E-S1 2.30 1.19 99.90
18165 2019-12-01 05:53:13 ESP12E-S1 2.30 1.19 99.90
18164 2019-12-01 05:24:51 ESP12E-S1 2.40 1.30 99.90
18163 2019-12-01 04:56:29 ESP12E-S1 2.50 1.41 99.90
18162 2019-12-01 04:28:07 ESP12E-S1 2.50 1.41 99.90
18161 2019-12-01 03:59:45 ESP12E-S1 2.60 1.52 99.90
18160 2019-12-01 03:31:23 ESP12E-S1 2.70 1.63 99.90
18159 2019-12-01 03:03:01 ESP12E-S1 2.70 1.63 99.90
18158 2019-12-01 02:34:38 ESP12E-S1 2.80 1.74 99.90
18157 2019-12-01 02:06:17 ESP12E-S1 2.80 1.74 99.90
18156 2019-12-01 01:37:55 ESP12E-S1 2.80 1.74 99.90
18155 2019-12-01 01:09:32 ESP12E-S1 2.70 1.63 99.90
18154 2019-12-01 00:41:10 ESP12E-S1 2.80 1.74 99.90
18153 2019-12-01 00:12:48 ESP12E-S1 2.80 1.74 99.90
18152 2019-11-30 23:44:27 ESP12E-S1 2.80 1.74 99.90
18151 2019-11-30 23:16:06 ESP12E-S1 2.90 1.85 99.90
18150 2019-11-30 22:47:44 ESP12E-S1 2.80 1.74 99.90
18149 2019-11-30 22:19:22 ESP12E-S1 2.80 1.74 99.90
18148 2019-11-30 21:51:00 ESP12E-S1 2.80 1.74 99.90
18147 2019-11-30 21:22:40 ESP12E-S1 3.00 1.96 99.90
18146 2019-11-30 20:54:19 ESP12E-S1 3.00 1.96 99.90
18145 2019-11-30 20:25:58 ESP12E-S1 3.10 2.07 99.90
18144 2019-11-30 19:57:36 ESP12E-S1 3.20 2.18 99.90
18143 2019-11-30 19:29:17 ESP12E-S1 3.40 2.40 99.90
18142 2019-11-30 19:00:57 ESP12E-S1 3.60 2.62 99.90
18141 2019-11-30 18:32:38 ESP12E-S1 4.00 3.06 99.90
18140 2019-11-30 18:04:18 ESP12E-S1 4.40 3.50 99.90
18139 2019-11-30 17:35:58 ESP12E-S1 4.50 3.61 99.90
18138 2019-11-30 17:07:38 ESP12E-S1 4.70 3.83 99.90
18137 2019-11-30 16:39:20 ESP12E-S1 5.50 4.71 99.90
18136 2019-11-30 16:11:01 ESP12E-S1 6.30 5.59 99.90
18135 2019-11-30 15:42:42 ESP12E-S1 6.90 6.25 99.90
18134 2019-11-30 15:14:25 ESP12E-S1 7.90 7.35 99.90
18133 2019-11-30 14:46:01 ESP12E-S1 7.10 6.47 99.90
18132 2019-11-30 14:17:46 ESP12E-S1 7.90 7.29 97.40
18131 2019-11-30 13:49:32 ESP12E-S1 9.40 8.77 91.00
18130 2019-11-30 13:21:08 ESP12E-S1 9.10 8.59 96.50
18129 2019-11-30 12:52:44 ESP12E-S1 8.70 8.23 99.90
18128 2019-11-30 12:24:21 ESP12E-S1 8.60 8.12 99.90
18127 2019-11-30 11:55:59 ESP12E-S1 8.90 8.45 99.90
18126 2019-11-30 11:27:56 ESP12E-S1 9.70 9.33 99.90
18125 2019-11-30 10:58:51 ESP12E-S1 5.40 4.60 99.90
18124 2019-11-30 10:30:23 ESP12E-S1 4.50 3.61 99.90
18123 2019-11-30 10:02:06 ESP12E-S1 3.80 2.84 99.90
18122 2019-11-30 09:33:47 ESP12E-S1 3.10 2.07 99.90
18121 2019-11-30 09:05:25 ESP12E-S1 2.80 1.74 99.90
18120 2019-11-30 08:37:11 ESP12E-S1 3.00 1.96 99.90
18119 2019-11-30 08:08:55 ESP12E-S1 3.00 1.96 99.90
18118 2019-11-30 07:40:39 ESP12E-S1 3.10 2.07 99.90
18117 2019-11-30 07:12:19 ESP12E-S1 3.20 2.18 99.90
18116 2019-11-30 06:44:04 ESP12E-S1 3.40 2.40 99.90
18115 2019-11-30 06:15:46 ESP12E-S1 3.50 2.51 99.90
18114 2019-11-30 05:47:32 ESP12E-S1 3.60 2.62 99.90
18113 2019-11-30 05:19:32 ESP12E-S1 3.90 2.95 99.90
18112 2019-11-30 04:51:03 ESP12E-S1 4.00 3.06 99.90
18111 2019-11-30 04:22:47 ESP12E-S1 4.00 3.06 99.90
18110 2019-11-30 03:54:35 ESP12E-S1 4.00 3.06 99.90
18109 2019-11-30 03:26:31 ESP12E-S1 3.90 2.95 99.90
18108 2019-11-30 02:58:05 ESP12E-S1 3.90 2.95 99.90
18107 2019-11-30 02:29:39 ESP12E-S1 3.90 2.95 99.90
18106 2019-11-30 02:01:24 ESP12E-S1 3.70 2.73 99.90
18105 2019-11-30 01:33:07 ESP12E-S1 3.60 2.62 99.90
18104 2019-11-30 01:04:50 ESP12E-S1 3.50 2.51 99.90
18103 2019-11-30 00:36:30 ESP12E-S1 3.50 2.51 99.90
18102 2019-11-30 00:08:11 ESP12E-S1 3.30 2.29 99.90
18101 2019-11-29 23:39:53 ESP12E-S1 3.10 2.07 99.90
18100 2019-11-29 23:11:37 ESP12E-S1 3.00 1.96 99.90
18099 2019-11-29 22:43:19 ESP12E-S1 3.10 2.07 99.90
18098 2019-11-29 22:15:02 ESP12E-S1 3.20 2.18 99.90
18097 2019-11-29 21:46:46 ESP12E-S1 3.20 2.18 99.90
18096 2019-11-29 21:18:32 ESP12E-S1 3.20 2.18 99.90
18095 2019-11-29 20:50:17 ESP12E-S1 3.50 2.51 99.90
18094 2019-11-29 20:22:03 ESP12E-S1 3.80 2.84 99.90
18093 2019-11-29 19:53:48 ESP12E-S1 4.00 3.06 99.90
18092 2019-11-29 19:25:26 ESP12E-S1 4.40 3.50 99.90
18091 2019-11-29 18:57:12 ESP12E-S1 4.70 3.83 99.90
18090 2019-11-29 18:28:58 ESP12E-S1 4.90 4.05 99.90
18089 2019-11-29 18:00:54 ESP12E-S1 5.30 4.49 99.90
18088 2019-11-29 17:32:34 ESP12E-S1 5.70 4.93 99.90
18087 2019-11-29 17:04:24 ESP12E-S1 6.30 5.59 99.90
18086 2019-11-29 16:36:10 ESP12E-S1 6.90 6.25 99.90
18085 2019-11-29 16:07:52 ESP12E-S1 7.90 7.35 99.90
18084 2019-11-29 15:39:48 ESP12E-S1 10.20 9.63 90.00
18083 2019-11-29 15:11:05 ESP12E-S1 10.30 9.99 99.90
18082 2019-11-29 14:42:34 ESP12E-S1 7.50 6.91 99.90
18081 2019-11-29 14:14:23 ESP12E-S1 7.90 7.35 99.90
18080 2019-11-29 13:46:10 ESP12E-S1 8.30 7.79 99.90
18079 2019-11-29 13:17:44 ESP12E-S1 7.70 7.13 99.90
18078 2019-11-29 12:49:28 ESP12E-S1 7.40 6.80 99.90
18077 2019-11-29 12:21:09 ESP12E-S1 7.20 6.58 99.90
18076 2019-11-29 11:52:50 ESP12E-S1 6.90 6.25 99.90
18075 2019-11-29 11:24:31 ESP12E-S1 6.60 5.92 99.90
18074 2019-11-29 10:56:14 ESP12E-S1 6.30 5.59 99.90
18073 2019-11-29 10:27:58 ESP12E-S1 6.30 5.59 99.90
18072 2019-11-29 09:59:41 ESP12E-S1 6.30 5.59 99.90
18071 2019-11-29 09:31:26 ESP12E-S1 6.30 5.59 99.90
18070 2019-11-29 09:03:01 ESP12E-S1 6.30 5.59 99.90
18069 2019-11-29 08:34:48 ESP12E-S1 6.50 5.81 99.90
18068 2019-11-29 08:06:31 ESP12E-S1 6.60 5.92 99.90
18067 2019-11-29 07:38:11 ESP12E-S1 6.90 6.25 99.90
18066 2019-11-29 07:09:52 ESP12E-S1 7.10 6.47 99.90
18065 2019-11-29 06:41:37 ESP12E-S1 7.40 6.80 99.90
18064 2019-11-29 06:13:23 ESP12E-S1 7.50 6.91 99.90
18063 2019-11-29 05:45:07 ESP12E-S1 7.60 7.02 99.90
18062 2019-11-29 05:16:49 ESP12E-S1 7.70 7.13 99.90
18061 2019-11-29 04:48:36 ESP12E-S1 7.70 7.13 99.90
18060 2019-11-29 04:20:19 ESP12E-S1 7.80 7.24 99.90
18059 2019-11-29 03:52:02 ESP12E-S1 7.90 7.35 99.90
18058 2019-11-29 03:23:45 ESP12E-S1 7.90 7.35 99.90
18057 2019-11-29 02:55:29 ESP12E-S1 8.00 7.46 99.90
18056 2019-11-29 02:27:14 ESP12E-S1 8.10 7.57 99.90
18055 2019-11-29 01:58:56 ESP12E-S1 8.10 7.57 99.90
18054 2019-11-29 01:30:42 ESP12E-S1 8.10 7.57 99.90
18053 2019-11-29 01:02:26 ESP12E-S1 8.20 7.68 99.90
18052 2019-11-29 00:34:06 ESP12E-S1 8.20 7.68 99.90
18051 2019-11-29 00:05:49 ESP12E-S1 8.20 7.68 99.90
18050 2019-11-28 23:37:33 ESP12E-S1 8.20 7.68 99.90
18049 2019-11-28 23:09:15 ESP12E-S1 8.20 7.68 99.90
18048 2019-11-28 22:40:59 ESP12E-S1 8.30 7.79 99.90
18047 2019-11-28 22:12:41 ESP12E-S1 8.30 7.79 99.90
18046 2019-11-28 21:44:22 ESP12E-S1 8.30 7.79 99.90
18045 2019-11-28 21:16:08 ESP12E-S1 8.30 7.79 99.90
18044 2019-11-28 20:47:52 ESP12E-S1 8.30 7.79 99.90
18043 2019-11-28 20:19:35 ESP12E-S1 8.60 8.12 99.90
18042 2019-11-28 19:51:19 ESP12E-S1 8.40 7.90 99.90
18041 2019-11-28 19:23:05 ESP12E-S1 8.40 7.90 99.90
18040 2019-11-28 18:54:47 ESP12E-S1 8.50 8.01 99.90
18039 2019-11-28 18:26:32 ESP12E-S1 8.50 8.01 99.90
18038 2019-11-28 17:58:14 ESP12E-S1 8.60 8.12 99.90
18037 2019-11-28 17:29:59 ESP12E-S1 8.70 8.23 99.90
18036 2019-11-28 17:01:45 ESP12E-S1 9.00 8.56 99.90
18035 2019-11-28 16:33:23 ESP12E-S1 9.20 8.78 99.90
18034 2019-11-28 16:05:09 ESP12E-S1 9.30 8.89 99.90
18033 2019-11-28 15:36:54 ESP12E-S1 9.50 9.11 99.90
18032 2019-11-28 15:08:38 ESP12E-S1 9.60 9.22 99.90
18031 2019-11-28 14:40:21 ESP12E-S1 9.60 9.22 99.90
18030 2019-11-28 14:12:03 ESP12E-S1 9.60 9.22 99.90
18029 2019-11-28 13:43:47 ESP12E-S1 9.70 9.33 99.90
18028 2019-11-28 13:15:29 ESP12E-S1 9.70 9.33 99.90
18027 2019-11-28 12:47:06 ESP12E-S1 9.80 9.44 99.90
18026 2019-11-28 12:18:55 ESP12E-S1 10.10 9.77 99.90
18025 2019-11-28 11:50:44 ESP12E-S1 10.80 10.54 99.90
18024 2019-11-28 11:22:23 ESP12E-S1 9.90 9.55 99.90
18023 2019-11-28 10:54:05 ESP12E-S1 10.20 9.88 99.90
18022 2019-11-28 10:25:41 ESP12E-S1 9.20 8.78 99.90
18021 2019-11-28 09:57:20 ESP12E-S1 8.60 8.12 99.90
18020 2019-11-28 09:29:03 ESP12E-S1 8.20 7.68 99.90
18019 2019-11-28 09:00:45 ESP12E-S1 8.20 7.68 99.90
18018 2019-11-28 08:32:28 ESP12E-S1 8.00 7.46 99.90
18017 2019-11-28 08:04:12 ESP12E-S1 8.00 7.46 99.90
18016 2019-11-28 07:35:57 ESP12E-S1 7.90 7.35 99.90
18015 2019-11-28 07:07:42 ESP12E-S1 8.00 7.46 99.90
18014 2019-11-28 06:39:23 ESP12E-S1 7.90 7.35 99.90
18013 2019-11-28 06:11:07 ESP12E-S1 7.90 7.35 99.90
18012 2019-11-28 05:42:49 ESP12E-S1 7.90 7.35 99.90
18011 2019-11-28 05:14:33 ESP12E-S1 7.90 7.35 99.90
18010 2019-11-28 04:46:15 ESP12E-S1 7.90 7.35 99.90
18009 2019-11-28 04:18:00 ESP12E-S1 7.90 7.35 99.90
18008 2019-11-28 03:49:44 ESP12E-S1 8.00 7.46 99.90
18007 2019-11-28 03:21:30 ESP12E-S1 8.30 7.79 99.90
18006 2019-11-28 02:53:14 ESP12E-S1 8.50 8.01 99.90
18005 2019-11-28 02:24:59 ESP12E-S1 8.50 8.01 99.90
18004 2019-11-28 01:56:43 ESP12E-S1 8.60 8.12 99.90
18003 2019-11-28 01:28:26 ESP12E-S1 8.60 8.12 99.90
18002 2019-11-28 01:00:11 ESP12E-S1 8.60 8.12 99.90
18001 2019-11-28 00:31:55 ESP12E-S1 8.60 8.12 99.90
18000 2019-11-28 00:03:37 ESP12E-S1 8.60 8.12 99.90
17999 2019-11-27 23:35:19 ESP12E-S1 8.60 8.12 99.90
17998 2019-11-27 23:07:03 ESP12E-S1 8.70 8.23 99.90
17997 2019-11-27 22:38:49 ESP12E-S1 8.80 8.34 99.90
17996 2019-11-27 22:10:33 ESP12E-S1 8.80 8.34 99.90
17995 2019-11-27 21:42:16 ESP12E-S1 8.80 8.34 99.90
17994 2019-11-27 21:14:01 ESP12E-S1 8.80 8.34 99.90
17993 2019-11-27 20:45:45 ESP12E-S1 8.80 8.34 99.90
17992 2019-11-27 20:17:29 ESP12E-S1 8.80 8.34 99.90
17991 2019-11-27 19:49:13 ESP12E-S1 8.80 8.34 99.90
17990 2019-11-27 19:20:55 ESP12E-S1 8.80 8.34 99.90
17989 2019-11-27 18:52:39 ESP12E-S1 8.80 8.34 99.90
17988 2019-11-27 18:24:21 ESP12E-S1 8.80 8.34 99.90
17987 2019-11-27 17:56:04 ESP12E-S1 8.70 8.23 99.90
17986 2019-11-27 17:27:51 ESP12E-S1 8.70 8.23 99.90
17985 2019-11-27 16:59:36 ESP12E-S1 8.70 8.23 99.90
17984 2019-11-27 16:31:20 ESP12E-S1 8.70 8.23 99.90
17983 2019-11-27 16:03:04 ESP12E-S1 8.70 8.23 99.90
17982 2019-11-27 15:34:46 ESP12E-S1 8.60 8.12 99.90
17981 2019-11-27 15:06:28 ESP12E-S1 8.60 8.12 99.90
17980 2019-11-27 14:38:05 ESP12E-S1 8.50 8.01 99.90
17979 2019-11-27 14:09:52 ESP12E-S1 8.40 7.90 99.90
17978 2019-11-27 13:41:38 ESP12E-S1 8.30 7.79 99.90
17977 2019-11-27 13:13:19 ESP12E-S1 8.30 7.79 99.90
17976 2019-11-27 12:45:03 ESP12E-S1 8.30 7.79 99.90
17975 2019-11-27 12:16:45 ESP12E-S1 7.70 7.13 99.90
17974 2019-11-27 11:48:28 ESP12E-S1 7.60 7.02 99.90
17973 2019-11-27 11:20:08 ESP12E-S1 7.40 6.80 99.90
17972 2019-11-27 10:51:52 ESP12E-S1 7.20 6.58 99.90
17971 2019-11-27 10:23:34 ESP12E-S1 7.10 6.47 99.90
17970 2019-11-27 09:55:18 ESP12E-S1 7.10 6.47 99.90
17969 2019-11-27 09:27:02 ESP12E-S1 7.00 6.36 99.90
17968 2019-11-27 08:58:46 ESP12E-S1 7.00 6.36 99.90
17967 2019-11-27 08:30:31 ESP12E-S1 7.00 6.36 99.90
17966 2019-11-27 08:02:14 ESP12E-S1 7.00 6.36 99.90
17965 2019-11-27 07:33:58 ESP12E-S1 6.90 6.25 99.90
17964 2019-11-27 07:05:43 ESP12E-S1 6.90 6.25 99.90
17963 2019-11-27 06:37:27 ESP12E-S1 6.90 6.25 99.90
17962 2019-11-27 06:09:13 ESP12E-S1 6.90 6.25 99.90
17961 2019-11-27 05:40:58 ESP12E-S1 7.00 6.36 99.90
17960 2019-11-27 05:12:41 ESP12E-S1 7.00 6.36 99.90
17959 2019-11-27 04:44:28 ESP12E-S1 7.10 6.47 99.90
17958 2019-11-27 04:16:13 ESP12E-S1 7.20 6.58 99.90
17957 2019-11-27 03:47:56 ESP12E-S1 7.40 6.80 99.90
17956 2019-11-27 03:19:40 ESP12E-S1 7.40 6.80 99.90
17955 2019-11-27 02:51:22 ESP12E-S1 7.50 6.91 99.90
17954 2019-11-27 02:23:06 ESP12E-S1 7.50 6.91 99.90
17953 2019-11-27 01:54:51 ESP12E-S1 7.40 6.80 99.90
17952 2019-11-27 01:26:32 ESP12E-S1 7.40 6.80 99.90
17951 2019-11-27 00:58:16 ESP12E-S1 7.60 7.02 99.90
17950 2019-11-27 00:30:01 ESP12E-S1 7.70 7.13 99.90
17949 2019-11-27 00:01:46 ESP12E-S1 7.80 7.24 99.90
17948 2019-11-26 23:33:33 ESP12E-S1 7.90 7.35 99.90
17947 2019-11-26 23:05:18 ESP12E-S1 8.00 7.46 99.90
17946 2019-11-26 22:37:03 ESP12E-S1 8.00 7.46 99.90
17945 2019-11-26 22:08:44 ESP12E-S1 7.90 7.35 99.90
17944 2019-11-26 21:40:30 ESP12E-S1 8.00 7.46 99.90
17943 2019-11-26 21:12:13 ESP12E-S1 8.00 7.46 99.90
17942 2019-11-26 20:43:58 ESP12E-S1 7.90 7.35 99.90
17941 2019-11-26 20:15:42 ESP12E-S1 7.80 7.24 99.90
17940 2019-11-26 19:47:28 ESP12E-S1 7.80 7.24 99.90
17939 2019-11-26 19:19:04 ESP12E-S1 7.80 7.24 99.90
17938 2019-11-26 18:50:50 ESP12E-S1 7.80 7.24 99.90
17937 2019-11-26 18:22:35 ESP12E-S1 7.80 7.24 99.90
17936 2019-11-26 17:54:17 ESP12E-S1 7.70 7.13 99.90
17935 2019-11-26 17:26:02 ESP12E-S1 7.70 7.13 99.90
17934 2019-11-26 16:57:45 ESP12E-S1 7.60 7.02 99.90
17933 2019-11-26 16:29:29 ESP12E-S1 7.50 6.91 99.90
17932 2019-11-26 16:01:13 ESP12E-S1 7.50 6.91 99.90
17931 2019-11-26 15:32:57 ESP12E-S1 7.50 6.91 99.90
17930 2019-11-26 15:04:41 ESP12E-S1 7.40 6.80 99.90
17929 2019-11-26 14:36:32 ESP12E-S1 7.30 6.69 99.90
17928 2019-11-26 14:08:14 ESP12E-S1 7.30 6.69 99.90
17927 2019-11-26 13:39:57 ESP12E-S1 7.20 6.58 99.90
17926 2019-11-26 13:11:41 ESP12E-S1 7.00 6.36 99.90
17925 2019-11-26 12:43:17 ESP12E-S1 6.90 6.25 99.90
17924 2019-11-26 12:15:04 ESP12E-S1 6.80 6.14 99.90
17923 2019-11-26 11:46:48 ESP12E-S1 6.70 6.03 99.90
17922 2019-11-26 11:18:33 ESP12E-S1 6.60 5.92 99.90
17921 2019-11-26 10:50:08 ESP12E-S1 6.50 5.81 99.90
17920 2019-11-26 10:21:55 ESP12E-S1 6.50 5.81 99.90
17919 2019-11-26 09:53:40 ESP12E-S1 6.40 5.70 99.90
17918 2019-11-26 09:25:23 ESP12E-S1 6.30 5.59 99.90
17917 2019-11-26 08:57:04 ESP12E-S1 6.20 5.48 99.90
17916 2019-11-26 08:28:46 ESP12E-S1 6.10 5.37 99.90
17915 2019-11-26 08:00:30 ESP12E-S1 6.00 5.26 99.90
17914 2019-11-26 07:32:15 ESP12E-S1 6.00 5.26 99.90
17913 2019-11-26 07:04:00 ESP12E-S1 5.90 5.15 99.90
17912 2019-11-26 06:35:44 ESP12E-S1 5.90 5.15 99.90
17911 2019-11-26 06:07:29 ESP12E-S1 5.90 5.15 99.90
17910 2019-11-26 05:39:16 ESP12E-S1 5.90 5.15 99.90
17909 2019-11-26 05:11:01 ESP12E-S1 5.90 5.15 99.90
17908 2019-11-26 04:42:44 ESP12E-S1 5.80 5.04 99.90
17907 2019-11-26 04:14:26 ESP12E-S1 5.70 4.93 99.90
17906 2019-11-26 03:46:05 ESP12E-S1 5.80 5.04 99.90
17905 2019-11-26 03:17:52 ESP12E-S1 5.70 4.93 99.90
17904 2019-11-26 02:49:36 ESP12E-S1 5.70 4.93 99.90
17903 2019-11-26 02:21:19 ESP12E-S1 5.70 4.93 99.90
17902 2019-11-26 01:53:05 ESP12E-S1 5.70 4.93 99.90
17901 2019-11-26 01:24:51 ESP12E-S1 5.70 4.93 99.90
17900 2019-11-26 00:56:33 ESP12E-S1 5.60 4.82 99.90
17899 2019-11-26 00:28:18 ESP12E-S1 5.60 4.82 99.90
17898 2019-11-26 00:00:02 ESP12E-S1 5.60 4.82 99.90
17897 2019-11-25 23:31:46 ESP12E-S1 5.50 4.71 99.90
17896 2019-11-25 23:03:32 ESP12E-S1 5.30 4.49 99.90
17895 2019-11-25 22:35:17 ESP12E-S1 5.30 4.49 99.90
17894 2019-11-25 22:07:01 ESP12E-S1 5.30 4.49 99.90
17893 2019-11-25 21:38:43 ESP12E-S1 5.30 4.49 99.90
17892 2019-11-25 21:10:28 ESP12E-S1 5.30 4.49 99.90
17891 2019-11-25 20:42:14 ESP12E-S1 5.30 4.49 99.90
17890 2019-11-25 20:13:59 ESP12E-S1 5.30 4.49 99.90
17889 2019-11-25 19:45:45 ESP12E-S1 5.20 4.38 99.90
17888 2019-11-25 19:17:29 ESP12E-S1 5.10 4.27 99.90
17887 2019-11-25 18:49:13 ESP12E-S1 5.10 4.27 99.90
17886 2019-11-25 18:20:56 ESP12E-S1 5.10 4.27 99.90
17885 2019-11-25 17:52:40 ESP12E-S1 5.00 4.16 99.90
17884 2019-11-25 17:24:26 ESP12E-S1 5.10 4.27 99.90
17883 2019-11-25 16:56:03 ESP12E-S1 5.00 4.16 99.90
17882 2019-11-25 16:27:51 ESP12E-S1 5.00 4.16 99.90
17881 2019-11-25 15:59:37 ESP12E-S1 5.20 4.38 99.90
17880 2019-11-25 15:31:21 ESP12E-S1 5.10 4.27 99.90
17879 2019-11-25 15:03:06 ESP12E-S1 5.20 4.38 99.90
17878 2019-11-25 14:34:51 ESP12E-S1 5.20 4.38 99.90
17877 2019-11-25 14:06:33 ESP12E-S1 5.10 4.27 99.90
17876 2019-11-25 13:38:18 ESP12E-S1 5.20 4.38 99.90
17875 2019-11-25 13:10:01 ESP12E-S1 5.10 4.27 99.90
17874 2019-11-25 12:41:47 ESP12E-S1 5.20 4.38 99.90
17873 2019-11-25 12:13:32 ESP12E-S1 5.20 4.38 99.90
17872 2019-11-25 11:45:16 ESP12E-S1 5.10 4.27 99.90
17871 2019-11-25 11:17:00 ESP12E-S1 5.00 4.16 99.90
17870 2019-11-25 10:48:45 ESP12E-S1 4.90 4.05 99.90
17869 2019-11-25 10:20:29 ESP12E-S1 4.90 4.05 99.90
17868 2019-11-25 09:52:13 ESP12E-S1 4.80 3.94 99.90
17867 2019-11-25 09:24:00 ESP12E-S1 4.70 3.83 99.90
17866 2019-11-25 08:55:42 ESP12E-S1 4.60 3.72 99.90
17865 2019-11-25 08:27:28 ESP12E-S1 4.70 3.83 99.90
17864 2019-11-25 07:59:13 ESP12E-S1 4.70 3.83 99.90
17863 2019-11-25 07:30:58 ESP12E-S1 4.70 3.83 99.90
17862 2019-11-25 07:02:42 ESP12E-S1 4.60 3.72 99.90
17861 2019-11-25 06:34:25 ESP12E-S1 4.50 3.61 99.90
17860 2019-11-25 06:06:10 ESP12E-S1 4.40 3.50 99.90
17859 2019-11-25 05:37:54 ESP12E-S1 4.30 3.39 99.90
17858 2019-11-25 05:09:39 ESP12E-S1 4.20 3.28 99.90
17857 2019-11-25 04:41:25 ESP12E-S1 4.10 3.17 99.90
17856 2019-11-25 04:13:11 ESP12E-S1 4.30 3.39 99.90
17855 2019-11-25 03:44:57 ESP12E-S1 4.30 3.39 99.90
17854 2019-11-25 03:16:41 ESP12E-S1 4.30 3.39 99.90
17853 2019-11-25 02:48:27 ESP12E-S1 4.40 3.50 99.90
17852 2019-11-25 02:20:14 ESP12E-S1 4.60 3.72 99.90
17851 2019-11-25 01:52:00 ESP12E-S1 4.80 3.94 99.90
17850 2019-11-25 01:23:47 ESP12E-S1 5.10 4.27 99.90
17849 2019-11-25 00:55:33 ESP12E-S1 5.30 4.49 99.90
17848 2019-11-25 00:27:20 ESP12E-S1 5.50 4.71 99.90
17847 2019-11-24 23:59:07 ESP12E-S1 5.60 4.82 99.90
17846 2019-11-24 23:30:52 ESP12E-S1 5.70 4.93 99.90
17845 2019-11-24 23:02:36 ESP12E-S1 5.80 5.04 99.90
17844 2019-11-24 22:34:22 ESP12E-S1 5.80 5.04 99.90
17843 2019-11-24 22:06:06 ESP12E-S1 5.80 5.04 99.90
17842 2019-11-24 21:37:53 ESP12E-S1 5.80 5.04 99.90
17841 2019-11-24 21:09:40 ESP12E-S1 5.80 5.04 99.90
17840 2019-11-24 20:41:25 ESP12E-S1 5.90 5.15 99.90
17839 2019-11-24 20:13:13 ESP12E-S1 5.90 5.15 99.90
17838 2019-11-24 19:44:59 ESP12E-S1 6.10 5.37 99.90
17837 2019-11-24 19:16:45 ESP12E-S1 6.20 5.48 99.90
17836 2019-11-24 18:48:30 ESP12E-S1 6.30 5.59 99.90
17835 2019-11-24 18:20:18 ESP12E-S1 6.60 5.92 99.90
17834 2019-11-24 17:52:04 ESP12E-S1 7.00 6.36 99.90
17833 2019-11-24 17:23:52 ESP12E-S1 7.40 6.80 99.90
17832 2019-11-24 16:55:38 ESP12E-S1 7.80 7.24 99.90
17831 2019-11-24 16:27:29 ESP12E-S1 8.50 8.01 99.90
17830 2019-11-24 15:59:18 ESP12E-S1 9.40 9.00 99.90
17829 2019-11-24 15:31:13 ESP12E-S1 10.70 10.43 99.90
17828 2019-11-24 15:02:48 ESP12E-S1 10.60 10.32 99.90
17827 2019-11-24 14:34:40 ESP12E-S1 11.30 11.09 99.90
17826 2019-11-24 14:06:16 ESP12E-S1 10.10 9.77 99.90
17825 2019-11-24 13:38:00 ESP12E-S1 10.10 9.77 99.90
17824 2019-11-24 13:09:38 ESP12E-S1 9.70 9.33 99.90
17823 2019-11-24 12:41:25 ESP12E-S1 9.20 8.78 99.90
17822 2019-11-24 12:13:12 ESP12E-S1 9.30 8.89 99.90
17821 2019-11-24 11:44:53 ESP12E-S1 8.50 8.01 99.90
17820 2019-11-24 11:16:34 ESP12E-S1 8.20 7.68 99.90
17819 2019-11-24 10:48:15 ESP12E-S1 7.70 7.13 99.90
17818 2019-11-24 10:19:48 ESP12E-S1 7.20 6.58 99.90
17817 2019-11-24 09:51:33 ESP12E-S1 6.80 6.14 99.90
17816 2019-11-24 09:23:16 ESP12E-S1 6.50 5.81 99.90
17815 2019-11-24 08:54:58 ESP12E-S1 6.20 5.48 99.90
17814 2019-11-24 08:26:45 ESP12E-S1 6.00 5.26 99.90
17813 2019-11-24 07:58:27 ESP12E-S1 6.00 5.26 99.90
17812 2019-11-24 07:30:15 ESP12E-S1 5.90 5.15 99.90
17811 2019-11-24 07:02:01 ESP12E-S1 6.20 5.48 99.90
17810 2019-11-24 06:33:49 ESP12E-S1 6.40 5.70 99.90
17809 2019-11-24 06:05:31 ESP12E-S1 6.50 5.81 99.90
17808 2019-11-24 05:37:15 ESP12E-S1 6.60 5.92 99.90
17807 2019-11-24 05:09:01 ESP12E-S1 6.70 6.03 99.90
17806 2019-11-24 04:40:48 ESP12E-S1 6.80 6.14 99.90
17805 2019-11-24 04:12:27 ESP12E-S1 6.90 6.25 99.90
17804 2019-11-24 03:44:16 ESP12E-S1 7.00 6.36 99.90
17803 2019-11-24 03:15:54 ESP12E-S1 7.10 6.47 99.90
17802 2019-11-24 02:47:41 ESP12E-S1 7.00 6.36 99.90
17801 2019-11-24 02:19:26 ESP12E-S1 7.10 6.47 99.90
17800 2019-11-24 01:51:14 ESP12E-S1 7.30 6.69 99.90
17799 2019-11-24 01:23:00 ESP12E-S1 7.70 7.13 99.90
17798 2019-11-24 00:54:48 ESP12E-S1 7.80 7.24 99.90
17797 2019-11-24 00:26:34 ESP12E-S1 7.90 7.35 99.90
17796 2019-11-23 23:58:18 ESP12E-S1 8.00 7.46 99.90
17795 2019-11-23 23:30:03 ESP12E-S1 8.10 7.57 99.90
17794 2019-11-23 23:01:50 ESP12E-S1 8.20 7.68 99.90
17793 2019-11-23 22:33:36 ESP12E-S1 8.30 7.79 99.90
17792 2019-11-23 22:05:22 ESP12E-S1 8.30 7.79 99.90
17791 2019-11-23 21:37:07 ESP12E-S1 8.40 7.90 99.90
17790 2019-11-23 21:08:52 ESP12E-S1 8.50 8.01 99.90
17789 2019-11-23 20:40:31 ESP12E-S1 8.50 8.01 99.90
17788 2019-11-23 20:12:19 ESP12E-S1 8.50 8.01 99.90
17787 2019-11-23 19:43:56 ESP12E-S1 8.50 8.01 99.90
17786 2019-11-23 19:15:43 ESP12E-S1 8.50 8.01 99.90
17785 2019-11-23 18:47:30 ESP12E-S1 8.60 8.12 99.90
17784 2019-11-23 18:19:15 ESP12E-S1 8.60 8.12 99.90
17783 2019-11-23 17:51:02 ESP12E-S1 8.60 8.12 99.90
17782 2019-11-23 17:22:39 ESP12E-S1 8.70 8.23 99.90
17781 2019-11-23 16:54:26 ESP12E-S1 8.90 8.45 99.90
17780 2019-11-23 16:26:14 ESP12E-S1 9.10 8.67 99.90
17779 2019-11-23 15:57:58 ESP12E-S1 9.50 9.11 99.90
17778 2019-11-23 15:29:47 ESP12E-S1 10.00 9.66 99.90
17777 2019-11-23 15:01:32 ESP12E-S1 10.10 9.77 99.90
17776 2019-11-23 14:33:18 ESP12E-S1 9.90 9.55 99.90
17775 2019-11-23 14:05:06 ESP12E-S1 10.20 9.88 99.90
17774 2019-11-23 13:36:46 ESP12E-S1 10.60 10.32 99.90
17773 2019-11-23 13:08:33 ESP12E-S1 10.60 10.32 99.90
17772 2019-11-23 12:40:15 ESP12E-S1 10.20 9.88 99.90
17771 2019-11-23 12:12:11 ESP12E-S1 11.20 10.98 99.90
17770 2019-11-23 11:43:26 ESP12E-S1 9.10 8.67 99.90
17769 2019-11-23 11:15:01 ESP12E-S1 7.50 6.91 99.90
17768 2019-11-23 10:46:41 ESP12E-S1 6.70 6.03 99.90
17767 2019-11-23 10:18:22 ESP12E-S1 6.20 5.48 99.90
17766 2019-11-23 09:50:06 ESP12E-S1 5.90 5.15 99.90
17765 2019-11-23 09:21:48 ESP12E-S1 5.60 4.82 99.90
17764 2019-11-23 08:53:32 ESP12E-S1 5.20 4.38 99.90
17763 2019-11-23 08:25:14 ESP12E-S1 5.00 4.16 99.90
17762 2019-11-23 07:57:00 ESP12E-S1 4.90 4.05 99.90
17761 2019-11-23 07:28:44 ESP12E-S1 4.80 3.94 99.90
17760 2019-11-23 07:00:29 ESP12E-S1 4.70 3.83 99.90
17759 2019-11-23 06:32:15 ESP12E-S1 4.60 3.72 99.90
17758 2019-11-23 06:03:51 ESP12E-S1 4.50 3.61 99.90
17757 2019-11-23 05:35:38 ESP12E-S1 4.40 3.50 99.90
17756 2019-11-23 05:07:25 ESP12E-S1 4.30 3.39 99.90
17755 2019-11-23 04:39:10 ESP12E-S1 4.20 3.28 99.90
17754 2019-11-23 04:10:54 ESP12E-S1 4.20 3.28 99.90
17753 2019-11-23 03:42:45 ESP12E-S1 4.20 3.28 99.90
17752 2019-11-23 03:14:26 ESP12E-S1 4.20 3.28 99.90
17751 2019-11-23 02:46:15 ESP12E-S1 4.30 3.39 99.90
17750 2019-11-23 02:18:05 ESP12E-S1 4.20 3.28 99.90
17749 2019-11-23 01:49:40 ESP12E-S1 4.10 3.17 99.90
17748 2019-11-23 01:21:42 ESP12E-S1 4.20 3.28 99.90
17747 2019-11-23 00:53:18 ESP12E-S1 4.10 3.17 99.90
17746 2019-11-23 00:25:04 ESP12E-S1 4.10 3.17 99.90
17745 2019-11-22 23:56:52 ESP12E-S1 4.10 3.17 99.90
17744 2019-11-22 23:28:46 ESP12E-S1 4.10 3.17 99.90
17743 2019-11-22 23:00:40 ESP12E-S1 4.10 3.17 99.90
17742 2019-11-22 22:32:16 ESP12E-S1 4.10 3.17 99.90
17741 2019-11-22 22:04:03 ESP12E-S1 4.10 3.17 99.90
17740 2019-11-22 21:35:49 ESP12E-S1 4.10 3.17 99.90
17739 2019-11-22 21:07:35 ESP12E-S1 4.20 3.28 99.90
17738 2019-11-22 20:39:22 ESP12E-S1 4.20 3.28 99.90
17737 2019-11-22 20:11:01 ESP12E-S1 4.30 3.39 99.90
17736 2019-11-22 19:42:49 ESP12E-S1 4.40 3.50 99.90
17735 2019-11-22 19:14:26 ESP12E-S1 4.40 3.50 99.90
17734 2019-11-22 18:46:15 ESP12E-S1 4.50 3.61 99.90
17733 2019-11-22 18:18:01 ESP12E-S1 4.50 3.61 99.90
17732 2019-11-22 17:49:46 ESP12E-S1 4.50 3.61 99.90
17731 2019-11-22 17:21:32 ESP12E-S1 4.50 3.61 99.90
17730 2019-11-22 16:53:17 ESP12E-S1 4.60 3.72 99.90
17729 2019-11-22 16:24:59 ESP12E-S1 4.60 3.72 99.90
17728 2019-11-22 15:56:45 ESP12E-S1 4.70 3.83 99.90
17727 2019-11-22 15:28:31 ESP12E-S1 4.80 3.94 99.90
17726 2019-11-22 15:00:15 ESP12E-S1 4.80 3.94 99.90
17725 2019-11-22 14:32:03 ESP12E-S1 4.70 3.83 99.90
17724 2019-11-22 14:03:48 ESP12E-S1 4.60 3.72 99.90
17723 2019-11-22 13:35:34 ESP12E-S1 4.70 3.83 99.90
17722 2019-11-22 13:07:20 ESP12E-S1 4.60 3.72 99.90
17721 2019-11-22 12:39:07 ESP12E-S1 4.60 3.72 99.90
17720 2019-11-22 12:11:05 ESP12E-S1 4.50 3.61 99.90
17719 2019-11-22 11:42:40 ESP12E-S1 4.20 3.28 99.90
17718 2019-11-22 11:14:24 ESP12E-S1 4.00 3.06 99.90
17717 2019-11-22 10:46:08 ESP12E-S1 3.90 2.95 99.90
17716 2019-11-22 10:18:04 ESP12E-S1 3.90 2.95 99.90
17715 2019-11-22 09:50:01 ESP12E-S1 3.80 2.84 99.90
17714 2019-11-22 09:21:34 ESP12E-S1 3.80 2.84 99.90
17713 2019-11-22 08:53:18 ESP12E-S1 3.70 2.73 99.90
17712 2019-11-22 08:25:04 ESP12E-S1 3.60 2.62 99.90
17711 2019-11-22 07:56:42 ESP12E-S1 3.60 2.62 99.90
17710 2019-11-22 07:28:31 ESP12E-S1 3.70 2.73 99.90
17709 2019-11-22 07:00:17 ESP12E-S1 3.80 2.84 99.90
17708 2019-11-22 06:31:54 ESP12E-S1 3.80 2.84 99.90
17707 2019-11-22 06:03:42 ESP12E-S1 3.90 2.95 99.90
17706 2019-11-22 05:35:25 ESP12E-S1 3.90 2.95 99.90
17705 2019-11-22 05:07:10 ESP12E-S1 3.80 2.84 99.90
17704 2019-11-22 04:38:56 ESP12E-S1 3.70 2.73 99.90
17703 2019-11-22 04:10:42 ESP12E-S1 4.00 3.06 99.90
17702 2019-11-22 03:42:24 ESP12E-S1 4.00 3.06 99.90
17701 2019-11-22 03:14:11 ESP12E-S1 3.90 2.95 99.90
17700 2019-11-22 02:45:57 ESP12E-S1 3.90 2.95 99.90
17699 2019-11-22 02:17:43 ESP12E-S1 3.90 2.95 99.90
17698 2019-11-22 01:49:20 ESP12E-S1 3.80 2.84 99.90
17697 2019-11-22 01:21:08 ESP12E-S1 3.70 2.73 99.90
17696 2019-11-22 00:52:55 ESP12E-S1 3.80 2.84 99.90
17695 2019-11-22 00:24:42 ESP12E-S1 3.90 2.95 99.90
17694 2019-11-21 23:56:27 ESP12E-S1 3.90 2.95 99.90
17693 2019-11-21 23:28:13 ESP12E-S1 3.90 2.95 99.90
17692 2019-11-21 22:59:59 ESP12E-S1 4.00 3.06 99.90
17691 2019-11-21 22:31:47 ESP12E-S1 4.20 3.28 99.90
17690 2019-11-21 22:03:27 ESP12E-S1 4.50 3.61 99.90
17689 2019-11-21 21:35:16 ESP12E-S1 4.80 3.94 99.90
17688 2019-11-21 21:07:09 ESP12E-S1 4.90 4.05 99.90
17687 2019-11-21 20:38:52 ESP12E-S1 5.00 4.16 99.90
17686 2019-11-21 20:10:40 ESP12E-S1 5.10 4.27 99.90
17685 2019-11-21 19:42:25 ESP12E-S1 5.20 4.38 99.90
17684 2019-11-21 19:14:07 ESP12E-S1 5.10 4.27 99.90
17683 2019-11-21 18:45:51 ESP12E-S1 5.00 4.16 99.90
17682 2019-11-21 18:17:36 ESP12E-S1 5.10 4.27 99.90
17681 2019-11-21 17:49:26 ESP12E-S1 5.20 4.38 99.90
17680 2019-11-21 17:21:11 ESP12E-S1 5.30 4.49 99.90
17679 2019-11-21 16:52:57 ESP12E-S1 5.30 4.49 99.90
17678 2019-11-21 16:24:44 ESP12E-S1 5.50 4.71 99.90
17677 2019-11-21 15:56:32 ESP12E-S1 5.80 5.04 99.90
17676 2019-11-21 15:28:19 ESP12E-S1 6.20 5.48 99.90
17675 2019-11-21 15:00:04 ESP12E-S1 6.50 5.81 99.90
17674 2019-11-21 14:31:53 ESP12E-S1 6.50 5.81 99.90
17673 2019-11-21 14:03:41 ESP12E-S1 6.60 5.92 99.90
17672 2019-11-21 13:35:26 ESP12E-S1 6.70 6.03 99.90
17671 2019-11-21 13:07:15 ESP12E-S1 6.90 6.25 99.90
17670 2019-11-21 12:39:00 ESP12E-S1 6.90 6.25 99.90
17669 2019-11-21 12:10:44 ESP12E-S1 6.70 6.03 99.90
17668 2019-11-21 11:42:17 ESP12E-S1 6.10 5.37 99.90
17667 2019-11-21 11:14:01 ESP12E-S1 5.60 4.82 99.90
17666 2019-11-21 10:45:32 ESP12E-S1 4.80 3.94 99.90
17665 2019-11-21 10:17:12 ESP12E-S1 4.10 3.17 99.90
17664 2019-11-21 09:48:57 ESP12E-S1 3.90 2.95 99.90
17663 2019-11-21 09:20:41 ESP12E-S1 3.70 2.73 99.90
17662 2019-11-21 08:52:24 ESP12E-S1 3.30 2.29 99.90
17661 2019-11-21 08:24:09 ESP12E-S1 3.20 2.18 99.90
17660 2019-11-21 07:55:52 ESP12E-S1 3.00 1.96 99.90
17659 2019-11-21 07:27:39 ESP12E-S1 2.90 1.85 99.90
17658 2019-11-21 06:59:42 ESP12E-S1 3.00 1.96 99.90
17657 2019-11-21 06:31:19 ESP12E-S1 3.00 1.96 99.90
17656 2019-11-21 06:03:04 ESP12E-S1 2.90 1.85 99.90
17655 2019-11-21 05:34:52 ESP12E-S1 2.90 1.85 99.90
17654 2019-11-21 05:06:30 ESP12E-S1 2.90 1.85 99.90
17653 2019-11-21 04:38:17 ESP12E-S1 2.90 1.85 99.90
17652 2019-11-21 04:10:03 ESP12E-S1 2.80 1.74 99.90
17651 2019-11-21 03:41:48 ESP12E-S1 2.60 1.52 99.90
17650 2019-11-21 03:13:34 ESP12E-S1 2.30 1.19 99.90
17649 2019-11-21 02:45:19 ESP12E-S1 2.20 1.08 99.90
17648 2019-11-21 02:17:07 ESP12E-S1 2.40 1.30 99.90
17647 2019-11-21 01:48:58 ESP12E-S1 2.90 1.85 99.90
17646 2019-11-21 01:20:46 ESP12E-S1 3.20 2.18 99.90
17645 2019-11-21 00:52:31 ESP12E-S1 3.40 2.40 99.90
17644 2019-11-21 00:24:15 ESP12E-S1 3.30 2.29 99.90
17643 2019-11-20 23:56:02 ESP12E-S1 3.30 2.29 99.90
17642 2019-11-20 23:27:49 ESP12E-S1 3.30 2.29 99.90
17641 2019-11-20 22:59:38 ESP12E-S1 3.40 2.40 99.90
17640 2019-11-20 22:31:25 ESP12E-S1 3.40 2.40 99.90
17639 2019-11-20 22:03:27 ESP12E-S1 3.60 2.62 99.90
17638 2019-11-20 21:35:04 ESP12E-S1 3.60 2.62 99.90
17637 2019-11-20 21:06:51 ESP12E-S1 3.70 2.73 99.90
17636 2019-11-20 20:38:30 ESP12E-S1 3.90 2.95 99.90
17635 2019-11-20 20:10:22 ESP12E-S1 4.20 3.28 99.90
17634 2019-11-20 19:42:10 ESP12E-S1 4.60 3.72 99.90
17633 2019-11-20 19:13:55 ESP12E-S1 4.80 3.94 99.90
17632 2019-11-20 18:45:43 ESP12E-S1 5.00 4.16 99.90
17631 2019-11-20 18:17:22 ESP12E-S1 5.10 4.27 99.90
17630 2019-11-20 17:49:13 ESP12E-S1 5.30 4.49 99.90
17629 2019-11-20 17:21:00 ESP12E-S1 5.60 4.82 99.90
17628 2019-11-20 16:52:46 ESP12E-S1 5.80 5.04 99.90
17627 2019-11-20 16:24:35 ESP12E-S1 6.30 5.59 99.90
17626 2019-11-20 15:56:28 ESP12E-S1 7.20 6.47 95.50
17625 2019-11-20 15:28:34 ESP12E-S1 10.20 9.27 76.30
17624 2019-11-20 14:59:48 ESP12E-S1 7.60 7.00 98.80
17623 2019-11-20 14:31:51 ESP12E-S1 9.70 9.05 89.00
17622 2019-11-20 14:03:25 ESP12E-S1 9.90 9.34 91.60
17621 2019-11-20 13:35:14 ESP12E-S1 9.20 8.78 99.90
17620 2019-11-20 13:06:54 ESP12E-S1 8.40 7.90 99.90
17619 2019-11-20 12:38:41 ESP12E-S1 8.60 8.12 99.90
17618 2019-11-20 12:10:46 ESP12E-S1 10.70 10.32 95.40
17617 2019-11-20 11:42:02 ESP12E-S1 8.40 7.90 99.90
17616 2019-11-20 11:13:41 ESP12E-S1 7.50 6.91 99.90
17615 2019-11-20 10:45:20 ESP12E-S1 6.60 5.92 99.90
17614 2019-11-20 10:16:56 ESP12E-S1 5.20 4.38 99.90
17613 2019-11-20 09:48:46 ESP12E-S1 4.20 3.28 99.90
17612 2019-11-20 09:20:22 ESP12E-S1 3.60 2.62 99.90
17611 2019-11-20 08:52:08 ESP12E-S1 3.40 2.40 99.90
17610 2019-11-20 08:23:55 ESP12E-S1 3.30 2.29 99.90
17609 2019-11-20 07:55:39 ESP12E-S1 3.10 2.07 99.90
17608 2019-11-20 07:27:24 ESP12E-S1 3.00 1.96 99.90
17607 2019-11-20 06:59:03 ESP12E-S1 3.00 1.96 99.90
17606 2019-11-20 06:30:54 ESP12E-S1 3.10 2.07 99.90
17605 2019-11-20 06:02:39 ESP12E-S1 3.10 2.07 99.90
17604 2019-11-20 05:34:26 ESP12E-S1 2.90 1.85 99.90
17603 2019-11-20 05:06:11 ESP12E-S1 2.50 1.41 99.90
17602 2019-11-20 04:37:57 ESP12E-S1 2.30 1.19 99.90
17601 2019-11-20 04:09:44 ESP12E-S1 2.50 1.41 99.90
17600 2019-11-20 03:41:33 ESP12E-S1 2.80 1.74 99.90
17599 2019-11-20 03:13:11 ESP12E-S1 3.20 2.18 99.90
17598 2019-11-20 02:45:02 ESP12E-S1 3.30 2.29 99.90
17597 2019-11-20 02:16:49 ESP12E-S1 3.70 2.73 99.90
17596 2019-11-20 01:48:39 ESP12E-S1 4.00 3.06 99.90
17595 2019-11-20 01:20:26 ESP12E-S1 4.00 3.06 99.90
17594 2019-11-20 00:52:11 ESP12E-S1 3.80 2.84 99.90
17593 2019-11-20 00:23:54 ESP12E-S1 3.80 2.84 99.90
17592 2019-11-19 23:55:34 ESP12E-S1 3.70 2.73 99.90
17591 2019-11-19 23:27:15 ESP12E-S1 3.60 2.62 99.90
17590 2019-11-19 22:59:03 ESP12E-S1 3.80 2.84 99.90
17589 2019-11-19 22:30:44 ESP12E-S1 4.10 3.17 99.90
17588 2019-11-19 22:02:45 ESP12E-S1 4.10 3.17 99.90
17587 2019-11-19 21:34:41 ESP12E-S1 4.30 3.39 99.90
17586 2019-11-19 21:06:23 ESP12E-S1 4.60 3.72 99.90
17585 2019-11-19 20:38:11 ESP12E-S1 4.90 4.05 99.90
17584 2019-11-19 20:10:00 ESP12E-S1 5.10 4.27 99.90
17583 2019-11-19 19:41:47 ESP12E-S1 5.10 4.27 99.90
17582 2019-11-19 19:13:25 ESP12E-S1 5.20 4.38 99.90
17581 2019-11-19 18:45:15 ESP12E-S1 5.40 4.60 99.90
17580 2019-11-19 18:17:02 ESP12E-S1 5.60 4.82 99.90
17579 2019-11-19 17:48:40 ESP12E-S1 5.80 5.04 99.90
17578 2019-11-19 17:20:30 ESP12E-S1 6.00 5.26 99.90
17577 2019-11-19 16:52:18 ESP12E-S1 6.50 5.81 99.90
17576 2019-11-19 16:24:13 ESP12E-S1 7.70 7.13 99.90
17575 2019-11-19 15:56:13 ESP12E-S1 9.70 9.08 90.00
17574 2019-11-19 15:27:57 ESP12E-S1 12.50 12.04 85.70
17573 2019-11-19 14:59:28 ESP12E-S1 8.90 8.45 99.90
17572 2019-11-19 14:31:10 ESP12E-S1 7.70 7.13 99.90
17571 2019-11-19 14:03:00 ESP12E-S1 8.40 7.90 99.90
17570 2019-11-19 13:34:38 ESP12E-S1 7.70 7.13 99.90
17569 2019-11-19 13:06:29 ESP12E-S1 8.20 7.68 99.90
17568 2019-11-19 12:38:17 ESP12E-S1 8.90 8.45 99.90
17567 2019-11-19 12:09:59 ESP12E-S1 9.00 8.56 99.90
17566 2019-11-19 11:41:26 ESP12E-S1 7.70 7.13 99.90
17565 2019-11-19 11:13:02 ESP12E-S1 6.20 5.48 99.90
17564 2019-11-19 10:44:36 ESP12E-S1 5.30 4.49 99.90
17563 2019-11-19 10:16:20 ESP12E-S1 4.80 3.94 99.90
17562 2019-11-19 09:48:15 ESP12E-S1 4.40 3.50 99.90
17561 2019-11-19 09:19:55 ESP12E-S1 4.20 3.28 99.90
17560 2019-11-19 08:51:41 ESP12E-S1 4.10 3.17 99.90
17559 2019-11-19 08:23:26 ESP12E-S1 4.00 3.06 99.90
17558 2019-11-19 07:55:13 ESP12E-S1 3.90 2.95 99.90
17557 2019-11-19 07:27:00 ESP12E-S1 3.80 2.84 99.90
17556 2019-11-19 06:58:46 ESP12E-S1 3.80 2.84 99.90
17555 2019-11-19 06:30:33 ESP12E-S1 3.80 2.84 99.90
17554 2019-11-19 06:02:20 ESP12E-S1 3.80 2.84 99.90
17553 2019-11-19 05:34:06 ESP12E-S1 3.80 2.84 99.90
17552 2019-11-19 05:05:53 ESP12E-S1 3.80 2.84 99.90
17551 2019-11-19 04:37:41 ESP12E-S1 3.70 2.73 99.90
17550 2019-11-19 04:09:28 ESP12E-S1 3.60 2.62 99.90
17549 2019-11-19 03:41:10 ESP12E-S1 3.50 2.51 99.90
17548 2019-11-19 03:13:11 ESP12E-S1 3.40 2.40 99.90
17547 2019-11-19 02:44:52 ESP12E-S1 3.30 2.29 99.90
17546 2019-11-19 02:16:37 ESP12E-S1 3.20 2.18 99.90
17545 2019-11-19 01:48:23 ESP12E-S1 3.10 2.07 99.90
17544 2019-11-19 01:20:12 ESP12E-S1 3.00 1.96 99.90
17543 2019-11-19 00:52:01 ESP12E-S1 3.00 1.96 99.90
17542 2019-11-19 00:24:08 ESP12E-S1 2.90 1.85 99.90
17541 2019-11-18 23:55:43 ESP12E-S1 2.90 1.85 99.90
17540 2019-11-18 23:27:29 ESP12E-S1 2.90 1.85 99.90
17539 2019-11-18 22:59:16 ESP12E-S1 3.10 2.07 99.90
17538 2019-11-18 22:31:04 ESP12E-S1 3.20 2.18 99.90
17537 2019-11-18 22:02:53 ESP12E-S1 3.30 2.29 99.90
17536 2019-11-18 21:34:41 ESP12E-S1 3.40 2.40 99.90
17535 2019-11-18 21:06:26 ESP12E-S1 3.40 2.40 99.90
17534 2019-11-18 20:38:14 ESP12E-S1 3.60 2.62 99.90
17533 2019-11-18 20:10:03 ESP12E-S1 3.60 2.62 99.90
17532 2019-11-18 19:41:49 ESP12E-S1 3.60 2.62 99.90
17531 2019-11-18 19:13:36 ESP12E-S1 3.70 2.73 99.90
17530 2019-11-18 18:45:23 ESP12E-S1 3.70 2.73 99.90
17529 2019-11-18 18:17:11 ESP12E-S1 3.70 2.73 99.90
17528 2019-11-18 17:48:57 ESP12E-S1 3.80 2.84 99.90
17527 2019-11-18 17:20:42 ESP12E-S1 3.90 2.95 99.90
17526 2019-11-18 16:52:27 ESP12E-S1 3.90 2.95 99.90
17525 2019-11-18 16:24:16 ESP12E-S1 4.00 3.06 99.90
17524 2019-11-18 15:56:03 ESP12E-S1 4.10 3.17 99.90
17523 2019-11-18 15:27:51 ESP12E-S1 4.10 3.17 99.90
17522 2019-11-18 14:59:37 ESP12E-S1 4.20 3.28 99.90
17521 2019-11-18 14:31:26 ESP12E-S1 4.20 3.28 99.90
17520 2019-11-18 14:03:13 ESP12E-S1 4.40 3.50 99.90
17519 2019-11-18 13:34:55 ESP12E-S1 4.50 3.61 99.90
17518 2019-11-18 13:06:44 ESP12E-S1 4.60 3.72 99.90
17517 2019-11-18 12:38:31 ESP12E-S1 4.70 3.83 99.90
17516 2019-11-18 12:10:18 ESP12E-S1 4.80 3.94 99.90
17515 2019-11-18 11:42:05 ESP12E-S1 4.80 3.94 99.90
17514 2019-11-18 11:13:52 ESP12E-S1 4.90 4.05 99.90
17513 2019-11-18 10:45:40 ESP12E-S1 4.80 3.94 99.90
17512 2019-11-18 10:17:26 ESP12E-S1 4.90 4.05 99.90
17511 2019-11-18 09:49:14 ESP12E-S1 4.90 4.05 99.90
17510 2019-11-18 09:21:05 ESP12E-S1 4.90 4.05 99.90
17509 2019-11-18 08:52:52 ESP12E-S1 5.00 4.16 99.90
17508 2019-11-18 08:24:29 ESP12E-S1 5.10 4.27 99.90
17507 2019-11-18 07:56:16 ESP12E-S1 5.10 4.27 99.90
17506 2019-11-18 07:27:59 ESP12E-S1 5.20 4.38 99.90
17505 2019-11-18 06:59:46 ESP12E-S1 5.20 4.38 99.90
17504 2019-11-18 06:31:30 ESP12E-S1 5.30 4.49 99.90
17503 2019-11-18 06:03:19 ESP12E-S1 5.30 4.49 99.90
17502 2019-11-18 05:35:07 ESP12E-S1 5.30 4.49 99.90
17501 2019-11-18 05:06:56 ESP12E-S1 5.40 4.60 99.90
17500 2019-11-18 04:38:44 ESP12E-S1 5.50 4.71 99.90
17499 2019-11-18 04:10:22 ESP12E-S1 5.70 4.93 99.90
17498 2019-11-18 03:42:11 ESP12E-S1 5.70 4.93 99.90
17497 2019-11-18 03:13:58 ESP12E-S1 5.80 5.04 99.90
17496 2019-11-18 02:45:45 ESP12E-S1 5.80 5.04 99.90
17495 2019-11-18 02:17:33 ESP12E-S1 5.80 5.04 99.90
17494 2019-11-18 01:49:18 ESP12E-S1 5.90 5.15 99.90
17493 2019-11-18 01:20:59 ESP12E-S1 5.90 5.15 99.90
17492 2019-11-18 00:52:48 ESP12E-S1 6.10 5.37 99.90
17491 2019-11-18 00:24:33 ESP12E-S1 6.00 5.26 99.90
17490 2019-11-17 23:56:21 ESP12E-S1 6.00 5.26 99.90
17489 2019-11-17 23:28:06 ESP12E-S1 6.00 5.26 99.90
17488 2019-11-17 22:59:49 ESP12E-S1 6.00 5.26 99.90
17487 2019-11-17 22:31:39 ESP12E-S1 6.10 5.37 99.90
17486 2019-11-17 22:03:15 ESP12E-S1 6.10 5.37 99.90
17485 2019-11-17 21:35:03 ESP12E-S1 6.10 5.37 99.90
17484 2019-11-17 21:06:43 ESP12E-S1 6.20 5.48 99.90
17483 2019-11-17 20:38:24 ESP12E-S1 6.30 5.59 99.90
17482 2019-11-17 20:10:14 ESP12E-S1 6.40 5.70 99.90
17481 2019-11-17 19:42:00 ESP12E-S1 6.50 5.81 99.90
17480 2019-11-17 19:13:48 ESP12E-S1 6.40 5.70 99.90
17479 2019-11-17 18:45:26 ESP12E-S1 6.30 5.59 99.90
17478 2019-11-17 18:17:16 ESP12E-S1 6.40 5.70 99.90
17477 2019-11-17 17:49:02 ESP12E-S1 6.30 5.59 99.90
17476 2019-11-17 17:20:44 ESP12E-S1 6.30 5.59 99.90
17475 2019-11-17 16:52:32 ESP12E-S1 6.30 5.59 99.90
17474 2019-11-17 16:24:17 ESP12E-S1 6.20 5.48 99.90
17473 2019-11-17 15:56:03 ESP12E-S1 6.20 5.48 99.90
17472 2019-11-17 15:27:45 ESP12E-S1 6.30 5.59 99.90
17471 2019-11-17 14:59:34 ESP12E-S1 6.40 5.70 99.90
17470 2019-11-17 14:31:21 ESP12E-S1 6.40 5.70 99.90
17469 2019-11-17 14:03:07 ESP12E-S1 6.50 5.81 99.90
17468 2019-11-17 13:34:52 ESP12E-S1 6.50 5.81 99.90
17467 2019-11-17 13:06:40 ESP12E-S1 6.40 5.70 99.90
17466 2019-11-17 12:38:20 ESP12E-S1 6.40 5.70 99.90
17465 2019-11-17 12:10:08 ESP12E-S1 6.40 5.70 99.90
17464 2019-11-17 11:41:55 ESP12E-S1 6.40 5.70 99.90
17463 2019-11-17 11:13:42 ESP12E-S1 6.50 5.81 99.90
17462 2019-11-17 10:45:29 ESP12E-S1 6.30 5.59 99.90
17461 2019-11-17 10:17:14 ESP12E-S1 6.10 5.37 99.90
17460 2019-11-17 09:48:55 ESP12E-S1 5.60 4.82 99.90
17459 2019-11-17 09:20:34 ESP12E-S1 5.20 4.38 99.90
17458 2019-11-17 08:52:19 ESP12E-S1 4.80 3.94 99.90
17457 2019-11-17 08:24:05 ESP12E-S1 4.40 3.50 99.90
17456 2019-11-17 07:55:51 ESP12E-S1 4.30 3.39 99.90
17455 2019-11-17 07:27:41 ESP12E-S1 4.30 3.39 99.90
17454 2019-11-17 06:59:18 ESP12E-S1 4.30 3.39 99.90
17453 2019-11-17 06:31:10 ESP12E-S1 4.40 3.50 99.90
17452 2019-11-17 06:02:55 ESP12E-S1 4.40 3.50 99.90
17451 2019-11-17 05:34:43 ESP12E-S1 4.60 3.72 99.90
17450 2019-11-17 05:06:30 ESP12E-S1 4.60 3.72 99.90
17449 2019-11-17 04:38:15 ESP12E-S1 4.50 3.61 99.90
17448 2019-11-17 04:10:01 ESP12E-S1 4.50 3.61 99.90
17447 2019-11-17 03:41:47 ESP12E-S1 4.70 3.83 99.90
17446 2019-11-17 03:13:32 ESP12E-S1 4.90 4.05 99.90
17445 2019-11-17 02:45:21 ESP12E-S1 5.10 4.27 99.90
17444 2019-11-17 02:17:10 ESP12E-S1 5.10 4.27 99.90
17443 2019-11-17 01:48:56 ESP12E-S1 5.10 4.27 99.90
17442 2019-11-17 01:20:41 ESP12E-S1 5.10 4.27 99.90
17441 2019-11-17 00:52:21 ESP12E-S1 5.00 4.16 99.90
17440 2019-11-17 00:24:00 ESP12E-S1 4.80 3.94 99.90
17439 2019-11-16 23:55:47 ESP12E-S1 4.50 3.61 99.90
17438 2019-11-16 23:27:26 ESP12E-S1 4.60 3.72 99.90
17437 2019-11-16 22:59:07 ESP12E-S1 4.70 3.83 99.90
17436 2019-11-16 22:30:54 ESP12E-S1 4.60 3.72 99.90
17435 2019-11-16 22:02:35 ESP12E-S1 4.50 3.61 99.90
17434 2019-11-16 21:34:24 ESP12E-S1 4.20 3.28 99.90
17433 2019-11-16 21:06:07 ESP12E-S1 4.50 3.61 99.90
17432 2019-11-16 20:38:00 ESP12E-S1 4.70 3.83 99.90
17431 2019-11-16 20:09:49 ESP12E-S1 5.10 4.27 99.90
17430 2019-11-16 19:41:38 ESP12E-S1 5.50 4.71 99.90
17429 2019-11-16 19:13:26 ESP12E-S1 5.50 4.71 99.90
17428 2019-11-16 18:45:09 ESP12E-S1 5.30 4.49 99.90
17427 2019-11-16 18:16:59 ESP12E-S1 5.20 4.38 99.90
17426 2019-11-16 17:48:51 ESP12E-S1 5.60 4.82 99.90
17425 2019-11-16 17:20:42 ESP12E-S1 6.10 5.37 99.90
17424 2019-11-16 16:52:28 ESP12E-S1 6.90 6.25 99.90
17423 2019-11-16 16:24:27 ESP12E-S1 8.20 7.66 98.90
17422 2019-11-16 15:56:33 ESP12E-S1 10.90 10.05 76.60
17421 2019-11-16 15:28:13 ESP12E-S1 13.70 13.07 74.30
17420 2019-11-16 14:59:41 ESP12E-S1 10.00 9.50 93.80
17419 2019-11-16 14:31:27 ESP12E-S1 9.50 9.11 99.90
17418 2019-11-16 14:02:55 ESP12E-S1 8.50 8.01 99.90
17417 2019-11-16 13:34:39 ESP12E-S1 7.80 7.24 99.90
17416 2019-11-16 13:06:24 ESP12E-S1 8.60 8.04 96.80
17415 2019-11-16 12:38:12 ESP12E-S1 9.10 8.47 92.00
17414 2019-11-16 12:10:13 ESP12E-S1 10.20 9.60 89.20
17413 2019-11-16 11:41:44 ESP12E-S1 10.00 9.66 99.90
17412 2019-11-16 11:12:58 ESP12E-S1 7.00 6.36 99.90
17411 2019-11-16 10:44:32 ESP12E-S1 5.50 4.71 99.90
17410 2019-11-16 10:16:14 ESP12E-S1 5.00 4.16 99.90
17409 2019-11-16 09:47:58 ESP12E-S1 4.60 3.72 99.90
17408 2019-11-16 09:19:39 ESP12E-S1 4.20 3.28 99.90
17407 2019-11-16 08:51:26 ESP12E-S1 3.90 2.95 99.90
17406 2019-11-16 08:23:08 ESP12E-S1 3.80 2.84 99.90
17405 2019-11-16 07:54:52 ESP12E-S1 3.80 2.84 99.90
17404 2019-11-16 07:26:41 ESP12E-S1 3.60 2.62 99.90
17403 2019-11-16 06:58:30 ESP12E-S1 3.60 2.62 99.90
17402 2019-11-16 06:30:20 ESP12E-S1 4.10 3.17 99.90
17401 2019-11-16 06:02:10 ESP12E-S1 4.50 3.61 99.90
17400 2019-11-16 05:34:01 ESP12E-S1 4.90 4.05 99.90
17399 2019-11-16 05:05:51 ESP12E-S1 5.00 4.16 99.90
17398 2019-11-16 04:37:39 ESP12E-S1 5.10 4.27 99.90
17397 2019-11-16 04:09:24 ESP12E-S1 5.20 4.38 99.90
17396 2019-11-16 03:41:10 ESP12E-S1 5.20 4.38 99.90
17395 2019-11-16 03:12:55 ESP12E-S1 5.20 4.38 99.90
17394 2019-11-16 02:44:44 ESP12E-S1 5.20 4.38 99.90
17393 2019-11-16 02:16:31 ESP12E-S1 5.10 4.27 99.90
17392 2019-11-16 01:48:10 ESP12E-S1 5.10 4.27 99.90
17391 2019-11-16 01:19:50 ESP12E-S1 5.10 4.27 99.90
17390 2019-11-16 00:51:37 ESP12E-S1 4.90 4.05 99.90
17389 2019-11-16 00:23:16 ESP12E-S1 4.80 3.94 99.90
17388 2019-11-15 23:55:01 ESP12E-S1 4.70 3.83 99.90
17387 2019-11-15 23:26:50 ESP12E-S1 4.70 3.83 99.90
17386 2019-11-15 22:58:37 ESP12E-S1 4.70 3.83 99.90
17385 2019-11-15 22:30:22 ESP12E-S1 4.70 3.83 99.90
17384 2019-11-15 22:02:10 ESP12E-S1 4.80 3.94 99.90
17383 2019-11-15 21:34:00 ESP12E-S1 4.80 3.94 99.90
17382 2019-11-15 21:05:47 ESP12E-S1 4.80 3.94 99.90
17381 2019-11-15 20:37:37 ESP12E-S1 4.90 4.05 99.90
17380 2019-11-15 20:09:31 ESP12E-S1 5.10 4.27 99.90
17379 2019-11-15 19:41:13 ESP12E-S1 5.10 4.27 99.90
17378 2019-11-15 19:12:56 ESP12E-S1 5.10 4.27 99.90
17377 2019-11-15 18:44:37 ESP12E-S1 5.00 4.16 99.90
17376 2019-11-15 18:16:27 ESP12E-S1 5.20 4.38 99.90
17375 2019-11-15 17:48:14 ESP12E-S1 5.50 4.71 99.90
17374 2019-11-15 17:20:02 ESP12E-S1 5.70 4.93 99.90
17373 2019-11-15 16:51:52 ESP12E-S1 6.00 5.26 99.90
17372 2019-11-15 16:23:32 ESP12E-S1 6.40 5.70 99.90
17371 2019-11-15 15:55:26 ESP12E-S1 6.90 6.25 99.90
17370 2019-11-15 15:27:23 ESP12E-S1 8.40 7.90 99.90
17369 2019-11-15 14:58:54 ESP12E-S1 7.90 7.35 99.90
17368 2019-11-15 14:30:29 ESP12E-S1 6.60 5.92 99.90
17367 2019-11-15 14:02:15 ESP12E-S1 6.50 5.81 99.90
17366 2019-11-15 13:34:01 ESP12E-S1 6.30 5.59 99.90
17365 2019-11-15 13:05:39 ESP12E-S1 6.30 5.59 99.90
17364 2019-11-15 12:37:30 ESP12E-S1 6.40 5.70 99.90
17363 2019-11-15 12:09:14 ESP12E-S1 6.40 5.70 99.90
17362 2019-11-15 11:40:56 ESP12E-S1 6.60 5.92 99.90
17361 2019-11-15 11:12:37 ESP12E-S1 6.70 6.03 99.90
17360 2019-11-15 10:44:19 ESP12E-S1 6.60 5.92 99.90
17359 2019-11-15 10:15:59 ESP12E-S1 6.50 5.81 99.90
17358 2019-11-15 09:47:42 ESP12E-S1 5.70 4.93 99.90
17357 2019-11-15 09:19:24 ESP12E-S1 5.40 4.60 99.90
17356 2019-11-15 08:51:02 ESP12E-S1 5.10 4.27 99.90
17355 2019-11-15 08:22:51 ESP12E-S1 4.90 4.05 99.90
17354 2019-11-15 07:54:41 ESP12E-S1 4.90 4.05 99.90
17353 2019-11-15 07:26:27 ESP12E-S1 4.80 3.94 99.90
17352 2019-11-15 06:30:10 ESP12E-S1 4.70 3.83 99.90
17351 2019-11-15 06:01:50 ESP12E-S1 4.70 3.83 99.90
17350 2019-11-15 05:33:32 ESP12E-S1 4.60 3.72 99.90
17349 2019-11-15 05:05:14 ESP12E-S1 4.60 3.72 99.90
17348 2019-11-15 04:36:57 ESP12E-S1 4.60 3.72 99.90
17347 2019-11-15 04:08:39 ESP12E-S1 4.70 3.83 99.90
17346 2019-11-15 03:40:22 ESP12E-S1 4.70 3.83 99.90
17345 2019-11-15 03:12:04 ESP12E-S1 4.80 3.94 99.90
17344 2019-11-15 02:43:46 ESP12E-S1 4.90 4.05 99.90
17343 2019-11-15 02:15:29 ESP12E-S1 5.00 4.16 99.90
17342 2019-11-15 01:47:11 ESP12E-S1 5.00 4.16 99.90
17341 2019-11-15 01:18:53 ESP12E-S1 5.00 4.16 99.90
17340 2019-11-15 00:50:35 ESP12E-S1 5.10 4.27 99.90
17339 2019-11-15 00:22:17 ESP12E-S1 5.20 4.38 99.90
17338 2019-11-14 23:53:59 ESP12E-S1 5.30 4.49 99.90
17337 2019-11-14 23:25:41 ESP12E-S1 5.30 4.49 99.90
17336 2019-11-14 22:57:26 ESP12E-S1 5.30 4.49 99.90
17335 2019-11-14 22:29:08 ESP12E-S1 5.50 4.71 99.90
17334 2019-11-14 22:00:50 ESP12E-S1 5.70 4.93 99.90
17333 2019-11-14 21:32:33 ESP12E-S1 5.80 5.04 99.90
17332 2019-11-14 21:04:17 ESP12E-S1 5.90 5.15 99.90
17331 2019-11-14 20:35:59 ESP12E-S1 6.00 5.26 99.90
17330 2019-11-14 20:07:43 ESP12E-S1 6.00 5.26 99.90
17329 2019-11-14 19:39:26 ESP12E-S1 6.00 5.26 99.90
17328 2019-11-14 19:11:07 ESP12E-S1 6.10 5.37 99.90
17327 2019-11-14 18:42:50 ESP12E-S1 6.20 5.48 99.90
17326 2019-11-14 18:14:34 ESP12E-S1 6.40 5.70 99.90
17325 2019-11-14 17:46:17 ESP12E-S1 6.70 6.03 99.90
17324 2019-11-14 17:18:01 ESP12E-S1 7.10 6.47 99.80
17323 2019-11-14 16:49:47 ESP12E-S1 7.50 6.82 96.20
17322 2019-11-14 16:21:37 ESP12E-S1 8.30 7.45 86.80
17321 2019-11-14 15:53:31 ESP12E-S1 10.20 9.12 70.70
17320 2019-11-14 15:25:27 ESP12E-S1 14.80 13.95 61.90
17319 2019-11-14 14:56:48 ESP12E-S1 10.50 9.69 79.80
17318 2019-11-14 14:28:24 ESP12E-S1 9.60 8.83 85.00
17317 2019-11-14 14:00:06 ESP12E-S1 9.00 8.18 85.30
17316 2019-11-14 13:32:04 ESP12E-S1 9.70 9.06 89.50
17315 2019-11-14 13:03:47 ESP12E-S1 10.30 9.71 89.20
17314 2019-11-14 12:35:28 ESP12E-S1 10.50 10.08 94.90
17313 2019-11-14 12:07:17 ESP12E-S1 11.10 10.80 97.00
17312 2019-11-14 11:38:49 ESP12E-S1 10.30 9.99 99.90
17311 2019-11-14 11:10:01 ESP12E-S1 7.50 6.91 99.90
17310 2019-11-14 10:41:39 ESP12E-S1 6.60 5.92 99.90
17309 2019-11-14 10:13:13 ESP12E-S1 5.80 5.04 99.90
17308 2019-11-14 09:45:10 ESP12E-S1 5.00 4.16 99.90
17307 2019-11-14 09:16:42 ESP12E-S1 4.60 3.72 99.90
17306 2019-11-14 08:48:22 ESP12E-S1 4.40 3.50 99.90
17305 2019-11-14 08:20:03 ESP12E-S1 4.10 3.17 99.90
17304 2019-11-14 07:51:44 ESP12E-S1 4.10 3.17 99.90
17303 2019-11-14 07:23:26 ESP12E-S1 4.30 3.39 99.90
17302 2019-11-14 06:55:09 ESP12E-S1 4.60 3.72 99.90
17301 2019-11-14 06:26:51 ESP12E-S1 4.70 3.83 99.90
17300 2019-11-14 05:58:33 ESP12E-S1 4.80 3.94 99.90
17299 2019-11-14 05:30:14 ESP12E-S1 4.80 3.94 99.90
17298 2019-11-14 05:01:56 ESP12E-S1 4.80 3.94 99.90
17297 2019-11-14 04:33:38 ESP12E-S1 4.80 3.94 99.90
17296 2019-11-14 04:05:19 ESP12E-S1 4.80 3.94 99.90
17295 2019-11-14 03:37:00 ESP12E-S1 4.70 3.83 99.90
17294 2019-11-14 03:08:41 ESP12E-S1 4.70 3.83 99.90
17293 2019-11-14 02:40:22 ESP12E-S1 4.70 3.83 99.90
17292 2019-11-14 02:12:05 ESP12E-S1 4.60 3.72 99.90
17291 2019-11-14 01:43:46 ESP12E-S1 4.60 3.72 99.90
17290 2019-11-14 01:15:27 ESP12E-S1 4.60 3.72 99.90
17289 2019-11-14 00:47:09 ESP12E-S1 4.60 3.72 99.90
17288 2019-11-14 00:18:53 ESP12E-S1 4.50 3.61 99.90
17287 2019-11-13 23:50:34 ESP12E-S1 4.50 3.61 99.90
17286 2019-11-13 23:22:16 ESP12E-S1 4.50 3.61 99.90
17285 2019-11-13 22:53:57 ESP12E-S1 4.50 3.61 99.90
17284 2019-11-13 22:25:39 ESP12E-S1 4.50 3.61 99.90
17283 2019-11-13 21:57:21 ESP12E-S1 4.50 3.61 99.90
17282 2019-11-13 21:29:04 ESP12E-S1 4.50 3.61 99.90
17281 2019-11-13 21:00:47 ESP12E-S1 4.50 3.61 99.90
17280 2019-11-13 20:32:29 ESP12E-S1 4.50 3.61 99.90
17279 2019-11-13 20:04:11 ESP12E-S1 4.50 3.61 99.90
17278 2019-11-13 19:35:53 ESP12E-S1 4.50 3.61 99.90
17277 2019-11-13 19:07:34 ESP12E-S1 4.50 3.61 99.90
17276 2019-11-13 18:39:16 ESP12E-S1 4.50 3.61 99.90
17275 2019-11-13 18:10:56 ESP12E-S1 4.50 3.61 99.90
17274 2019-11-13 17:42:39 ESP12E-S1 4.50 3.61 99.90
17273 2019-11-13 17:14:21 ESP12E-S1 4.40 3.50 99.90
17272 2019-11-13 16:46:02 ESP12E-S1 4.40 3.50 99.90
17271 2019-11-13 16:17:45 ESP12E-S1 4.40 3.50 99.90
17270 2019-11-13 15:49:26 ESP12E-S1 4.40 3.50 99.90
17269 2019-11-13 15:21:08 ESP12E-S1 4.40 3.50 99.90
17268 2019-11-13 14:52:49 ESP12E-S1 4.30 3.39 99.90
17267 2019-11-13 14:24:30 ESP12E-S1 4.30 3.39 99.90
17266 2019-11-13 13:56:13 ESP12E-S1 4.20 3.28 99.90
17265 2019-11-13 13:27:56 ESP12E-S1 4.20 3.28 99.90
17264 2019-11-13 12:59:36 ESP12E-S1 4.10 3.17 99.90
17263 2019-11-13 12:31:18 ESP12E-S1 4.00 3.06 99.90
17262 2019-11-13 12:03:00 ESP12E-S1 3.90 2.95 99.90
17261 2019-11-13 11:34:42 ESP12E-S1 3.80 2.84 99.90
17260 2019-11-13 11:06:24 ESP12E-S1 3.70 2.73 99.90
17259 2019-11-13 10:38:06 ESP12E-S1 3.60 2.62 99.90
17258 2019-11-13 10:09:48 ESP12E-S1 3.60 2.62 99.90
17257 2019-11-13 09:41:30 ESP12E-S1 3.50 2.51 99.90
17256 2019-11-13 09:13:11 ESP12E-S1 3.40 2.40 99.90
17255 2019-11-13 08:44:52 ESP12E-S1 3.20 2.18 99.90
17254 2019-11-13 08:16:33 ESP12E-S1 3.20 2.18 99.90
17253 2019-11-13 07:48:15 ESP12E-S1 3.10 2.07 99.90
17252 2019-11-13 07:19:55 ESP12E-S1 3.10 2.07 99.90
17251 2019-11-13 06:51:37 ESP12E-S1 3.00 1.96 99.90
17250 2019-11-13 06:23:18 ESP12E-S1 3.00 1.96 99.90
17249 2019-11-13 05:54:58 ESP12E-S1 2.90 1.85 99.90
17248 2019-11-13 05:26:39 ESP12E-S1 2.60 1.52 99.90
17247 2019-11-13 04:58:21 ESP12E-S1 2.50 1.41 99.90
17246 2019-11-13 04:30:11 ESP12E-S1 2.60 1.52 99.90
17245 2019-11-13 04:01:52 ESP12E-S1 2.80 1.74 99.90
17244 2019-11-13 03:33:35 ESP12E-S1 3.10 2.07 99.90
17243 2019-11-13 03:05:19 ESP12E-S1 3.20 2.18 99.90
17242 2019-11-13 02:37:01 ESP12E-S1 3.40 2.40 99.90
17241 2019-11-13 02:08:44 ESP12E-S1 3.50 2.51 99.90
17240 2019-11-13 01:40:28 ESP12E-S1 3.70 2.73 99.90
17239 2019-11-13 01:12:11 ESP12E-S1 3.90 2.95 99.90
17238 2019-11-13 00:43:55 ESP12E-S1 3.80 2.84 99.90
17237 2019-11-13 00:15:37 ESP12E-S1 3.80 2.84 99.90
17236 2019-11-12 23:47:18 ESP12E-S1 3.80 2.84 99.90
17235 2019-11-12 23:19:00 ESP12E-S1 3.80 2.84 99.90
17234 2019-11-12 22:50:42 ESP12E-S1 3.70 2.73 99.90
17233 2019-11-12 22:22:27 ESP12E-S1 4.20 3.28 99.90
17232 2019-11-12 21:54:09 ESP12E-S1 4.40 3.50 99.90
17231 2019-11-12 21:25:51 ESP12E-S1 4.40 3.50 99.90
17230 2019-11-12 20:57:36 ESP12E-S1 4.40 3.50 99.90
17229 2019-11-12 20:29:17 ESP12E-S1 4.30 3.39 99.90
17228 2019-11-12 20:01:00 ESP12E-S1 4.40 3.50 99.90
17227 2019-11-12 19:32:56 ESP12E-S1 4.50 3.61 99.90
17226 2019-11-12 19:04:55 ESP12E-S1 4.70 3.83 99.90
17225 2019-11-12 18:36:56 ESP12E-S1 5.00 4.16 99.90
17224 2019-11-12 18:08:29 ESP12E-S1 5.20 4.38 99.90
17223 2019-11-12 17:40:13 ESP12E-S1 5.30 4.49 99.90
17222 2019-11-12 17:11:57 ESP12E-S1 5.40 4.60 99.90
17221 2019-11-12 16:43:39 ESP12E-S1 5.60 4.82 99.90
17220 2019-11-12 16:15:23 ESP12E-S1 5.80 5.04 99.90
17219 2019-11-12 15:47:06 ESP12E-S1 6.10 5.37 99.90
17218 2019-11-12 15:18:52 ESP12E-S1 6.70 6.03 99.90
17217 2019-11-12 14:50:31 ESP12E-S1 5.80 5.04 99.90
17216 2019-11-12 14:22:14 ESP12E-S1 5.70 4.93 99.90
17215 2019-11-12 13:54:06 ESP12E-S1 5.50 4.71 99.90
17214 2019-11-12 13:25:44 ESP12E-S1 5.50 4.71 99.90
17213 2019-11-12 12:57:27 ESP12E-S1 5.30 4.49 99.90
17212 2019-11-12 12:29:09 ESP12E-S1 5.20 4.38 99.90
17211 2019-11-12 12:00:51 ESP12E-S1 5.30 4.49 99.90
17210 2019-11-12 11:32:31 ESP12E-S1 5.10 4.27 99.90
17209 2019-11-12 11:04:29 ESP12E-S1 4.90 4.05 99.90
17208 2019-11-12 10:36:21 ESP12E-S1 4.70 3.83 99.90
17207 2019-11-12 10:08:06 ESP12E-S1 4.70 3.83 99.90
17206 2019-11-12 09:39:43 ESP12E-S1 4.40 3.50 99.90
17205 2019-11-12 09:11:22 ESP12E-S1 4.20 3.28 99.90
17204 2019-11-12 08:43:04 ESP12E-S1 4.20 3.28 99.90
17203 2019-11-12 08:14:46 ESP12E-S1 4.20 3.28 99.90
17202 2019-11-12 07:46:27 ESP12E-S1 4.10 3.17 99.90
17201 2019-11-12 07:18:28 ESP12E-S1 4.00 3.06 99.90
17200 2019-11-12 06:50:13 ESP12E-S1 4.00 3.06 99.90
17199 2019-11-12 06:21:52 ESP12E-S1 4.00 3.06 99.90
17198 2019-11-12 05:53:33 ESP12E-S1 4.00 3.06 99.90
17197 2019-11-12 05:25:15 ESP12E-S1 3.90 2.95 99.90
17196 2019-11-12 04:57:16 ESP12E-S1 3.90 2.95 99.90
17195 2019-11-12 04:28:49 ESP12E-S1 3.80 2.84 99.90
17194 2019-11-12 04:00:51 ESP12E-S1 3.70 2.73 99.90
17193 2019-11-12 03:32:26 ESP12E-S1 3.70 2.73 99.90
17192 2019-11-12 03:04:19 ESP12E-S1 3.70 2.73 99.90
17191 2019-11-12 02:35:57 ESP12E-S1 3.60 2.62 99.90
17190 2019-11-12 02:07:39 ESP12E-S1 3.60 2.62 99.90
17189 2019-11-12 01:39:40 ESP12E-S1 3.40 2.40 99.90
17188 2019-11-12 01:11:34 ESP12E-S1 3.40 2.40 99.90
17187 2019-11-12 00:43:27 ESP12E-S1 3.30 2.29 99.90
17186 2019-11-12 00:15:02 ESP12E-S1 3.20 2.18 99.90
17185 2019-11-11 23:46:44 ESP12E-S1 3.10 2.07 99.90
17184 2019-11-11 23:18:37 ESP12E-S1 3.00 1.96 99.90
17183 2019-11-11 22:50:27 ESP12E-S1 2.90 1.85 99.90
17182 2019-11-11 22:22:04 ESP12E-S1 2.80 1.74 99.90
17181 2019-11-11 21:53:47 ESP12E-S1 2.90 1.85 99.90
17180 2019-11-11 21:25:48 ESP12E-S1 2.70 1.63 99.90
17179 2019-11-11 20:57:22 ESP12E-S1 2.80 1.74 99.90
17178 2019-11-11 20:29:06 ESP12E-S1 2.90 1.85 99.90
17177 2019-11-11 20:01:14 ESP12E-S1 2.90 1.85 99.90
17176 2019-11-11 19:32:55 ESP12E-S1 2.80 1.74 99.90
17175 2019-11-11 19:04:45 ESP12E-S1 2.80 1.74 99.90
17174 2019-11-11 18:36:24 ESP12E-S1 2.80 1.74 99.90
17173 2019-11-11 18:08:07 ESP12E-S1 2.80 1.74 99.90
17172 2019-11-11 17:39:49 ESP12E-S1 2.80 1.74 99.90
17171 2019-11-11 17:11:32 ESP12E-S1 2.90 1.85 99.90
17170 2019-11-11 16:43:16 ESP12E-S1 3.00 1.96 99.90
17169 2019-11-11 16:14:58 ESP12E-S1 3.00 1.96 99.90
17168 2019-11-11 15:46:40 ESP12E-S1 3.00 1.96 99.90
17167 2019-11-11 15:18:22 ESP12E-S1 3.00 1.96 99.90
17166 2019-11-11 14:50:04 ESP12E-S1 3.00 1.96 99.90
17165 2019-11-11 14:21:47 ESP12E-S1 3.00 1.96 99.90
17164 2019-11-11 13:53:29 ESP12E-S1 3.00 1.96 99.90
17163 2019-11-11 13:25:13 ESP12E-S1 3.00 1.96 99.90
17162 2019-11-11 12:56:56 ESP12E-S1 3.00 1.96 99.90
17161 2019-11-11 12:28:58 ESP12E-S1 3.00 1.96 99.90
17160 2019-11-11 12:00:32 ESP12E-S1 2.90 1.85 99.90
17159 2019-11-11 11:32:15 ESP12E-S1 2.90 1.85 99.90
17158 2019-11-11 11:03:56 ESP12E-S1 2.90 1.85 99.90
17157 2019-11-11 10:35:40 ESP12E-S1 2.80 1.74 99.90
17156 2019-11-11 10:07:22 ESP12E-S1 3.00 1.96 99.90
17155 2019-11-11 09:39:25 ESP12E-S1 3.00 1.96 99.90
17154 2019-11-11 09:11:02 ESP12E-S1 3.10 2.07 99.90
17153 2019-11-11 08:42:45 ESP12E-S1 3.20 2.18 99.90
17152 2019-11-11 08:14:26 ESP12E-S1 3.10 2.07 99.90
17151 2019-11-11 07:46:08 ESP12E-S1 3.10 2.07 99.90
17150 2019-11-11 07:17:51 ESP12E-S1 3.20 2.18 99.90
17149 2019-11-11 06:49:33 ESP12E-S1 3.30 2.29 99.90
17148 2019-11-11 06:21:16 ESP12E-S1 3.20 2.18 99.90
17147 2019-11-11 05:52:58 ESP12E-S1 3.20 2.18 99.90
17146 2019-11-11 05:24:42 ESP12E-S1 3.20 2.18 99.90
17145 2019-11-11 04:56:23 ESP12E-S1 3.20 2.18 99.90
17144 2019-11-11 04:28:06 ESP12E-S1 3.20 2.18 99.90
17143 2019-11-11 03:59:47 ESP12E-S1 3.10 2.07 99.90
17142 2019-11-11 03:31:30 ESP12E-S1 3.20 2.18 99.90
17141 2019-11-11 03:03:13 ESP12E-S1 3.20 2.18 99.90
17140 2019-11-11 02:34:56 ESP12E-S1 3.30 2.29 99.90
17139 2019-11-11 02:06:39 ESP12E-S1 3.60 2.62 99.90
17138 2019-11-11 01:38:23 ESP12E-S1 3.70 2.73 99.90
17137 2019-11-11 01:10:06 ESP12E-S1 3.90 2.95 99.90
17136 2019-11-11 00:41:49 ESP12E-S1 3.90 2.95 99.90
17135 2019-11-11 00:13:32 ESP12E-S1 3.80 2.84 99.90
17134 2019-11-10 23:45:15 ESP12E-S1 3.90 2.95 99.90
17133 2019-11-10 23:16:57 ESP12E-S1 3.90 2.95 99.90
17132 2019-11-10 22:48:39 ESP12E-S1 3.80 2.84 99.90
17131 2019-11-10 22:20:20 ESP12E-S1 3.80 2.84 99.90
17130 2019-11-10 21:52:05 ESP12E-S1 3.90 2.95 99.90
17129 2019-11-10 21:23:48 ESP12E-S1 4.10 3.17 99.90
17128 2019-11-10 20:55:31 ESP12E-S1 4.30 3.39 99.90
17127 2019-11-10 20:27:13 ESP12E-S1 4.30 3.39 99.90
17126 2019-11-10 19:58:56 ESP12E-S1 4.50 3.61 99.90
17125 2019-11-10 19:30:39 ESP12E-S1 4.50 3.61 99.90
17124 2019-11-10 19:02:22 ESP12E-S1 4.60 3.72 99.90
17123 2019-11-10 18:34:05 ESP12E-S1 4.80 3.94 99.90
17122 2019-11-10 18:06:13 ESP12E-S1 4.90 4.05 99.90
17121 2019-11-10 17:37:46 ESP12E-S1 4.90 4.05 99.90
17120 2019-11-10 17:09:29 ESP12E-S1 5.10 4.27 99.90
17119 2019-11-10 16:41:11 ESP12E-S1 5.10 4.27 99.90
17118 2019-11-10 16:12:57 ESP12E-S1 5.40 4.60 99.90
17117 2019-11-10 15:44:40 ESP12E-S1 5.70 4.93 99.90
17116 2019-11-10 15:16:23 ESP12E-S1 5.90 5.15 99.90
17115 2019-11-10 14:48:07 ESP12E-S1 6.30 5.59 99.90
17114 2019-11-10 14:20:04 ESP12E-S1 6.70 6.03 99.90
17113 2019-11-10 13:52:07 ESP12E-S1 6.60 5.92 99.90
17112 2019-11-10 13:23:51 ESP12E-S1 6.80 6.14 99.90
17111 2019-11-10 12:55:34 ESP12E-S1 7.50 6.91 99.90
17110 2019-11-10 12:27:14 ESP12E-S1 8.10 7.57 99.90
17109 2019-11-10 11:59:02 ESP12E-S1 7.90 7.35 99.90
17108 2019-11-10 11:30:56 ESP12E-S1 8.80 8.34 99.90
17107 2019-11-10 11:02:04 ESP12E-S1 4.40 3.50 99.90
17106 2019-11-10 10:33:43 ESP12E-S1 3.70 2.73 99.90
17105 2019-11-10 10:05:25 ESP12E-S1 3.70 2.73 99.90
17104 2019-11-10 09:37:07 ESP12E-S1 3.60 2.62 99.90
17103 2019-11-10 09:08:46 ESP12E-S1 3.30 2.29 99.90
17102 2019-11-10 08:40:27 ESP12E-S1 3.00 1.96 99.90
17101 2019-11-10 08:12:08 ESP12E-S1 2.70 1.63 99.90
17100 2019-11-10 07:43:53 ESP12E-S1 2.80 1.74 99.90
17099 2019-11-10 07:15:35 ESP12E-S1 2.90 1.85 99.90
17098 2019-11-10 06:47:17 ESP12E-S1 2.80 1.74 99.90
17097 2019-11-10 06:19:00 ESP12E-S1 2.90 1.85 99.90
17096 2019-11-10 05:50:43 ESP12E-S1 3.00 1.96 99.90
17095 2019-11-10 05:22:27 ESP12E-S1 3.10 2.07 99.90
17094 2019-11-10 04:54:10 ESP12E-S1 3.20 2.18 99.90
17093 2019-11-10 04:25:54 ESP12E-S1 3.40 2.40 99.90
17092 2019-11-10 03:57:36 ESP12E-S1 3.50 2.51 99.90
17091 2019-11-10 03:29:18 ESP12E-S1 3.60 2.62 99.90
17090 2019-11-10 03:01:02 ESP12E-S1 3.60 2.62 99.90
17089 2019-11-10 02:32:56 ESP12E-S1 3.60 2.62 99.90
17088 2019-11-10 02:04:35 ESP12E-S1 3.80 2.84 99.90
17087 2019-11-10 01:36:19 ESP12E-S1 3.90 2.95 99.90
17086 2019-11-10 01:08:03 ESP12E-S1 4.00 3.06 99.90
17085 2019-11-10 00:39:46 ESP12E-S1 4.20 3.28 99.90
17084 2019-11-10 00:11:28 ESP12E-S1 4.40 3.50 99.90
17083 2019-11-09 23:43:12 ESP12E-S1 4.60 3.72 99.90
17082 2019-11-09 23:14:56 ESP12E-S1 4.80 3.94 99.90
17081 2019-11-09 22:46:39 ESP12E-S1 5.20 4.38 99.90
17080 2019-11-09 22:18:22 ESP12E-S1 5.50 4.71 99.90
17079 2019-11-09 21:50:07 ESP12E-S1 5.60 4.82 99.90
17078 2019-11-09 21:21:59 ESP12E-S1 5.90 5.15 99.90
17077 2019-11-09 20:53:40 ESP12E-S1 6.30 5.59 99.90
17076 2019-11-09 20:25:23 ESP12E-S1 6.50 5.81 99.90
17075 2019-11-09 19:57:06 ESP12E-S1 6.50 5.81 99.90
17074 2019-11-09 19:29:01 ESP12E-S1 6.60 5.92 99.90
17073 2019-11-09 19:00:39 ESP12E-S1 6.70 6.03 99.90
17072 2019-11-09 18:32:22 ESP12E-S1 6.70 6.03 99.90
17071 2019-11-09 18:04:06 ESP12E-S1 6.90 6.25 99.90
17070 2019-11-09 17:35:49 ESP12E-S1 7.30 6.69 99.90
17069 2019-11-09 17:07:34 ESP12E-S1 7.60 7.02 99.90
17068 2019-11-09 16:39:19 ESP12E-S1 8.00 7.46 99.90
17067 2019-11-09 16:11:07 ESP12E-S1 8.70 8.23 99.90
17066 2019-11-09 15:43:00 ESP12E-S1 10.10 9.77 99.90
17065 2019-11-09 15:15:15 ESP12E-S1 15.80 15.56 81.40
17064 2019-11-09 14:46:44 ESP12E-S1 10.70 10.43 99.90
17063 2019-11-09 14:17:53 ESP12E-S1 8.90 8.45 99.90
17062 2019-11-09 13:49:37 ESP12E-S1 9.70 9.33 99.90
17061 2019-11-09 13:21:24 ESP12E-S1 10.40 10.10 99.90
17060 2019-11-09 12:52:53 ESP12E-S1 9.10 8.67 99.90
17059 2019-11-09 12:24:31 ESP12E-S1 8.20 7.68 99.90
17058 2019-11-09 11:56:13 ESP12E-S1 8.40 7.90 99.90
17057 2019-11-09 11:27:58 ESP12E-S1 8.30 7.79 99.90
17056 2019-11-09 10:59:41 ESP12E-S1 9.00 8.56 99.90
17055 2019-11-09 10:31:18 ESP12E-S1 7.20 6.58 99.90
17054 2019-11-09 10:03:00 ESP12E-S1 6.90 6.25 99.90
17053 2019-11-09 09:34:42 ESP12E-S1 6.80 6.14 99.90
17052 2019-11-09 09:06:19 ESP12E-S1 6.30 5.59 99.90
17051 2019-11-09 08:38:01 ESP12E-S1 6.20 5.48 99.90
17050 2019-11-09 08:09:43 ESP12E-S1 6.10 5.37 99.90
17049 2019-11-09 07:41:25 ESP12E-S1 6.00 5.26 99.90
17048 2019-11-09 07:13:08 ESP12E-S1 6.00 5.26 99.90
17047 2019-11-09 06:44:51 ESP12E-S1 6.10 5.37 99.90
17046 2019-11-09 06:16:33 ESP12E-S1 6.10 5.37 99.90
17045 2019-11-09 05:48:16 ESP12E-S1 6.10 5.37 99.90
17044 2019-11-09 05:19:59 ESP12E-S1 6.20 5.48 99.90
17043 2019-11-09 04:51:43 ESP12E-S1 6.30 5.59 99.90
17042 2019-11-09 04:23:26 ESP12E-S1 6.30 5.59 99.90
17041 2019-11-09 03:55:09 ESP12E-S1 6.30 5.59 99.90
17040 2019-11-09 03:26:52 ESP12E-S1 6.30 5.59 99.90
17039 2019-11-09 02:58:35 ESP12E-S1 6.30 5.59 99.90
17038 2019-11-09 02:30:17 ESP12E-S1 6.30 5.59 99.90
17037 2019-11-09 02:01:58 ESP12E-S1 6.30 5.59 99.90
17036 2019-11-09 01:33:40 ESP12E-S1 6.20 5.48 99.90
17035 2019-11-09 01:05:21 ESP12E-S1 6.20 5.48 99.90
17034 2019-11-09 00:37:03 ESP12E-S1 6.20 5.48 99.90
17033 2019-11-09 00:08:45 ESP12E-S1 6.20 5.48 99.90
17032 2019-11-08 23:40:29 ESP12E-S1 6.30 5.59 99.90
17031 2019-11-08 23:12:11 ESP12E-S1 6.40 5.70 99.90
17030 2019-11-08 22:43:54 ESP12E-S1 6.40 5.70 99.90
17029 2019-11-08 22:15:37 ESP12E-S1 6.40 5.70 99.90
17028 2019-11-08 21:47:20 ESP12E-S1 6.60 5.92 99.90
17027 2019-11-08 21:19:02 ESP12E-S1 6.70 6.03 99.90
17026 2019-11-08 20:50:44 ESP12E-S1 6.60 5.92 99.90
17025 2019-11-08 20:22:27 ESP12E-S1 6.80 6.14 99.90
17024 2019-11-08 19:54:08 ESP12E-S1 6.80 6.14 99.90
17023 2019-11-08 19:25:50 ESP12E-S1 6.90 6.25 99.90
17022 2019-11-08 18:57:34 ESP12E-S1 6.90 6.25 99.90
17021 2019-11-08 18:29:16 ESP12E-S1 7.10 6.47 99.90
17020 2019-11-08 18:00:58 ESP12E-S1 7.00 6.36 99.90
17019 2019-11-08 17:32:40 ESP12E-S1 7.10 6.47 99.90
17018 2019-11-08 17:04:24 ESP12E-S1 7.20 6.58 99.90
17017 2019-11-08 16:36:08 ESP12E-S1 7.40 6.80 99.90
17016 2019-11-08 16:07:51 ESP12E-S1 7.60 7.02 99.90
17015 2019-11-08 15:39:35 ESP12E-S1 7.80 7.24 99.90
17014 2019-11-08 15:11:18 ESP12E-S1 8.00 7.46 99.90
17013 2019-11-08 14:43:03 ESP12E-S1 8.20 7.68 99.90
17012 2019-11-08 14:14:44 ESP12E-S1 8.10 7.57 99.90
17011 2019-11-08 13:46:28 ESP12E-S1 8.00 7.46 99.90
17010 2019-11-08 13:18:09 ESP12E-S1 8.00 7.46 99.90
17009 2019-11-08 12:49:52 ESP12E-S1 8.00 7.46 99.90
17008 2019-11-08 12:21:36 ESP12E-S1 8.00 7.46 99.90
17007 2019-11-08 11:53:16 ESP12E-S1 7.90 7.35 99.90
17006 2019-11-08 11:24:57 ESP12E-S1 7.80 7.24 99.90
17005 2019-11-08 10:56:37 ESP12E-S1 7.60 7.02 99.90
17004 2019-11-08 10:28:19 ESP12E-S1 7.40 6.80 99.90
17003 2019-11-08 10:00:01 ESP12E-S1 7.20 6.58 99.90
17002 2019-11-08 09:31:42 ESP12E-S1 7.00 6.36 99.90
17001 2019-11-08 09:03:22 ESP12E-S1 6.70 6.03 99.90
17000 2019-11-08 08:35:03 ESP12E-S1 6.30 5.59 99.90
16999 2019-11-08 08:06:45 ESP12E-S1 6.20 5.48 99.90
16998 2019-11-08 07:38:27 ESP12E-S1 6.00 5.26 99.90
16997 2019-11-08 07:10:10 ESP12E-S1 6.00 5.26 99.90
16996 2019-11-08 06:41:52 ESP12E-S1 6.00 5.26 99.90
16995 2019-11-08 06:13:35 ESP12E-S1 6.00 5.26 99.90
16994 2019-11-08 05:45:16 ESP12E-S1 5.90 5.15 99.90
16993 2019-11-08 05:17:00 ESP12E-S1 6.00 5.26 99.90
16992 2019-11-08 04:48:43 ESP12E-S1 6.00 5.26 99.90
16991 2019-11-08 04:20:26 ESP12E-S1 6.00 5.26 99.90
16990 2019-11-08 03:52:08 ESP12E-S1 6.10 5.37 99.90
16989 2019-11-08 03:23:52 ESP12E-S1 6.10 5.37 99.90
16988 2019-11-08 02:55:35 ESP12E-S1 6.20 5.48 99.90
16987 2019-11-08 02:27:18 ESP12E-S1 6.20 5.48 99.90
16986 2019-11-08 01:59:01 ESP12E-S1 6.20 5.48 99.90
16985 2019-11-08 01:30:45 ESP12E-S1 6.30 5.59 99.90
16984 2019-11-08 01:02:28 ESP12E-S1 6.40 5.70 99.90
16983 2019-11-08 00:34:12 ESP12E-S1 6.50 5.81 99.90
16982 2019-11-08 00:05:55 ESP12E-S1 6.50 5.81 99.90
16981 2019-11-07 23:37:40 ESP12E-S1 6.60 5.92 99.90
16980 2019-11-07 23:09:24 ESP12E-S1 6.70 6.03 99.90
16979 2019-11-07 22:41:07 ESP12E-S1 6.70 6.03 99.90
16978 2019-11-07 22:12:50 ESP12E-S1 6.90 6.25 99.90
16977 2019-11-07 21:44:32 ESP12E-S1 7.10 6.47 99.90
16976 2019-11-07 21:16:17 ESP12E-S1 7.40 6.80 99.90
16975 2019-11-07 20:48:02 ESP12E-S1 7.60 7.02 99.90
16974 2019-11-07 20:19:45 ESP12E-S1 7.80 7.24 99.90
16973 2019-11-07 19:51:29 ESP12E-S1 8.10 7.57 99.90
16972 2019-11-07 19:23:13 ESP12E-S1 8.20 7.68 99.90
16971 2019-11-07 18:54:57 ESP12E-S1 8.30 7.79 99.90
16970 2019-11-07 18:26:40 ESP12E-S1 8.40 7.90 99.90
16969 2019-11-07 17:58:33 ESP12E-S1 8.40 7.90 99.90
16968 2019-11-07 17:30:11 ESP12E-S1 8.40 7.90 99.90
16967 2019-11-07 17:01:55 ESP12E-S1 8.40 7.90 99.90
16966 2019-11-07 16:33:38 ESP12E-S1 8.60 8.12 99.90
16965 2019-11-07 16:05:39 ESP12E-S1 8.70 8.23 99.90
16964 2019-11-07 15:37:13 ESP12E-S1 8.60 8.12 99.90
16963 2019-11-07 15:09:15 ESP12E-S1 8.70 8.23 99.90
16962 2019-11-07 14:40:49 ESP12E-S1 8.80 8.34 99.90
16961 2019-11-07 14:12:43 ESP12E-S1 8.90 8.45 99.90
16960 2019-11-07 13:44:35 ESP12E-S1 9.00 8.56 99.90
16959 2019-11-07 13:16:13 ESP12E-S1 9.20 8.78 99.90
16958 2019-11-07 12:48:23 ESP12E-S1 9.60 9.22 99.90
16957 2019-11-07 12:19:55 ESP12E-S1 9.80 9.44 99.90
16956 2019-11-07 11:51:36 ESP12E-S1 9.70 9.33 99.90
16955 2019-11-07 11:23:20 ESP12E-S1 9.70 9.33 99.90
16954 2019-11-07 10:55:02 ESP12E-S1 9.70 9.33 99.90
16953 2019-11-07 10:26:42 ESP12E-S1 9.40 9.00 99.90
16952 2019-11-07 09:58:36 ESP12E-S1 9.20 8.78 99.90
16951 2019-11-07 09:30:12 ESP12E-S1 8.90 8.45 99.90
16950 2019-11-07 09:01:53 ESP12E-S1 8.60 8.12 99.90
16949 2019-11-07 08:33:33 ESP12E-S1 8.50 8.01 99.90
16948 2019-11-07 08:05:15 ESP12E-S1 8.30 7.79 99.90
16947 2019-11-07 07:36:56 ESP12E-S1 8.30 7.79 99.90
16946 2019-11-07 07:08:39 ESP12E-S1 8.40 7.90 99.90
16945 2019-11-07 06:40:23 ESP12E-S1 8.50 8.01 99.90
16944 2019-11-07 06:12:06 ESP12E-S1 8.50 8.01 99.90
16943 2019-11-07 05:43:49 ESP12E-S1 8.50 8.01 99.90
16942 2019-11-07 05:15:51 ESP12E-S1 8.50 8.01 99.90
16941 2019-11-07 04:47:45 ESP12E-S1 8.50 8.01 99.90
16940 2019-11-07 04:19:18 ESP12E-S1 8.60 8.12 99.90
16939 2019-11-07 03:51:19 ESP12E-S1 8.60 8.12 99.90
16938 2019-11-07 03:22:54 ESP12E-S1 8.60 8.12 99.90
16937 2019-11-07 02:54:36 ESP12E-S1 8.60 8.12 99.90
16936 2019-11-07 02:26:54 ESP12E-S1 8.60 8.12 99.90
16935 2019-11-07 01:58:43 ESP12E-S1 8.60 8.12 99.90
16934 2019-11-07 01:30:40 ESP12E-S1 8.70 8.23 99.90
16933 2019-11-07 01:02:22 ESP12E-S1 8.70 8.23 99.90
16932 2019-11-07 00:34:01 ESP12E-S1 8.80 8.34 99.90
16931 2019-11-07 00:05:43 ESP12E-S1 8.80 8.34 99.90
16930 2019-11-06 23:37:26 ESP12E-S1 8.90 8.45 99.90
16929 2019-11-06 23:09:09 ESP12E-S1 8.90 8.45 99.90
16928 2019-11-06 22:41:04 ESP12E-S1 9.00 8.56 99.90
16927 2019-11-06 22:13:02 ESP12E-S1 9.10 8.67 99.90
16926 2019-11-06 21:44:37 ESP12E-S1 9.10 8.67 99.90
16925 2019-11-06 21:16:18 ESP12E-S1 9.10 8.67 99.90
16924 2019-11-06 20:48:00 ESP12E-S1 9.10 8.67 99.90
16923 2019-11-06 20:19:42 ESP12E-S1 9.20 8.78 99.90
16922 2019-11-06 19:51:45 ESP12E-S1 9.20 8.78 99.90
16921 2019-11-06 19:23:19 ESP12E-S1 9.30 8.89 99.90
16920 2019-11-06 18:55:03 ESP12E-S1 9.40 9.00 99.90
16919 2019-11-06 18:26:43 ESP12E-S1 9.40 9.00 99.90
16918 2019-11-06 17:58:09 ESP12E-S1 9.50 9.11 99.90
16917 2019-11-06 17:30:14 ESP12E-S1 9.50 9.11 99.90
16916 2019-11-06 17:01:48 ESP12E-S1 9.60 9.22 99.90
16915 2019-11-06 16:33:52 ESP12E-S1 9.70 9.33 99.90
16914 2019-11-06 16:05:48 ESP12E-S1 9.80 9.44 99.90
16913 2019-11-06 15:37:42 ESP12E-S1 9.90 9.55 99.90
16912 2019-11-06 15:09:46 ESP12E-S1 10.00 9.66 99.90
16911 2019-11-06 14:41:38 ESP12E-S1 10.30 9.99 99.90
16910 2019-11-06 14:13:34 ESP12E-S1 10.70 10.43 99.90
16909 2019-11-06 13:45:22 ESP12E-S1 11.00 10.76 99.90
16908 2019-11-06 13:17:14 ESP12E-S1 11.40 11.20 99.90
16907 2019-11-06 12:48:51 ESP12E-S1 11.10 10.87 99.90
16906 2019-11-06 12:20:28 ESP12E-S1 10.20 9.88 99.90
16905 2019-11-06 11:52:12 ESP12E-S1 9.80 9.44 99.90
16904 2019-11-06 11:23:56 ESP12E-S1 9.70 9.33 99.90
16903 2019-11-06 10:55:38 ESP12E-S1 9.60 9.22 99.90
16902 2019-11-06 10:27:29 ESP12E-S1 9.40 9.00 99.90
16901 2019-11-06 09:59:06 ESP12E-S1 9.00 8.56 99.90
16900 2019-11-06 09:30:46 ESP12E-S1 8.60 8.12 99.90
16899 2019-11-06 09:02:26 ESP12E-S1 8.20 7.68 99.90
16898 2019-11-06 08:34:19 ESP12E-S1 8.00 7.46 99.90
16897 2019-11-06 08:05:57 ESP12E-S1 7.80 7.24 99.90
16896 2019-11-06 07:37:40 ESP12E-S1 7.80 7.24 99.90
16895 2019-11-06 07:09:23 ESP12E-S1 7.80 7.24 99.90
16894 2019-11-06 06:41:05 ESP12E-S1 7.80 7.24 99.90
16893 2019-11-06 06:12:48 ESP12E-S1 7.90 7.35 99.90
16892 2019-11-06 05:44:51 ESP12E-S1 8.00 7.46 99.90
16891 2019-11-06 05:16:27 ESP12E-S1 8.10 7.57 99.90
16890 2019-11-06 04:48:09 ESP12E-S1 8.20 7.68 99.90
16889 2019-11-06 04:20:12 ESP12E-S1 8.20 7.68 99.90
16888 2019-11-06 03:52:12 ESP12E-S1 8.20 7.68 99.90
16887 2019-11-06 03:23:44 ESP12E-S1 8.30 7.79 99.90
16886 2019-11-06 02:55:52 ESP12E-S1 8.30 7.79 99.90
16885 2019-11-06 02:27:23 ESP12E-S1 8.40 7.90 99.90
16884 2019-11-06 01:59:07 ESP12E-S1 8.40 7.90 99.90
16883 2019-11-06 01:30:48 ESP12E-S1 8.40 7.90 99.90
16882 2019-11-06 01:02:58 ESP12E-S1 8.50 8.01 99.90
16881 2019-11-06 00:34:29 ESP12E-S1 8.50 8.01 99.90
16880 2019-11-06 00:06:11 ESP12E-S1 8.40 7.90 99.90
16879 2019-11-05 23:37:55 ESP12E-S1 8.50 8.01 99.90
16878 2019-11-05 23:09:38 ESP12E-S1 8.50 8.01 99.90
16877 2019-11-05 22:41:20 ESP12E-S1 8.60 8.12 99.90
16876 2019-11-05 22:13:02 ESP12E-S1 8.70 8.23 99.90
16875 2019-11-05 21:44:45 ESP12E-S1 8.70 8.23 99.90
16874 2019-11-05 21:16:46 ESP12E-S1 8.70 8.23 99.90
16873 2019-11-05 20:48:21 ESP12E-S1 8.70 8.23 99.90
16872 2019-11-05 20:20:02 ESP12E-S1 8.70 8.23 99.90
16871 2019-11-05 19:51:44 ESP12E-S1 8.60 8.12 99.90
16870 2019-11-05 19:23:28 ESP12E-S1 8.60 8.12 99.90
16869 2019-11-05 18:55:31 ESP12E-S1 8.80 8.34 99.90
16868 2019-11-05 18:27:26 ESP12E-S1 9.00 8.56 99.90
16867 2019-11-05 17:59:02 ESP12E-S1 9.20 8.78 99.90
16866 2019-11-05 17:30:47 ESP12E-S1 9.20 8.78 99.90
16865 2019-11-05 17:02:56 ESP12E-S1 9.50 9.11 99.90
16864 2019-11-05 16:34:49 ESP12E-S1 10.00 9.66 99.90
16863 2019-11-05 16:06:28 ESP12E-S1 10.50 10.21 99.90
16862 2019-11-05 15:38:14 ESP12E-S1 11.00 10.76 99.90
16861 2019-11-05 15:10:03 ESP12E-S1 11.80 11.64 99.90
16860 2019-11-05 14:42:01 ESP12E-S1 14.20 14.28 99.90
16859 2019-11-05 14:13:22 ESP12E-S1 10.70 10.43 99.90
16858 2019-11-05 13:45:07 ESP12E-S1 10.80 10.54 99.90
16857 2019-11-05 13:17:12 ESP12E-S1 11.20 10.98 99.90
16856 2019-11-05 12:49:10 ESP12E-S1 10.60 10.32 99.90
16855 2019-11-05 12:20:40 ESP12E-S1 10.80 10.54 99.90
16854 2019-11-05 11:52:35 ESP12E-S1 10.30 9.99 99.90
16853 2019-11-05 11:24:09 ESP12E-S1 9.60 9.22 99.90
16852 2019-11-05 10:55:46 ESP12E-S1 8.90 8.45 99.90
16851 2019-11-05 10:27:28 ESP12E-S1 8.60 8.12 99.90
16850 2019-11-05 09:59:30 ESP12E-S1 8.60 8.12 99.90
16849 2019-11-05 09:31:05 ESP12E-S1 8.60 8.12 99.90
16848 2019-11-05 09:02:46 ESP12E-S1 8.40 7.90 99.90
16847 2019-11-05 08:34:26 ESP12E-S1 8.10 7.57 99.90
16846 2019-11-05 08:06:09 ESP12E-S1 8.10 7.57 99.90
16845 2019-11-05 07:37:50 ESP12E-S1 8.00 7.46 99.90
16844 2019-11-05 07:09:36 ESP12E-S1 8.10 7.57 99.90
16843 2019-11-05 06:41:19 ESP12E-S1 8.10 7.57 99.90
16842 2019-11-05 06:13:02 ESP12E-S1 8.20 7.68 99.90
16841 2019-11-05 05:44:46 ESP12E-S1 8.20 7.68 99.90
16840 2019-11-05 05:16:29 ESP12E-S1 8.20 7.68 99.90
16839 2019-11-05 04:48:13 ESP12E-S1 8.30 7.79 99.90
16838 2019-11-05 04:19:56 ESP12E-S1 8.40 7.90 99.90
16837 2019-11-05 03:51:39 ESP12E-S1 8.50 8.01 99.90
16836 2019-11-05 03:23:23 ESP12E-S1 8.60 8.12 99.90
16835 2019-11-05 02:55:05 ESP12E-S1 8.70 8.23 99.90
16834 2019-11-05 02:26:47 ESP12E-S1 8.70 8.23 99.90
16833 2019-11-05 01:58:28 ESP12E-S1 8.60 8.12 99.90
16832 2019-11-05 01:30:11 ESP12E-S1 8.80 8.34 99.90
16831 2019-11-05 01:01:56 ESP12E-S1 8.90 8.45 99.90
16830 2019-11-05 00:33:39 ESP12E-S1 9.10 8.67 99.90
16829 2019-11-05 00:05:21 ESP12E-S1 9.20 8.78 99.90
16828 2019-11-04 23:37:06 ESP12E-S1 9.30 8.89 99.90
16827 2019-11-04 23:08:50 ESP12E-S1 9.40 9.00 99.90
16826 2019-11-04 22:40:33 ESP12E-S1 9.60 9.22 99.90
16825 2019-11-04 22:12:15 ESP12E-S1 9.60 9.22 99.90
16824 2019-11-04 21:43:56 ESP12E-S1 9.60 9.22 99.90
16823 2019-11-04 21:15:38 ESP12E-S1 9.60 9.22 99.90
16822 2019-11-04 20:47:20 ESP12E-S1 9.50 9.11 99.90
16821 2019-11-04 20:19:02 ESP12E-S1 9.60 9.22 99.90
16820 2019-11-04 19:50:47 ESP12E-S1 9.50 9.11 99.90
16819 2019-11-04 19:22:30 ESP12E-S1 9.80 9.44 99.90
16818 2019-11-04 18:54:12 ESP12E-S1 9.70 9.33 99.90
16817 2019-11-04 18:25:56 ESP12E-S1 9.80 9.44 99.90
16816 2019-11-04 17:57:37 ESP12E-S1 9.70 9.33 99.90
16815 2019-11-04 17:29:21 ESP12E-S1 9.90 9.55 99.90
16814 2019-11-04 17:01:07 ESP12E-S1 10.20 9.88 99.90
16813 2019-11-04 16:32:52 ESP12E-S1 10.60 10.32 99.90
16812 2019-11-04 16:04:39 ESP12E-S1 11.00 10.76 99.90
16811 2019-11-04 15:36:18 ESP12E-S1 10.60 10.32 99.90
16810 2019-11-04 15:07:57 ESP12E-S1 10.40 10.10 99.90
16809 2019-11-04 14:39:39 ESP12E-S1 9.90 9.55 99.90
16808 2019-11-04 14:11:21 ESP12E-S1 9.90 9.55 99.90
16807 2019-11-04 13:43:03 ESP12E-S1 9.80 9.44 99.90
16806 2019-11-04 13:14:45 ESP12E-S1 9.70 9.33 99.90
16805 2019-11-04 12:46:27 ESP12E-S1 9.70 9.33 99.90
16804 2019-11-04 12:18:09 ESP12E-S1 9.80 9.44 99.90
16803 2019-11-04 11:49:51 ESP12E-S1 9.90 9.55 99.90
16802 2019-11-04 11:21:33 ESP12E-S1 9.90 9.55 99.90
16801 2019-11-04 10:53:15 ESP12E-S1 10.00 9.66 99.90
16800 2019-11-04 10:24:59 ESP12E-S1 10.10 9.77 99.90
16799 2019-11-04 09:56:40 ESP12E-S1 9.90 9.55 99.90
16798 2019-11-04 09:28:22 ESP12E-S1 9.90 9.55 99.90
16797 2019-11-04 09:00:03 ESP12E-S1 9.80 9.44 99.90
16796 2019-11-04 08:31:47 ESP12E-S1 9.80 9.44 99.90
16795 2019-11-04 08:03:28 ESP12E-S1 9.70 9.33 99.90
16794 2019-11-04 07:35:11 ESP12E-S1 9.70 9.33 99.90
16793 2019-11-04 07:06:53 ESP12E-S1 9.70 9.33 99.90
16792 2019-11-04 06:38:35 ESP12E-S1 9.70 9.33 99.90
16791 2019-11-04 06:10:18 ESP12E-S1 9.70 9.33 99.90
16790 2019-11-04 05:42:00 ESP12E-S1 9.70 9.33 99.90
16789 2019-11-04 05:13:42 ESP12E-S1 9.80 9.44 99.90
16788 2019-11-04 04:45:23 ESP12E-S1 9.90 9.55 99.90
16787 2019-11-04 04:17:06 ESP12E-S1 9.90 9.55 99.90
16786 2019-11-04 03:48:48 ESP12E-S1 10.00 9.66 99.90
16785 2019-11-04 03:20:32 ESP12E-S1 10.10 9.77 99.90
16784 2019-11-04 02:52:15 ESP12E-S1 10.10 9.77 99.90
16783 2019-11-04 02:24:00 ESP12E-S1 10.30 9.99 99.90
16782 2019-11-04 01:55:43 ESP12E-S1 10.40 10.10 99.90
16781 2019-11-04 01:27:27 ESP12E-S1 10.50 10.21 99.90
16780 2019-11-04 00:59:12 ESP12E-S1 10.70 10.43 99.90
16779 2019-11-04 00:30:57 ESP12E-S1 10.80 10.54 99.90
16778 2019-11-04 00:02:40 ESP12E-S1 10.80 10.54 99.90
16777 2019-11-03 23:34:23 ESP12E-S1 10.90 10.65 99.90
16776 2019-11-03 23:06:04 ESP12E-S1 11.00 10.76 99.90
16775 2019-11-03 22:37:47 ESP12E-S1 11.10 10.87 99.90
16774 2019-11-03 22:09:31 ESP12E-S1 11.20 10.98 99.90
16773 2019-11-03 21:41:14 ESP12E-S1 11.30 11.09 99.90
16772 2019-11-03 21:12:58 ESP12E-S1 11.40 11.20 99.90
16771 2019-11-03 20:44:42 ESP12E-S1 11.50 11.31 99.90
16770 2019-11-03 20:16:26 ESP12E-S1 11.60 11.42 99.90
16769 2019-11-03 19:48:07 ESP12E-S1 11.70 11.53 99.90
16768 2019-11-03 19:19:50 ESP12E-S1 11.90 11.75 99.90
16767 2019-11-03 18:51:32 ESP12E-S1 12.00 11.86 99.90
16766 2019-11-03 18:23:16 ESP12E-S1 12.00 11.86 99.90
16765 2019-11-03 17:54:58 ESP12E-S1 12.10 11.97 99.90
16764 2019-11-03 17:26:59 ESP12E-S1 12.20 12.08 99.90
16763 2019-11-03 16:58:35 ESP12E-S1 12.30 12.19 99.90
16762 2019-11-03 16:30:20 ESP12E-S1 12.50 12.41 99.90
16761 2019-11-03 16:02:03 ESP12E-S1 12.60 12.52 99.90
16760 2019-11-03 15:33:47 ESP12E-S1 12.70 12.63 99.90
16759 2019-11-03 15:05:49 ESP12E-S1 12.70 12.63 99.90
16758 2019-11-03 14:37:23 ESP12E-S1 12.60 12.52 99.90
16757 2019-11-03 14:09:18 ESP12E-S1 12.70 12.63 99.90
16756 2019-11-03 13:41:16 ESP12E-S1 12.90 12.85 99.90
16755 2019-11-03 13:12:52 ESP12E-S1 13.00 12.96 99.90
16754 2019-11-03 12:44:32 ESP12E-S1 12.40 12.30 99.90
16753 2019-11-03 12:16:38 ESP12E-S1 12.20 12.08 99.90
16752 2019-11-03 11:48:08 ESP12E-S1 11.90 11.75 99.90
16751 2019-11-03 11:20:09 ESP12E-S1 11.60 11.42 99.90
16750 2019-11-03 10:51:42 ESP12E-S1 11.20 10.98 99.90
16749 2019-11-03 10:23:48 ESP12E-S1 10.90 10.65 99.90
16748 2019-11-03 09:55:44 ESP12E-S1 10.70 10.43 99.90
16747 2019-11-03 09:27:14 ESP12E-S1 10.60 10.32 99.90
16746 2019-11-03 08:59:16 ESP12E-S1 10.50 10.21 99.90
16745 2019-11-03 08:30:51 ESP12E-S1 10.40 10.10 99.90
16744 2019-11-03 08:02:32 ESP12E-S1 10.40 10.10 99.90
16743 2019-11-03 07:34:14 ESP12E-S1 10.40 10.10 99.90
16742 2019-11-03 07:05:57 ESP12E-S1 10.40 10.10 99.90
16741 2019-11-03 06:37:41 ESP12E-S1 10.30 9.99 99.90
16740 2019-11-03 06:09:34 ESP12E-S1 10.30 9.99 99.90
16739 2019-11-03 05:41:48 ESP12E-S1 10.30 9.99 99.90
16738 2019-11-03 05:13:31 ESP12E-S1 10.30 9.99 99.90
16737 2019-11-03 04:45:25 ESP12E-S1 10.30 9.99 99.90
16736 2019-11-03 04:17:11 ESP12E-S1 10.30 9.99 99.90
16735 2019-11-03 03:48:49 ESP12E-S1 10.30 9.99 99.90
16734 2019-11-03 03:20:32 ESP12E-S1 10.30 9.99 99.90
16733 2019-11-03 02:52:26 ESP12E-S1 10.40 10.10 99.90
16732 2019-11-03 02:24:04 ESP12E-S1 10.30 9.99 99.90
16731 2019-11-03 01:55:48 ESP12E-S1 10.40 10.10 99.90
16730 2019-11-03 01:27:50 ESP12E-S1 10.50 10.21 99.90
16729 2019-11-03 00:59:25 ESP12E-S1 10.60 10.32 99.90
16728 2019-11-03 00:31:08 ESP12E-S1 10.70 10.43 99.90
16727 2019-11-03 00:02:51 ESP12E-S1 10.70 10.43 99.90
16726 2019-11-02 23:34:54 ESP12E-S1 10.80 10.54 99.90
16725 2019-11-02 23:06:31 ESP12E-S1 11.00 10.76 99.90
16724 2019-11-02 22:38:13 ESP12E-S1 11.10 10.87 99.90
16723 2019-11-02 22:09:58 ESP12E-S1 11.30 11.09 99.90
16722 2019-11-02 21:42:00 ESP12E-S1 11.50 11.31 99.90
16721 2019-11-02 21:13:46 ESP12E-S1 11.70 11.53 99.90
16720 2019-11-02 20:45:24 ESP12E-S1 11.80 11.64 99.90
16719 2019-11-02 20:17:07 ESP12E-S1 11.90 11.75 99.90
16718 2019-11-02 19:48:51 ESP12E-S1 12.10 11.97 99.90
16717 2019-11-02 19:20:43 ESP12E-S1 12.30 12.19 99.90
16716 2019-11-02 18:52:43 ESP12E-S1 12.40 12.30 99.90
16715 2019-11-02 18:24:30 ESP12E-S1 12.60 12.52 99.90
16714 2019-11-02 17:56:29 ESP12E-S1 12.80 12.74 99.90